Provisional Data: Sing Sing Creek near Big Flats, NY


Please select a monitoring station.
Please select start date.
Please select start date.

Toggle Unit: C/F Toggle Unit: C/F
Sample Time Temperature (C) Temperature (F) Specific Conductivity (mS/cm) pH   Turbidity (NTU+) DO (mg/L)
10/17/2022 12:00:00 AM 11.61 52.898 0.62 7.8 3.53 9.43
10/17/2022 12:15:00 AM 11.57 52.826 0.62 7.81 4.07 9.39
10/17/2022 12:30:00 AM 11.54 52.772 0.621 7.81 4.95 9.26
10/17/2022 12:45:00 AM 11.51 52.718 0.62 7.8 3.27 9.2
10/17/2022 1:00:00 AM 11.48 52.664 0.623 7.76 3.93 9.01
10/17/2022 1:15:00 AM 11.44 52.592 0.621 7.79 3.23 8.95
10/17/2022 1:30:00 AM 11.42 52.556 0.621 7.79 3.32 8.89
10/17/2022 1:45:00 AM 11.4 52.52 0.621 7.78 3.3 8.79
10/17/2022 2:00:00 AM 11.39 52.502 0.622 7.76 3.31 8.67
10/17/2022 2:15:00 AM 11.37 52.466 0.622 7.76 3.66 8.52
10/17/2022 2:30:00 AM 11.36 52.448 0.623 7.73 3.59 8.43
10/17/2022 2:45:00 AM 11.34 52.412 0.623 7.74 4.26 8.3
10/17/2022 3:00:00 AM 11.31 52.358 0.623 7.75 3.1 8.19
10/17/2022 3:15:00 AM 11.29 52.322 0.624 7.74 3.48 8.1
10/17/2022 3:30:00 AM 11.28 52.304 0.624 7.72 3.58 7.98
10/17/2022 3:45:00 AM 11.23 52.214 0.625 7.7 3.93 7.85
10/17/2022 4:00:00 AM 11.19 52.142 0.625 7.71 3.63 7.78
10/17/2022 4:15:00 AM 11.15 52.07 0.626 7.72 3.31 7.7
10/17/2022 4:30:00 AM 11.11 51.998 0.626 7.7 3.39 7.57
10/17/2022 4:45:00 AM 11.07 51.926 0.627 7.7 3.22 7.47
10/17/2022 5:00:00 AM 11.04 51.872 0.629 7.7 4.04 7.37
10/17/2022 5:15:00 AM 10.99 51.782 0.628 7.69 3.41 7.28
10/17/2022 5:30:00 AM 10.94 51.692 0.629 7.68 3.26 7.17
10/17/2022 5:45:00 AM 10.9 51.62 0.629 7.68 3.83 7.11
10/17/2022 6:00:00 AM 10.86 51.548 0.63 7.67 3.83 7.01
10/17/2022 6:15:00 AM 10.82 51.476 0.63 7.67 3.4 6.95
10/17/2022 6:30:00 AM 10.78 51.404 0.631 7.67 3.3 6.86
10/17/2022 6:45:00 AM 10.74 51.332 0.632 7.65 3.15 6.77
10/17/2022 7:00:00 AM 10.7 51.26 0.632 7.65 3.19 6.73
10/17/2022 7:15:00 AM 10.66 51.188 0.632 7.66 3.23 6.66
10/17/2022 7:30:00 AM 10.62 51.116 0.633 7.65 3.03 6.62
10/17/2022 7:45:00 AM 10.59 51.062 0.634 7.64 3.03 6.57
10/17/2022 8:00:00 AM 10.56 51.008 0.634 7.63 3.25 6.49
10/17/2022 8:15:00 AM 10.53 50.954 0.634 7.64 3.11 6.49
10/17/2022 8:30:00 AM 10.5 50.9 0.635 7.64 3.05 6.5
10/17/2022 8:45:00 AM 10.48 50.864 0.635 7.63 3.2 6.48
10/17/2022 9:00:00 AM 10.47 50.846 0.635 7.63 2.97 6.53
10/17/2022 9:15:00 AM 10.46 50.828 0.636 7.64 3.04 6.57
10/17/2022 9:30:00 AM 10.45 50.81 0.637 7.64 3.27 6.6
10/17/2022 9:45:00 AM 10.45 50.81 0.637 7.64 3.27 6.65
10/17/2022 10:00:00 AM 10.46 50.828 0.637 7.65 3.13 6.8
10/17/2022 10:15:00 AM 10.48 50.864 0.638 7.66 2.99 6.98
10/17/2022 10:30:00 AM 10.5 50.9 0.638 7.67 3.09 7.15
10/17/2022 10:45:00 AM 10.55 50.99 0.638 7.68 3.04 7.36
10/17/2022 11:00:00 AM 10.59 51.062 0.638 7.7 3.04 7.55
10/17/2022 11:15:00 AM 10.66 51.188 0.639 7.71 3.07 7.77
10/17/2022 11:30:00 AM 10.73 51.314 0.639 7.71 2.98 7.96
10/17/2022 11:45:00 AM 10.82 51.476 0.639 7.74 3.01 8.23
10/17/2022 12:00:00 PM 10.91 51.638 0.639 7.76 3.11 8.42
10/17/2022 12:15:00 PM 10.99 51.782 0.64 7.77 3.02 8.71
10/17/2022 12:30:00 PM 11.04 51.872 0.639 7.77 2.98 8.83
10/17/2022 12:45:00 PM 11.06 51.908 0.64 7.79 2.96 8.9
10/17/2022 1:00:00 PM 11.06 51.908 0.641 7.79 2.99 8.89
10/17/2022 1:15:00 PM 11.05 51.89 0.641 7.79 2.94 8.87
10/17/2022 1:30:00 PM 11.07 51.926 0.643 7.74 3.35 8.97
10/17/2022 1:45:00 PM 11.11 51.998 0.642 7.8 3.1 9.09
10/17/2022 2:00:00 PM 11.16 52.088 0.642 7.83 3.03 9.36
10/17/2022 2:15:00 PM 11.22 52.196 0.643 7.85 3.17 9.61
10/17/2022 2:30:00 PM 11.27 52.286 0.644 7.88 3.05 9.82
10/17/2022 2:45:00 PM 11.32 52.376 0.643 7.9 3.09 10.05
10/17/2022 3:00:00 PM 11.39 52.502 0.643 7.91 3.02 10.33
10/17/2022 3:15:00 PM 11.44 52.592 0.643 7.92 3.12 10.48
10/17/2022 3:30:00 PM 11.48 52.664 0.644 7.95 2.92 10.72
10/17/2022 3:45:00 PM 11.5 52.7 0.649 7.94 3.08 10.86
10/17/2022 4:00:00 PM 11.54 52.772 0.645 7.98 3.24 11.03
10/17/2022 4:15:00 PM 11.56 52.808 0.644 7.99 3.05 11.28
10/17/2022 4:30:00 PM 11.59 52.862 0.645 8 3.12 11.42
10/17/2022 4:45:00 PM 11.59 52.862 0.646 8.03 3.06 11.51
10/17/2022 5:00:00 PM 11.55 52.79 0.649 8.02 3.37 11.47
10/17/2022 5:15:00 PM 11.5 52.7 0.646 8.01 3.24 11.59
10/17/2022 5:30:00 PM 11.47 52.646 0.646 8.03 2.98 11.57
10/17/2022 5:45:00 PM 11.44 52.592 0.647 8.04 3.06 11.57
10/17/2022 6:00:00 PM 11.42 52.556 0.649 8.03 3.47 11.57
10/17/2022 6:15:00 PM 11.37 52.466 0.648 7.99 3.18 11.54
10/17/2022 6:30:00 PM 11.32 52.376 0.648 8.03 2.98 11.46
10/17/2022 6:45:00 PM 11.27 52.286 0.648 8.02 3.18 11.36
10/17/2022 7:00:00 PM 11.2 52.16 0.649 7.99 3.1 11.23
10/17/2022 7:15:00 PM 11.15 52.07 0.65 7.99 3.91 11.08
10/17/2022 7:30:00 PM 11.1 51.98 0.65 7.95 3.74 11.01
10/17/2022 7:45:00 PM 11.06 51.908 0.65 7.96 3 10.94
10/17/2022 8:00:00 PM 11.03 51.854 0.65 7.97 3.08 10.84
10/17/2022 8:15:00 PM 11 51.8 0.65 7.95 2.93 10.79
10/17/2022 8:30:00 PM 10.97 51.746 0.651 7.95 2.96 10.7
10/17/2022 8:45:00 PM 10.94 51.692 0.652 7.94 3.11 10.61
10/17/2022 9:00:00 PM 10.9 51.62 0.651 7.95 2.96 10.52
10/17/2022 9:15:00 PM 10.86 51.548 0.651 7.91 3.13 10.49
10/17/2022 9:30:00 PM 10.82 51.476 0.652 7.93 3.29 10.44
10/17/2022 9:45:00 PM 10.79 51.422 0.652 7.92 2.91 10.38
10/17/2022 10:00:00 PM 10.75 51.35 0.653 7.91 3.06 10.3
10/17/2022 10:15:00 PM 10.71 51.278 0.652 7.91 3.15 10.26
10/17/2022 10:30:00 PM 10.69 51.242 0.653 7.91 3.04 10.21
10/17/2022 10:45:00 PM 10.65 51.17 0.653 7.89 3.17 10.15
10/17/2022 11:00:00 PM 10.6 51.08 0.653 7.9 3.1 10.07
10/17/2022 11:15:00 PM 10.56 51.008 0.653 7.88 3.07 9.97
10/17/2022 11:30:00 PM 10.52 50.936 0.656 7.87 2.99 9.88
10/17/2022 11:45:00 PM 10.48 50.864 0.655 7.87 2.94 9.81
10/18/2022 12:00:00 AM 10.42 50.756 0.654 7.86 3.06 9.72
10/18/2022 12:15:00 AM 10.39 50.702 0.66 7.83 3.25 9.59
10/18/2022 12:30:00 AM 10.34 50.612 0.657 7.83 3.24 9.47
10/18/2022 12:45:00 AM 10.27 50.486 0.656 7.83 3.14 9.41
10/18/2022 1:00:00 AM 10.22 50.396 0.655 7.78 3.18 9.33
10/18/2022 1:15:00 AM 10.15 50.27 0.656 7.81 3.08 9.21
10/18/2022 1:30:00 AM 10.11 50.198 0.661 7.8 3.27 9.09
10/18/2022 1:45:00 AM 10.04 50.072 0.66 7.79 3.18 8.96
10/18/2022 2:00:00 AM 9.98 49.964 0.661 7.77 3.1 8.88
10/18/2022 2:15:00 AM 9.91 49.838 0.661 7.77 3.11 8.79
10/18/2022 2:30:00 AM 9.85 49.73 0.661 7.77 3.25 8.7
10/18/2022 2:45:00 AM 9.78 49.604 0.662 7.71 3.12 8.6
10/18/2022 3:00:00 AM 9.72 49.496 0.662 7.75 3.16 8.52
10/18/2022 3:15:00 AM 9.67 49.406 0.662 7.71 3.3 8.48
10/18/2022 3:30:00 AM 9.59 49.262 0.66 7.73 3.16 8.4
10/18/2022 3:45:00 AM 9.53 49.154 0.66 7.73 3.18 8.3
10/18/2022 4:00:00 AM 9.48 49.064 0.661 7.66 3.11 8.23
10/18/2022 4:15:00 AM 9.42 48.956 0.666 7.68 5.08 8.12
10/18/2022 4:30:00 AM 9.27 48.686 0.661 7.72 5.57 8.17
10/18/2022 4:45:00 AM 9.2 48.56 0.661 7.73 3.27 8.12
10/18/2022 5:00:00 AM 9.14 48.452 0.661 7.72 3.31 8.06
10/18/2022 5:15:00 AM 9.07 48.326 0.662 7.72 3.34 7.99
10/18/2022 5:30:00 AM 9 48.2 0.662 7.71 3.71 7.91
10/18/2022 5:45:00 AM 8.93 48.074 0.663 7.71 3.57 7.82
10/18/2022 6:00:00 AM 8.86 47.948 0.663 7.7 3.54 7.75
10/18/2022 6:15:00 AM 8.8 47.84 0.664 7.7 3.81 7.67
10/18/2022 6:30:00 AM 8.73 47.714 0.664 7.69 3.27 7.6
10/18/2022 6:45:00 AM 8.66 47.588 0.665 7.69 3.17 7.55
10/18/2022 7:00:00 AM 8.59 47.462 0.665 7.67 3.1 7.48
10/18/2022 7:15:00 AM 8.53 47.354 0.666 7.68 3.54 7.42
10/18/2022 7:30:00 AM 8.46 47.228 0.666 7.68 3.03 7.37
10/18/2022 7:45:00 AM 8.39 47.102 0.666 7.68 3.17 7.33
10/18/2022 8:00:00 AM 8.33 46.994 0.667 7.67 2.96 7.31
10/18/2022 8:15:00 AM 8.28 46.904 0.667 7.67 3.01 7.3
10/18/2022 8:30:00 AM 8.23 46.814 0.667 7.68 3.1 7.32
10/18/2022 8:45:00 AM 8.2 46.76 0.668 7.68 3.12 7.36
10/18/2022 9:00:00 AM 8.18 46.724 0.668 7.68 3.05 7.46
10/18/2022 9:15:00 AM 8.18 46.724 0.668 7.7 3.51 7.54
10/18/2022 9:30:00 AM 8.19 46.742 0.668 7.71 3.1 7.71
10/18/2022 9:45:00 AM 8.23 46.814 0.668 7.73 3.01 7.86
10/18/2022 10:00:00 AM 8.26 46.868 0.668 7.74 3.67 8.02
10/18/2022 10:15:00 AM 8.31 46.958 0.668 7.75 2.96 8.2
10/18/2022 10:30:00 AM 8.37 47.066 0.668 7.77 2.97 8.42
10/18/2022 10:45:00 AM 8.44 47.192 0.668 7.79 2.97 8.64
10/18/2022 11:00:00 AM 8.5 47.3 0.668 7.81 2.93 8.86
10/18/2022 11:15:00 AM 8.56 47.408 0.668 7.83 2.94 9.1
10/18/2022 11:30:00 AM 8.62 47.516 0.667 7.85 2.93 9.33
10/18/2022 11:45:00 AM 8.7 47.66 0.667 7.86 2.99 9.56
10/18/2022 12:00:00 PM 8.76 47.768 0.667 7.88 2.88 9.77
10/18/2022 12:15:00 PM 8.8 47.84 0.667 7.9 2.96 9.95
10/18/2022 12:30:00 PM 8.86 47.948 0.667 7.92 2.91 10.12
10/18/2022 12:45:00 PM 8.91 48.038 0.666 7.92 2.94 10.31
10/18/2022 1:00:00 PM 8.99 48.182 0.666 7.95 2.96 10.51
10/18/2022 1:15:00 PM 9.13 48.434 0.666 7.97 2.99 10.74
10/18/2022 1:30:00 PM 9.26 48.668 0.665 7.99 3.02 10.98
10/18/2022 1:45:00 PM 9.37 48.866 0.665 8.01 2.94 11.2
10/18/2022 2:00:00 PM 9.42 48.956 0.665 8.03 2.99 11.38
10/18/2022 2:15:00 PM 9.43 48.974 0.664 8.05 2.97 11.53
10/18/2022 2:30:00 PM 9.44 48.992 0.664 8.05 2.92 11.65
10/18/2022 2:45:00 PM 9.45 49.01 0.664 8.07 3.02 11.75
10/18/2022 3:00:00 PM 9.5 49.1 0.664 8.08 2.99 11.88
10/18/2022 3:15:00 PM 9.56 49.208 0.663 8.09 3 12.02
10/18/2022 3:30:00 PM 9.64 49.352 0.663 8.11 3 12.15
10/18/2022 3:45:00 PM 9.67 49.406 0.663 8.12 2.94 12.25
10/18/2022 4:00:00 PM 9.67 49.406 0.663 8.13 3.09 12.32
10/18/2022 4:15:00 PM 9.73 49.514 0.663 8.14 3.03 12.45
10/18/2022 4:30:00 PM 9.78 49.604 0.662 8.15 2.96 12.57
10/18/2022 4:45:00 PM 9.77 49.586 0.662 8.15 2.88 12.63
10/18/2022 5:00:00 PM 9.72 49.496 0.662 8.16 3.04 12.65
10/18/2022 5:15:00 PM 9.69 49.442 0.662 8.16 2.95 12.65
10/18/2022 5:30:00 PM 9.64 49.352 0.662 8.15 2.97 12.61
10/18/2022 5:45:00 PM 9.6 49.28 0.662 8.15 2.96 12.54
10/18/2022 6:00:00 PM 9.57 49.226 0.662 8.14 3.03 12.45
10/18/2022 6:15:00 PM 9.54 49.172 0.662 8.13 3 12.36
10/18/2022 6:30:00 PM 9.52 49.136 0.662 8.12 3.02 12.29
10/18/2022 6:45:00 PM 9.49 49.082 0.663 8.11 3.14 12.19
10/18/2022 7:00:00 PM 9.46 49.028 0.663 8.1 3.2 12.1
10/18/2022 7:15:00 PM 9.43 48.974 0.663 8.09 3.03 12
10/18/2022 7:30:00 PM 9.38 48.884 0.663 8.07 3.23 11.87
10/18/2022 7:45:00 PM 9.35 48.83 0.663 8.07 3.13 11.79
10/18/2022 8:00:00 PM 9.32 48.776 0.663 8.06 2.95 11.7
10/18/2022 8:15:00 PM 9.28 48.704 0.664 8.05 2.97 11.61
10/18/2022 8:30:00 PM 9.24 48.632 0.664 8.04 2.95 11.53
10/18/2022 8:45:00 PM 9.19 48.542 0.664 8.03 3.14 11.45
10/18/2022 9:00:00 PM 9.15 48.47 0.664 8.02 3.54 11.38
10/18/2022 9:15:00 PM 9.11 48.398 0.664 8.01 3.5 11.31
10/18/2022 9:30:00 PM 9.08 48.344 0.664 8 3.31 11.24
10/18/2022 9:45:00 PM 9.04 48.272 0.664 8 3.03 11.18
10/18/2022 10:00:00 PM 9.01 48.218 0.664 7.99 3.41 11.13
10/18/2022 10:15:00 PM 8.97 48.146 0.664 7.98 3.21 11.07
10/18/2022 10:30:00 PM 8.94 48.092 0.664 7.98 3 11.01
10/18/2022 10:45:00 PM 8.9 48.02 0.664 7.96 3.08 10.95
10/18/2022 11:00:00 PM 8.87 47.966 0.664 7.97 3.05 10.89
10/18/2022 11:15:00 PM 8.84 47.912 0.664 7.96 3.13 10.82
10/18/2022 11:30:00 PM 8.82 47.876 0.664 7.94 3.67 10.75
10/18/2022 11:45:00 PM 8.79 47.822 0.664 7.93 3.05 10.68
10/19/2022 12:00:00 AM 8.75 47.75 0.664 7.92 3.1 10.6
10/19/2022 12:15:00 AM 8.71 47.678 0.664 7.92 3.22 10.52
10/19/2022 12:30:00 AM 8.67 47.606 0.664 7.91 3.28 10.44
10/19/2022 12:45:00 AM 8.63 47.534 0.664 7.9 3.36 10.36
10/19/2022 1:00:00 AM 8.58 47.444 0.664 7.9 3.23 10.27
10/19/2022 1:15:00 AM 8.54 47.372 0.665 7.88 3.12 10.19
10/19/2022 1:30:00 AM 8.49 47.282 0.665 7.89 3.11 10.11
10/19/2022 1:45:00 AM 8.45 47.21 0.665 7.88 3.14 10.03
10/19/2022 2:00:00 AM 8.42 47.156 0.665 7.87 3.23 9.94
10/19/2022 2:15:00 AM 8.38 47.084 0.665 7.87 3.52 9.85
10/19/2022 2:30:00 AM 8.35 47.03 0.665 7.85 3.5 9.77
10/19/2022 2:45:00 AM 8.31 46.958 0.665 7.86 4.67 9.69
10/19/2022 3:00:00 AM 8.29 46.922 0.665 7.85 3.24 9.6
10/19/2022 3:15:00 AM 8.26 46.868 0.666 7.85 3.25 9.51
10/19/2022 3:30:00 AM 8.24 46.832 0.666 7.85 4.19 9.44
10/19/2022 3:45:00 AM 8.22 46.796 0.666 7.84 3.06 9.35
10/19/2022 4:00:00 AM 8.19 46.742 0.666 7.83 3.48 9.26
10/19/2022 4:15:00 AM 8.16 46.688 0.666 7.83 3.37 9.18
10/19/2022 4:30:00 AM 8.14 46.652 0.667 7.83 3.07 9.09
10/19/2022 4:45:00 AM 8.12 46.616 0.667 7.82 3.21 9
10/19/2022 5:00:00 AM 8.09 46.562 0.667 7.82 3.26 8.91
10/19/2022 5:15:00 AM 8.05 46.49 0.667 7.81 3.44 8.83
10/19/2022 5:30:00 AM 8.03 46.454 0.667 7.81 3.02 8.76
10/19/2022 5:45:00 AM 7.99 46.382 0.668 7.8 3.09 8.67
10/19/2022 6:00:00 AM 7.96 46.328 0.668 7.8 3.13 8.59
10/19/2022 6:15:00 AM 7.93 46.274 0.668 7.78 3.33 8.51
10/19/2022 6:30:00 AM 7.89 46.202 0.668 7.78 3.19 8.43
10/19/2022 6:45:00 AM 7.85 46.13 0.668 7.78 3.31 8.37
10/19/2022 7:00:00 AM 7.83 46.094 0.669 7.77 3.03 8.3
10/19/2022 7:15:00 AM 7.8 46.04 0.669 7.77 3.07 8.24
10/19/2022 7:30:00 AM 7.77 45.986 0.669 7.77 3.32 8.18
10/19/2022 7:45:00 AM 7.75 45.95 0.669 7.76 3.05 8.13
10/19/2022 8:00:00 AM 7.73 45.914 0.669 7.76 3.07 8.12
10/19/2022 8:15:00 AM 7.71 45.878 0.669 7.76 3.52 8.11
10/19/2022 8:30:00 AM 7.7 45.86 0.669 7.75 4.07 8.13
10/19/2022 8:45:00 AM 7.7 45.86 0.67 7.75 20.57 8.09
10/19/2022 9:00:00 AM 7.7 45.86 0.669 7.77 9.29 8.27
10/19/2022 9:15:00 AM 7.71 45.878 0.669 7.78 3.03 8.4
10/19/2022 9:30:00 AM 7.71 45.878 0.669 7.8 3.07 8.54
10/19/2022 9:45:00 AM 7.71 45.878 0.669 7.81 2.63 8.69
10/19/2022 10:00:00 AM 7.73 45.914 0.669 7.81 2.58 8.83
10/19/2022 10:15:00 AM 7.77 45.986 0.669 7.83 2.59 9.02
10/19/2022 10:30:00 AM 7.81 46.058 0.669 7.85 2.57 9.22
10/19/2022 10:45:00 AM 7.86 46.148 0.668 7.86 2.56 9.42
10/19/2022 11:00:00 AM 7.89 46.202 0.668 7.88 2.59 9.61
10/19/2022 11:15:00 AM 7.93 46.274 0.668 7.89 2.51 9.78
10/19/2022 11:30:00 AM 7.98 46.364 0.668 7.91 2.52 9.95
10/19/2022 11:45:00 AM 8.02 46.436 0.668 7.92 2.56 10.14
10/19/2022 12:00:00 PM 8.09 46.562 0.667 7.94 2.75 10.35
10/19/2022 12:15:00 PM 8.16 46.688 0.667 7.96 2.71 10.56
10/19/2022 12:30:00 PM 8.24 46.832 0.667 7.97 2.49 10.78
10/19/2022 12:45:00 PM 8.3 46.94 0.666 7.99 2.57 10.98
10/19/2022 1:00:00 PM 8.34 47.012 0.666 8.01 2.41 11.13
10/19/2022 1:15:00 PM 8.37 47.066 0.666 8.02 2.49 11.28
10/19/2022 1:30:00 PM 8.43 47.174 0.665 8.03 2.52 11.44
10/19/2022 1:45:00 PM 8.51 47.318 0.665 8.06 2.52 11.62
10/19/2022 2:00:00 PM 8.62 47.516 0.664 8.08 2.51 11.83
10/19/2022 2:15:00 PM 8.71 47.678 0.664 8.09 2.5 12.02
10/19/2022 2:30:00 PM 8.77 47.786 0.664 8.11 2.38 12.17
10/19/2022 2:45:00 PM 8.78 47.804 0.663 8.12 2.53 12.28
10/19/2022 3:00:00 PM 8.8 47.84 0.663 8.14 2.56 12.42
10/19/2022 3:15:00 PM 8.82 47.876 0.663 8.15 2.56 12.53
10/19/2022 3:30:00 PM 8.85 47.93 0.662 8.17 2.49 12.68
10/19/2022 3:45:00 PM 8.9 48.02 0.662 8.17 2.49 12.82
10/19/2022 4:00:00 PM 8.94 48.092 0.662 8.2 2.5 12.96
10/19/2022 4:15:00 PM 8.97 48.146 0.661 8.2 2.48 13.07
10/19/2022 4:30:00 PM 8.98 48.164 0.661 8.21 2.5 13.17
10/19/2022 4:45:00 PM 9 48.2 0.661 8.23 2.58 13.25
10/19/2022 5:00:00 PM 8.99 48.182 0.661 8.23 2.64 13.31
10/19/2022 5:15:00 PM 8.99 48.182 0.661 8.24 2.49 13.36
10/19/2022 5:30:00 PM 8.97 48.146 0.66 8.24 2.55 13.36
10/19/2022 5:45:00 PM 8.95 48.11 0.661 8.23 2.54 13.31
10/19/2022 6:00:00 PM 8.91 48.038 0.661 8.22 2.6 13.22
10/19/2022 6:15:00 PM 8.88 47.984 0.661 8.21 2.63 13.12
10/19/2022 6:30:00 PM 8.85 47.93 0.661 8.2 2.68 13.01
10/19/2022 6:45:00 PM 8.82 47.876 0.661 8.18 2.89 12.91
10/19/2022 7:00:00 PM 8.79 47.822 0.661 8.18 2.96 12.8
10/19/2022 7:15:00 PM 8.76 47.768 0.661 8.16 2.64 12.73
10/19/2022 7:30:00 PM 8.73 47.714 0.661 8.16 2.63 12.63
10/19/2022 7:45:00 PM 8.71 47.678 0.661 8.14 2.68 12.53
10/19/2022 8:00:00 PM 8.67 47.606 0.662 8.13 3.08 12.44
10/19/2022 8:15:00 PM 8.63 47.534 0.662 8.12 2.61 12.35
10/19/2022 8:30:00 PM 8.59 47.462 0.662 8.11 2.67 12.26
10/19/2022 8:45:00 PM 8.55 47.39 0.662 8.1 2.77 12.18
10/19/2022 9:00:00 PM 8.52 47.336 0.662 8.09 2.77 12.1
10/19/2022 9:15:00 PM 8.49 47.282 0.662 8.09 2.66 12.03
10/19/2022 9:30:00 PM 8.46 47.228 0.662 8.08 2.6 11.97
10/19/2022 9:45:00 PM 8.42 47.156 0.662 8.07 2.68 11.91
10/19/2022 10:00:00 PM 8.39 47.102 0.662 8.06 2.67 11.86
10/19/2022 10:15:00 PM 8.36 47.048 0.662 8.05 2.86 11.81
10/19/2022 10:30:00 PM 8.36 47.048 0.662 8.03 2.68 11.73
10/19/2022 10:45:00 PM 8.36 47.048 0.662 8.01 2.93 11.67
10/19/2022 11:00:00 PM 8.37 47.066 0.663 7.98 3.08 11.57
10/19/2022 11:15:00 PM 8.39 47.102 0.662 7.99 3.14 11.43
10/19/2022 11:30:00 PM 8.41 47.138 0.662 7.99 3.08 11.24
10/19/2022 11:45:00 PM 8.4 47.12 0.662 8 3.09 11.07
10/20/2022 12:00:00 AM 8.37 47.066 0.662 8 3.11 10.89
10/20/2022 12:15:00 AM 8.32 46.976 0.662 7.99 3.34 10.71
10/20/2022 12:30:00 AM 8.27 46.886 0.663 7.99 3.04 10.53
10/20/2022 12:45:00 AM 8.19 46.742 0.663 7.97 3.53 10.34
10/20/2022 1:00:00 AM 8.13 46.634 0.664 7.97 3.31 10.17
10/20/2022 1:15:00 AM 8.09 46.562 0.665 7.96 3.48 10.02
10/20/2022 1:30:00 AM 8.05 46.49 0.665 7.95 3.42 9.91
10/20/2022 1:45:00 AM 8.01 46.418 0.666 7.95 3.47 9.82
10/20/2022 2:00:00 AM 7.98 46.364 0.666 7.94 3.62 9.73
10/20/2022 2:15:00 AM 7.96 46.328 0.666 7.93 3.62 9.67
10/20/2022 2:30:00 AM 7.93 46.274 0.667 7.92 3.66 9.61
10/20/2022 2:45:00 AM 7.9 46.22 0.667 7.92 3.95 9.56
10/20/2022 3:00:00 AM 7.87 46.166 0.667 7.91 3.66 9.51
10/20/2022 3:15:00 AM 7.84 46.112 0.668 7.91 3.52 9.46
10/20/2022 3:30:00 AM 7.82 46.076 0.668 7.9 3.45 9.43
10/20/2022 3:45:00 AM 7.79 46.022 0.669 7.9 3.32 9.39
10/20/2022 4:00:00 AM 7.74 45.932 0.669 7.89 3.34 9.37
10/20/2022 4:15:00 AM 7.69 45.842 0.67 7.88 3.49 9.34
10/20/2022 4:30:00 AM 7.64 45.752 0.67 7.88 3.24 9.32
10/20/2022 4:45:00 AM 7.59 45.662 0.671 7.87 3.16 9.32
10/20/2022 5:00:00 AM 7.54 45.572 0.671 7.86 3.23 9.31
10/20/2022 5:15:00 AM 7.5 45.5 0.672 7.87 3.37 9.31
10/20/2022 5:30:00 AM 7.46 45.428 0.672 7.87 3.12 9.31
10/20/2022 5:45:00 AM 7.42 45.356 0.673 7.87 3.22 9.32
10/20/2022 6:00:00 AM 7.38 45.284 0.673 7.87 3.13 9.34
10/20/2022 6:15:00 AM 7.34 45.212 0.674 7.87 3.12 9.35
10/20/2022 6:30:00 AM 7.31 45.158 0.674 7.86 3.07 9.37
10/20/2022 6:45:00 AM 7.28 45.104 0.674 7.87 3.14 9.39
10/20/2022 7:00:00 AM 7.25 45.05 0.675 7.86 3.02 9.41
10/20/2022 7:15:00 AM 7.23 45.014 0.675 7.87 2.93 9.43
10/20/2022 7:30:00 AM 7.2 44.96 0.675 7.86 2.98 9.45
10/20/2022 7:45:00 AM 7.17 44.906 0.676 7.87 2.86 9.48
10/20/2022 8:00:00 AM 7.15 44.87 0.676 7.88 2.87 9.53
10/20/2022 8:15:00 AM 7.14 44.852 0.676 7.88 2.92 9.59
10/20/2022 8:30:00 AM 7.13 44.834 0.677 7.89 2.78 9.67
10/20/2022 8:45:00 AM 7.13 44.834 0.677 7.9 2.79 9.77
10/20/2022 9:00:00 AM 7.12 44.816 0.677 7.91 2.77 9.87
10/20/2022 9:15:00 AM 7.1 44.78 0.677 7.92 2.76 9.94
10/20/2022 9:30:00 AM 7.1 44.78 0.677 7.92 2.91 10.03
10/20/2022 9:45:00 AM 7.12 44.816 0.677 7.94 2.79 10.16
10/20/2022 10:00:00 AM 7.14 44.852 0.677 7.96 2.71 10.33
10/20/2022 10:15:00 AM 7.2 44.96 0.677 7.98 2.73 10.53
10/20/2022 10:30:00 AM 7.26 45.068 0.677 7.99 3.72 10.72
10/20/2022 10:45:00 AM 7.31 45.158 0.677 8.02 2.78 10.91
10/20/2022 11:00:00 AM 7.36 45.248 0.677 8.04 2.78 11.08
10/20/2022 11:15:00 AM 7.48 45.464 0.677 8.06 2.72 11.28
10/20/2022 11:30:00 AM 7.64 45.752 0.676 8.09 2.66 11.5
10/20/2022 11:45:00 AM 7.75 45.95 0.676 8.11 2.67 11.67
10/20/2022 12:00:00 PM 7.77 45.986 0.676 8.12 2.7 11.79
10/20/2022 12:15:00 PM 7.76 45.968 0.676 8.13 2.63 11.86
10/20/2022 12:30:00 PM 7.77 45.986 0.675 8.14 2.69 11.95
10/20/2022 12:45:00 PM 7.77 45.986 0.675 8.15 2.7 12.03
10/20/2022 1:00:00 PM 7.77 45.986 0.675 8.16 2.65 12.11
10/20/2022 1:15:00 PM 7.76 45.968 0.674 8.16 2.79 12.17
10/20/2022 1:30:00 PM 7.77 45.986 0.674 8.18 2.81 12.25
10/20/2022 1:45:00 PM 7.8 46.04 0.673 8.2 2.89 12.38
10/20/2022 2:00:00 PM 7.83 46.094 0.673 8.21 2.88 12.48
10/20/2022 2:15:00 PM 7.86 46.148 0.672 8.21 3.02 12.59
10/20/2022 2:30:00 PM 7.88 46.184 0.671 8.23 2.76 12.68
10/20/2022 2:45:00 PM 7.91 46.238 0.67 8.24 2.74 12.8
10/20/2022 3:00:00 PM 7.97 46.346 0.67 8.26 2.68 12.93
10/20/2022 3:15:00 PM 8.02 46.436 0.669 8.27 2.72 13.06
10/20/2022 3:30:00 PM 8.05 46.49 0.668 8.28 2.69 13.15
10/20/2022 3:45:00 PM 8.07 46.526 0.667 8.3 2.59 13.24
10/20/2022 4:00:00 PM 8.08 46.544 0.666 8.31 2.73 13.34
10/20/2022 4:15:00 PM 8.11 46.598 0.665 8.31 2.59 13.42
10/20/2022 4:30:00 PM 8.13 46.634 0.664 8.32 2.8 13.46
10/20/2022 4:45:00 PM 8.13 46.634 0.663 8.32 2.67 13.49
10/20/2022 5:00:00 PM 8.13 46.634 0.662 8.33 2.64 13.5
10/20/2022 5:15:00 PM 8.14 46.652 0.661 8.33 2.61 13.51
10/20/2022 5:30:00 PM 8.15 46.67 0.66 8.32 2.68 13.49
10/20/2022 5:45:00 PM 8.15 46.67 0.66 8.32 2.55 13.45
10/20/2022 6:00:00 PM 8.15 46.67 0.659 8.3 2.58 13.35
10/20/2022 6:15:00 PM 8.14 46.652 0.659 8.3 2.62 13.23
10/20/2022 6:30:00 PM 8.13 46.634 0.658 8.28 2.57 13.1
10/20/2022 6:45:00 PM 8.11 46.598 0.657 8.27 2.9 12.98
10/20/2022 7:00:00 PM 8.1 46.58 0.657 8.26 2.66 12.87
10/20/2022 7:15:00 PM 8.08 46.544 0.657 8.24 2.84 12.73
10/20/2022 7:30:00 PM 8.06 46.508 0.656 8.23 2.71 12.65
10/20/2022 7:45:00 PM 8.05 46.49 0.656 8.22 2.87 12.54
10/20/2022 8:00:00 PM 8.03 46.454 0.656 8.21 2.66 12.44
10/20/2022 8:15:00 PM 8.02 46.436 0.655 8.19 2.62 12.34
10/20/2022 8:30:00 PM 8 46.4 0.655 8.19 2.9 12.24
10/20/2022 8:45:00 PM 7.99 46.382 0.655 8.18 2.82 12.14
10/20/2022 9:00:00 PM 7.99 46.382 0.654 8.17 2.76 12.04
10/20/2022 9:15:00 PM 7.98 46.364 0.654 8.15 3 11.95
10/20/2022 9:30:00 PM 7.97 46.346 0.654 8.14 3.04 11.85
10/20/2022 9:45:00 PM 7.95 46.31 0.654 8.13 2.82 11.75
10/20/2022 10:00:00 PM 7.94 46.292 0.654 8.11 2.72 11.66
10/20/2022 10:15:00 PM 7.93 46.274 0.654 8.11 2.86 11.55
10/20/2022 10:30:00 PM 7.91 46.238 0.654 8.09 2.82 11.46
10/20/2022 10:45:00 PM 7.9 46.22 0.654 8.08 2.76 11.37
10/20/2022 11:00:00 PM 7.89 46.202 0.654 8.07 2.68 11.25
10/20/2022 11:15:00 PM 7.88 46.184 0.654 8.06 2.76 11.16
10/20/2022 11:30:00 PM 7.87 46.166 0.654 8.05 2.83 11.05
10/20/2022 11:45:00 PM 7.86 46.148 0.654 8.04 2.68 10.95
10/21/2022 12:00:00 AM 7.84 46.112 0.655 8.02 2.93 10.85
10/21/2022 12:15:00 AM 7.83 46.094 0.655 8.01 2.82 10.75
10/21/2022 12:30:00 AM 7.81 46.058 0.655 8 3.12 10.65
10/21/2022 12:45:00 AM 7.8 46.04 0.655 7.99 3.39 10.55
10/21/2022 1:00:00 AM 7.78 46.004 0.655 7.98 3.03 10.45
10/21/2022 1:15:00 AM 7.76 45.968 0.655 7.97 3.29 10.36
10/21/2022 1:30:00 AM 7.73 45.914 0.656 7.97 2.98 10.28
10/21/2022 1:45:00 AM 7.69 45.842 0.656 7.95 3.06 10.2
10/21/2022 2:00:00 AM 7.64 45.752 0.656 7.94 3.08 10.12
10/21/2022 2:15:00 AM 7.59 45.662 0.656 7.93 2.96 10.04
10/21/2022 2:30:00 AM 7.54 45.572 0.657 7.92 3.2 9.97
10/21/2022 2:45:00 AM 7.5 45.5 0.657 7.92 3.11 9.91
10/21/2022 3:00:00 AM 7.45 45.41 0.657 7.91 2.98 9.84
10/21/2022 3:15:00 AM 7.39 45.302 0.657 7.9 3.14 9.78
10/21/2022 3:30:00 AM 7.34 45.212 0.658 7.9 3.09 9.72
10/21/2022 3:45:00 AM 7.28 45.104 0.658 7.89 2.9 9.65
10/21/2022 4:00:00 AM 7.23 45.014 0.658 7.87 3.31 9.6
10/21/2022 4:15:00 AM 7.17 44.906 0.658 7.88 2.98 9.55
10/21/2022 4:30:00 AM 7.12 44.816 0.658 7.87 3.08 9.5
10/21/2022 4:45:00 AM 7.05 44.69 0.659 7.87 3.02 9.47
10/21/2022 5:00:00 AM 6.99 44.582 0.659 7.87 2.84 9.42
10/21/2022 5:15:00 AM 6.93 44.474 0.659 7.86 2.9 9.37
10/21/2022 5:30:00 AM 6.88 44.384 0.659 7.84 2.88 9.33
10/21/2022 5:45:00 AM 6.81 44.258 0.659 7.85 2.92 9.28
10/21/2022 6:00:00 AM 6.76 44.168 0.66 7.84 2.87 9.23
10/21/2022 6:15:00 AM 6.7 44.06 0.66 7.83 3.25 9.19
10/21/2022 6:30:00 AM 6.64 43.952 0.66 7.83 3.02 9.15
10/21/2022 6:45:00 AM 6.58 43.844 0.66 7.82 3.23 9.11
10/21/2022 7:00:00 AM 6.53 43.754 0.661 7.83 3.01 9.07
10/21/2022 7:15:00 AM 6.46 43.628 0.661 7.82 2.89 9.04
10/21/2022 7:30:00 AM 6.41 43.538 0.661 7.81 2.77 8.97
10/21/2022 7:45:00 AM 6.35 43.43 0.661 7.81 2.85 8.97
10/21/2022 8:00:00 AM 6.3 43.34 0.661 7.8 2.81 8.97
10/21/2022 8:15:00 AM 6.25 43.25 0.661 7.81 2.83 8.96
10/21/2022 8:30:00 AM 6.21 43.178 0.661 7.8 2.72 8.98
10/21/2022 8:45:00 AM 6.16 43.088 0.661 7.81 2.81 9.02
10/21/2022 9:00:00 AM 6.13 43.034 0.661 7.8 2.78 9.07
10/21/2022 9:15:00 AM 6.11 42.998 0.662 7.81 2.78 9.13
10/21/2022 9:30:00 AM 6.08 42.944 0.661 7.82 2.68 9.22
10/21/2022 9:45:00 AM 6.06 42.908 0.661 7.82 2.71 9.3
10/21/2022 10:00:00 AM 6.05 42.89 0.661 7.83 2.71 9.39
10/21/2022 10:15:00 AM 6.05 42.89 0.661 7.84 2.81 9.47
10/21/2022 10:30:00 AM 6.09 42.962 0.661 7.84 2.85 9.59
10/21/2022 10:45:00 AM 6.16 43.088 0.661 7.86 2.71 9.72
10/21/2022 11:00:00 AM 6.25 43.25 0.66 7.86 2.81 9.88
10/21/2022 11:15:00 AM 6.37 43.466 0.66 7.89 2.78 10.06
10/21/2022 11:30:00 AM 6.52 43.736 0.659 7.91 2.78 10.24
10/21/2022 11:45:00 AM 6.73 44.114 0.659 7.93 2.72 10.47
10/21/2022 12:00:00 PM 6.95 44.51 0.658 7.95 2.74 10.68
10/21/2022 12:15:00 PM 7.17 44.906 0.657 7.96 2.8 10.85
10/21/2022 12:30:00 PM 7.37 45.266 0.656 7.98 2.77 11.03
10/21/2022 12:45:00 PM 7.58 45.644 0.655 8 2.68 11.23
10/21/2022 1:00:00 PM 7.8 46.04 0.654 8.02 2.79 11.43
10/21/2022 1:15:00 PM 8.06 46.508 0.653 8.03 2.85 11.6
10/21/2022 1:30:00 PM 8.36 47.048 0.652 8.05 2.83 11.84
10/21/2022 1:45:00 PM 8.64 47.552 0.651 8.08 3.04 12.05
10/21/2022 2:00:00 PM 8.89 48.002 0.65 8.09 2.65 12.24
10/21/2022 2:15:00 PM 9.09 48.362 0.649 8.1 2.66 12.4
10/21/2022 2:30:00 PM 9.24 48.632 0.647 8.13 2.61 12.55
10/21/2022 2:45:00 PM 9.32 48.776 0.646 8.14 2.64 12.65
10/21/2022 3:00:00 PM 9.37 48.866 0.645 8.14 2.65 12.73
10/21/2022 3:15:00 PM 9.39 48.902 0.644 8.15 2.6 12.81
10/21/2022 3:30:00 PM 9.4 48.92 0.643 8.15 2.59 12.86
10/21/2022 3:45:00 PM 9.41 48.938 0.642 8.17 2.49 12.92
10/21/2022 4:00:00 PM 9.43 48.974 0.64 8.17 2.55 13
10/21/2022 4:15:00 PM 9.45 49.01 0.639 8.18 2.5 13.07
10/21/2022 4:30:00 PM 9.46 49.028 0.637 8.19 2.59 13.13
10/21/2022 4:45:00 PM 9.47 49.046 0.636 8.2 2.55 13.19
10/21/2022 5:00:00 PM 9.46 49.028 0.634 8.2 2.58 13.21
10/21/2022 5:15:00 PM 9.42 48.956 0.633 8.2 2.59 13.18
10/21/2022 5:30:00 PM 9.37 48.866 0.631 8.2 2.57 13.15
10/21/2022 5:45:00 PM 9.31 48.758 0.63 8.19 2.62 13.07
10/21/2022 6:00:00 PM 9.24 48.632 0.629 8.18 2.54 13
10/21/2022 6:15:00 PM 9.16 48.488 0.627 8.17 2.64 12.93
10/21/2022 6:30:00 PM 9.09 48.362 0.626 8.17 2.59 12.83
10/21/2022 6:45:00 PM 9.02 48.236 0.624 8.15 2.6 12.74
10/21/2022 7:00:00 PM 8.93 48.074 0.623 8.15 2.63 12.64
10/21/2022 7:15:00 PM 8.85 47.93 0.621 8.13 2.63 12.54
10/21/2022 7:30:00 PM 8.77 47.786 0.62 8.12 2.74 12.46
10/21/2022 7:45:00 PM 8.68 47.624 0.618 8.11 2.84 12.36
10/21/2022 8:00:00 PM 8.6 47.48 0.616 8.1 2.9 12.27
10/21/2022 8:15:00 PM 8.53 47.354 0.615 8.09 3.12 12.19
10/21/2022 8:30:00 PM 8.47 47.246 0.613 8.07 2.84 12.1
10/21/2022 8:45:00 PM 8.41 47.138 0.612 8.06 2.85 11.99
10/21/2022 9:00:00 PM 8.36 47.048 0.61 8.05 2.91 11.92
10/21/2022 9:15:00 PM 8.31 46.958 0.609 8.04 2.82 11.82
10/21/2022 9:30:00 PM 8.27 46.886 0.608 8.02 2.97 11.74
10/21/2022 9:45:00 PM 8.23 46.814 0.606 8.02 2.91 11.67
10/21/2022 10:00:00 PM 8.2 46.76 0.605 8.01 2.88 11.61
10/21/2022 10:15:00 PM 8.16 46.688 0.603 8 2.82 11.55
10/21/2022 10:30:00 PM 8.13 46.634 0.602 7.99 2.74 11.5
10/21/2022 10:45:00 PM 8.1 46.58 0.601 7.98 2.83 11.44
10/21/2022 11:00:00 PM 8.07 46.526 0.599 7.97 3.08 11.38
10/21/2022 11:15:00 PM 8.04 46.472 0.598 7.96 2.84 11.31
10/21/2022 11:30:00 PM 8.01 46.418 0.597 7.95 2.9 11.24
10/21/2022 11:45:00 PM 7.98 46.364 0.595 7.93 2.97 11.16
10/22/2022 12:00:00 AM 7.95 46.31 0.593 7.93 2.74 11.1
10/22/2022 12:15:00 AM 7.91 46.238 0.592 7.92 2.74 11.03
10/22/2022 12:30:00 AM 7.88 46.184 0.591 7.91 3.06 10.97
10/22/2022 12:45:00 AM 7.83 46.094 0.59 7.9 3.02 10.88
10/22/2022 1:00:00 AM 7.79 46.022 0.589 7.89 3.13 10.81
10/22/2022 1:15:00 AM 7.75 45.95 0.588 7.88 2.71 10.74
10/22/2022 1:30:00 AM 7.72 45.896 0.587 7.87 2.84 10.66
10/22/2022 1:45:00 AM 7.68 45.824 0.586 7.86 2.68 10.59
10/22/2022 2:00:00 AM 7.65 45.77 0.585 7.85 3.55 10.5
10/22/2022 2:15:00 AM 7.62 45.716 0.584 7.84 2.71 10.43
10/22/2022 2:30:00 AM 7.59 45.662 0.583 7.83 2.61 10.35
10/22/2022 2:45:00 AM 7.56 45.608 0.582 7.82 3.65 10.27
10/22/2022 3:00:00 AM 7.53 45.554 0.582 7.81 2.79 10.19
10/22/2022 3:15:00 AM 7.51 45.518 0.581 7.81 2.62 10.12
10/22/2022 3:30:00 AM 7.48 45.464 0.581 7.8 2.89 10.03
10/22/2022 3:45:00 AM 7.46 45.428 0.58 7.79 2.63 9.95
10/22/2022 4:00:00 AM 7.43 45.374 0.58 7.79 2.67 9.87
10/22/2022 4:15:00 AM 7.41 45.338 0.579 7.78 2.92 9.79
10/22/2022 4:30:00 AM 7.38 45.284 0.579 7.78 2.7 9.71
10/22/2022 4:45:00 AM 7.36 45.248 0.578 7.77 2.84 9.63
10/22/2022 5:00:00 AM 7.33 45.194 0.578 7.76 2.84 9.56
10/22/2022 5:15:00 AM 7.3 45.14 0.578 7.75 3 9.49
10/22/2022 5:30:00 AM 7.26 45.068 0.577 7.75 2.95 9.41
10/22/2022 5:45:00 AM 7.23 45.014 0.577 7.75 3.18 9.34
10/22/2022 6:00:00 AM 7.18 44.924 0.577 7.74 2.82 9.27
10/22/2022 6:15:00 AM 7.15 44.87 0.577 7.73 2.76 9.21
10/22/2022 6:30:00 AM 7.1 44.78 0.577 7.73 2.82 9.13
10/22/2022 6:45:00 AM 7.05 44.69 0.577 7.72 2.79 9.09
10/22/2022 7:00:00 AM 7 44.6 0.577 7.72 2.68 9.03
10/22/2022 7:15:00 AM 6.95 44.51 0.577 7.71 2.73 8.97
10/22/2022 7:30:00 AM 6.9 44.42 0.577 7.69 2.7 8.94
10/22/2022 7:45:00 AM 6.85 44.33 0.577 7.7 2.74 8.88
10/22/2022 8:00:00 AM 6.8 44.24 0.577 7.7 2.72 8.84
10/22/2022 8:15:00 AM 6.75 44.15 0.577 7.7 2.7 8.82
10/22/2022 8:30:00 AM 6.71 44.078 0.578 7.7 2.62 8.81
10/22/2022 8:45:00 AM 6.67 44.006 0.578 7.7 2.69 8.83
10/22/2022 9:00:00 AM 6.64 43.952 0.578 7.69 2.67 8.84
10/22/2022 9:15:00 AM 6.61 43.898 0.578 7.7 2.68 8.86
10/22/2022 9:30:00 AM 6.58 43.844 0.578 7.7 2.77 8.9
10/22/2022 9:45:00 AM 6.56 43.808 0.578 7.71 2.71 8.94
10/22/2022 10:00:00 AM 6.55 43.79 0.578 7.71 2.79 9
10/22/2022 10:15:00 AM 6.55 43.79 0.579 7.71 2.86 9.05
10/22/2022 10:30:00 AM 6.59 43.862 0.579 7.73 2.76 9.14
10/22/2022 10:45:00 AM 6.66 43.988 0.579 7.74 2.88 9.25
10/22/2022 11:00:00 AM 6.76 44.168 0.579 7.76 2.84 9.41
10/22/2022 11:15:00 AM 6.89 44.402 0.579 7.77 2.87 9.55
10/22/2022 11:30:00 AM 7.07 44.726 0.579 7.79 2.78 9.76
10/22/2022 11:45:00 AM 7.27 45.086 0.579 7.81 2.91 9.95
10/22/2022 12:00:00 PM 7.49 45.482 0.579 7.83 3 10.16
10/22/2022 12:15:00 PM 7.72 45.896 0.579 7.84 2.96 10.31
10/22/2022 12:30:00 PM 7.94 46.292 0.579 7.87 3.06 10.5
10/22/2022 12:45:00 PM 8.18 46.724 0.579 7.88 3.11 10.67
10/22/2022 1:00:00 PM 8.46 47.228 0.579 7.91 3.16 10.86
10/22/2022 1:15:00 PM 8.76 47.768 0.579 7.92 3.27 11.04
10/22/2022 1:30:00 PM 9.05 48.29 0.579 7.95 3.67 11.25
10/22/2022 1:45:00 PM 9.34 48.812 0.579 7.97 3.33 11.48
10/22/2022 2:00:00 PM 9.63 49.334 0.579 7.99 3.25 11.7
10/22/2022 2:15:00 PM 9.84 49.712 0.578 8.02 3.43 11.88
10/22/2022 2:30:00 PM 9.99 49.982 0.578 8.04 3.31 12.02
10/22/2022 2:45:00 PM 10.12 50.216 0.579 8.06 3.6 12.16
10/22/2022 3:00:00 PM 10.18 50.324 0.578 8.07 3.14 12.24
10/22/2022 3:15:00 PM 10.21 50.378 0.579 8.07 3.12 12.32
10/22/2022 3:30:00 PM 10.21 50.378 0.579 8.08 2.98 12.36
10/22/2022 3:45:00 PM 10.22 50.396 0.579 8.09 2.95 12.42
10/22/2022 4:00:00 PM 10.24 50.432 0.58 8.09 2.82 12.49
10/22/2022 4:15:00 PM 10.27 50.486 0.58 8.1 2.87 12.57
10/22/2022 4:30:00 PM 10.29 50.522 0.58 8.12 2.82 12.63
10/22/2022 4:45:00 PM 10.31 50.558 0.581 8.12 2.78 12.67
10/22/2022 5:00:00 PM 10.31 50.558 0.581 8.12 2.73 12.68
10/22/2022 5:15:00 PM 10.29 50.522 0.582 8.12 2.79 12.66
10/22/2022 5:30:00 PM 10.26 50.468 0.583 8.11 3.71 12.6
10/22/2022 5:45:00 PM 10.21 50.378 0.583 8.1 2.68 12.51
10/22/2022 6:00:00 PM 10.17 50.306 0.584 8.09 2.77 12.44
10/22/2022 6:15:00 PM 10.1 50.18 0.585 8.08 2.69 12.35
10/22/2022 6:30:00 PM 10.03 50.054 0.585 8.07 2.7 12.26
10/22/2022 6:45:00 PM 9.96 49.928 0.586 8.05 2.76 12.16
10/22/2022 7:00:00 PM 9.89 49.802 0.587 8.03 2.83 12.04
10/22/2022 7:15:00 PM 9.81 49.658 0.588 8.03 2.91 11.96
10/22/2022 7:30:00 PM 9.73 49.514 0.588 8.01 2.98 11.88
10/22/2022 7:45:00 PM 9.64 49.352 0.589 8 2.95 11.77
10/22/2022 8:00:00 PM 9.56 49.208 0.59 7.99 3.06 11.71
10/22/2022 8:15:00 PM 9.48 49.064 0.59 7.98 4.29 11.62
10/22/2022 8:30:00 PM 9.4 48.92 0.591 7.97 3.04 11.52
10/22/2022 8:45:00 PM 9.32 48.776 0.591 7.96 3.01 11.44
10/22/2022 9:00:00 PM 9.26 48.668 0.592 7.95 3.37 11.36
10/22/2022 9:15:00 PM 9.19 48.542 0.593 7.93 3.01 11.29
10/22/2022 9:30:00 PM 9.13 48.434 0.593 7.93 3.18 11.25
10/22/2022 9:45:00 PM 9.08 48.344 0.594 7.92 3.17 11.18
10/22/2022 10:00:00 PM 9.04 48.272 0.594 7.92 2.95 11.13
10/22/2022 10:15:00 PM 9 48.2 0.595 7.9 3.19 11.07
10/22/2022 10:30:00 PM 8.97 48.146 0.596 7.9 2.99 11.01
10/22/2022 10:45:00 PM 8.94 48.092 0.597 7.88 3.37 10.93
10/22/2022 11:00:00 PM 8.9 48.02 0.597 7.87 3.33 10.9
10/22/2022 11:15:00 PM 8.87 47.966 0.597 7.88 3.04 10.84
10/22/2022 11:30:00 PM 8.83 47.894 0.598 7.87 3.46 10.78
10/22/2022 11:45:00 PM 8.8 47.84 0.599 7.86 3.27 10.71
10/23/2022 12:00:00 AM 8.76 47.768 0.599 7.85 3.2 10.65
10/23/2022 12:15:00 AM 8.73 47.714 0.6 7.85 3.01 10.59
10/23/2022 12:30:00 AM 8.69 47.642 0.601 7.84 2.93 10.52
10/23/2022 12:45:00 AM 8.65 47.57 0.601 7.83 3.15 10.45
10/23/2022 1:00:00 AM 8.61 47.498 0.602 7.83 2.94 10.38
10/23/2022 1:15:00 AM 8.57 47.426 0.602 7.82 2.79 10.32
10/23/2022 1:30:00 AM 8.53 47.354 0.603 7.82 2.76 10.25
10/23/2022 1:45:00 AM 8.49 47.282 0.604 7.81 2.85 10.18
10/23/2022 2:00:00 AM 8.46 47.228 0.604 7.8 2.88 10.11
10/23/2022 2:15:00 AM 8.43 47.174 0.605 7.8 3.2 10.05
10/23/2022 2:30:00 AM 8.39 47.102 0.605 7.79 2.72 9.97
10/23/2022 2:45:00 AM 8.36 47.048 0.606 7.79 2.75 9.92
10/23/2022 3:00:00 AM 8.33 46.994 0.607 7.78 3.33 9.84
10/23/2022 3:15:00 AM 8.3 46.94 0.607 7.78 2.83 9.77
10/23/2022 3:30:00 AM 8.28 46.904 0.608 7.78 2.65 9.7
10/23/2022 3:45:00 AM 8.26 46.868 0.609 7.77 2.6 9.63
10/23/2022 4:00:00 AM 8.24 46.832 0.609 7.76 2.7 9.55
10/23/2022 4:15:00 AM 8.22 46.796 0.61 7.77 2.65 9.48
10/23/2022 4:30:00 AM 8.19 46.742 0.611 7.76 2.63 9.41
10/23/2022 4:45:00 AM 8.16 46.688 0.612 7.76 2.62 9.34
10/23/2022 5:00:00 AM 8.13 46.634 0.612 7.75 2.64 9.27
10/23/2022 5:15:00 AM 8.11 46.598 0.613 7.75 2.67 9.21
10/23/2022 5:30:00 AM 8.07 46.526 0.614 7.75 2.63 9.15
10/23/2022 5:45:00 AM 8.03 46.454 0.615 7.75 2.71 9.08
10/23/2022 6:00:00 AM 7.99 46.382 0.616 7.74 2.72 9.02
10/23/2022 6:15:00 AM 7.95 46.31 0.616 7.74 2.66 8.96
10/23/2022 6:30:00 AM 7.9 46.22 0.617 7.74 2.72 8.9
10/23/2022 6:45:00 AM 7.85 46.13 0.618 7.73 2.81 8.84
10/23/2022 7:00:00 AM 7.79 46.022 0.619 7.72 2.65 8.77
10/23/2022 7:15:00 AM 7.73 45.914 0.62 7.72 2.64 8.7
10/23/2022 7:30:00 AM 7.67 45.806 0.62 7.72 2.71 8.68
10/23/2022 7:45:00 AM 7.62 45.716 0.621 7.71 2.67 8.61
10/23/2022 8:00:00 AM 7.56 45.608 0.622 7.71 2.72 8.57
10/23/2022 8:15:00 AM 7.51 45.518 0.623 7.71 2.68 8.53
10/23/2022 8:30:00 AM 7.46 45.428 0.623 7.7 2.74 8.53
10/23/2022 8:45:00 AM 7.42 45.356 0.624 7.7 2.67 8.53
10/23/2022 9:00:00 AM 7.38 45.284 0.625 7.71 2.75 8.58
10/23/2022 9:15:00 AM 7.35 45.23 0.626 7.72 2.78 8.64
10/23/2022 9:30:00 AM 7.35 45.23 0.626 7.72 2.87 8.76
10/23/2022 9:45:00 AM 7.36 45.248 0.627 7.73 2.93 8.91
10/23/2022 10:00:00 AM 7.36 45.248 0.628 7.75 2.81 9.04
10/23/2022 10:15:00 AM 7.37 45.266 0.628 7.76 2.83 9.17
10/23/2022 10:30:00 AM 7.4 45.32 0.629 7.77 2.88 9.3
10/23/2022 10:45:00 AM 7.46 45.428 0.629 7.79 2.85 9.43
10/23/2022 11:00:00 AM 7.54 45.572 0.63 7.79 2.8 9.57
10/23/2022 11:15:00 AM 7.66 45.788 0.631 7.82 2.85 9.76
10/23/2022 11:30:00 AM 7.82 46.076 0.631 7.84 2.82 9.98
10/23/2022 11:45:00 AM 8.01 46.418 0.631 7.86 2.82 10.21
10/23/2022 12:00:00 PM 8.22 46.796 0.631 7.89 2.8 10.45
10/23/2022 12:15:00 PM 8.44 47.192 0.632 7.9 2.75 10.68
10/23/2022 12:30:00 PM 8.65 47.57 0.632 7.93 3.06 10.91
10/23/2022 12:45:00 PM 8.86 47.948 0.632 7.95 2.75 11.13
10/23/2022 1:00:00 PM 9.11 48.398 0.633 7.97 2.73 11.33
10/23/2022 1:15:00 PM 9.4 48.92 0.633 8 2.69 11.56
10/23/2022 1:30:00 PM 9.65 49.37 0.633 8.02 2.77 11.76
10/23/2022 1:45:00 PM 9.91 49.838 0.633 8.04 2.77 11.97
10/23/2022 2:00:00 PM 10.12 50.216 0.633 8.06 2.76 12.16
10/23/2022 2:15:00 PM 10.32 50.576 0.633 8.08 2.76 12.38
10/23/2022 2:30:00 PM 10.47 50.846 0.633 8.09 2.76 12.56
10/23/2022 2:45:00 PM 10.57 51.026 0.634 8.12 2.78 12.72
10/23/2022 3:00:00 PM 10.6 51.08 0.634 8.13 2.68 12.83
10/23/2022 3:15:00 PM 10.58 51.044 0.634 8.14 2.67 12.91
10/23/2022 3:30:00 PM 10.55 50.99 0.635 8.15 2.67 13.01
10/23/2022 3:45:00 PM 10.54 50.972 0.635 8.16 2.75 13.1
10/23/2022 4:00:00 PM 10.55 50.99 0.635 8.16 2.68 13.18
10/23/2022 4:15:00 PM 10.57 51.026 0.636 8.17 2.67 13.24
10/23/2022 4:30:00 PM 10.59 51.062 0.636 8.18 2.73 13.3
10/23/2022 4:45:00 PM 10.6 51.08 0.637 8.19 2.63 13.36
10/23/2022 5:00:00 PM 10.58 51.044 0.637 8.19 2.66 13.38
10/23/2022 5:15:00 PM 10.56 51.008 0.638 8.19 2.72 13.36
10/23/2022 5:30:00 PM 10.55 50.99 0.638 8.18 2.87 13.35
10/23/2022 5:45:00 PM 10.53 50.954 0.639 8.18 2.63 13.32
10/23/2022 6:00:00 PM 10.5 50.9 0.64 8.16 2.68 13.24
10/23/2022 6:15:00 PM 10.46 50.828 0.641 8.16 2.67 13.12
10/23/2022 6:30:00 PM 10.42 50.756 0.641 8.13 2.68 13
10/23/2022 6:45:00 PM 10.37 50.666 0.642 8.13 2.77 12.86
10/23/2022 7:00:00 PM 10.32 50.576 0.643 8.11 2.71 12.74
10/23/2022 7:15:00 PM 10.26 50.468 0.644 8.1 3.3 12.61
10/23/2022 7:30:00 PM 10.21 50.378 0.645 8.09 2.85 12.51
10/23/2022 7:45:00 PM 10.16 50.288 0.645 8.07 2.77 12.39
10/23/2022 8:00:00 PM 10.11 50.198 0.646 8.07 2.79 12.28
10/23/2022 8:15:00 PM 10.07 50.126 0.647 8.05 2.84 12.18
10/23/2022 8:30:00 PM 10.02 50.036 0.648 8.03 2.82 12.08
10/23/2022 8:45:00 PM 9.98 49.964 0.648 8.03 2.73 11.99
10/23/2022 9:00:00 PM 9.94 49.892 0.649 8.02 3.08 11.88
10/23/2022 9:15:00 PM 9.9 49.82 0.65 8.01 2.8 11.8
10/23/2022 9:30:00 PM 9.87 49.766 0.65 8 2.74 11.72
10/23/2022 9:45:00 PM 9.85 49.73 0.651 7.99 2.84 11.65
10/23/2022 10:00:00 PM 9.84 49.712 0.652 7.98 3.12 11.56
10/23/2022 10:15:00 PM 9.83 49.694 0.652 7.97 2.93 11.47
10/23/2022 10:30:00 PM 9.83 49.694 0.653 7.97 2.99 11.42
10/23/2022 10:45:00 PM 9.83 49.694 0.653 7.95 2.89 11.35
10/23/2022 11:00:00 PM 9.83 49.694 0.654 7.95 2.97 11.27
10/23/2022 11:15:00 PM 9.84 49.712 0.655 7.94 2.67 11.2
10/23/2022 11:30:00 PM 9.84 49.712 0.655 7.93 2.73 11.12
10/23/2022 11:45:00 PM 9.85 49.73 0.656 7.93 2.84 11.04
10/24/2022 12:00:00 AM 9.86 49.748 0.656 7.92 3.07 10.95
10/24/2022 12:15:00 AM 9.86 49.748 0.657 7.91 2.77 10.88
10/24/2022 12:30:00 AM 9.87 49.766 0.657 7.89 2.83 10.79
10/24/2022 12:45:00 AM 9.88 49.784 0.658 7.9 2.93 10.7
10/24/2022 1:00:00 AM 9.89 49.802 0.658 7.89 3.14 10.62
10/24/2022 1:15:00 AM 9.9 49.82 0.659 7.88 2.77 10.53
10/24/2022 1:30:00 AM 9.91 49.838 0.659 7.88 3.01 10.44
10/24/2022 1:45:00 AM 9.93 49.874 0.66 7.87 2.82 10.36
10/24/2022 2:00:00 AM 9.95 49.91 0.66 7.86 2.74 10.28
10/24/2022 2:15:00 AM 9.97 49.946 0.66 7.86 2.66 10.18
10/24/2022 2:30:00 AM 9.99 49.982 0.66 7.84 2.7 10.09
10/24/2022 2:45:00 AM 10.02 50.036 0.661 7.85 2.74 10.01
10/24/2022 3:00:00 AM 10.05 50.09 0.661 7.84 2.65 9.9
10/24/2022 3:15:00 AM 10.07 50.126 0.661 7.83 2.69 9.82
10/24/2022 3:30:00 AM 10.1 50.18 0.662 7.84 2.66 9.72
10/24/2022 3:45:00 AM 10.14 50.252 0.662 7.83 2.83 9.64
10/24/2022 4:00:00 AM 10.17 50.306 0.663 7.82 2.66 9.53
10/24/2022 4:15:00 AM 10.19 50.342 0.663 7.82 2.67 9.43
10/24/2022 4:30:00 AM 10.22 50.396 0.664 7.81 3.07 9.32
10/24/2022 4:45:00 AM 10.24 50.432 0.664 7.81 2.65 9.23
10/24/2022 5:00:00 AM 10.26 50.468 0.664 7.8 2.7 9.12
10/24/2022 5:15:00 AM 10.28 50.504 0.665 7.79 2.67 9.02
10/24/2022 5:30:00 AM 10.29 50.522 0.665 7.79 2.7 8.93
10/24/2022 5:45:00 AM 10.31 50.558 0.666 7.79 2.64 8.84
10/24/2022 6:00:00 AM 10.32 50.576 0.666 7.78 3.04 8.74
10/24/2022 6:15:00 AM 10.33 50.594 0.666 7.78 3.28 8.64
10/24/2022 6:30:00 AM 10.33 50.594 0.667 7.77 2.95 8.53
10/24/2022 6:45:00 AM 10.33 50.594 0.667 7.77 2.83 8.45
10/24/2022 7:00:00 AM 10.34 50.612 0.668 7.76 2.73 8.35
10/24/2022 7:15:00 AM 10.34 50.612 0.668 7.76 2.97 8.25
10/24/2022 7:30:00 AM 10.34 50.612 0.668 7.75 2.86 8.17
10/24/2022 7:45:00 AM 10.34 50.612 0.669 7.75 2.62 8.08
10/24/2022 8:00:00 AM 10.34 50.612 0.669 7.75 4.24 8.02
10/24/2022 8:15:00 AM 10.33 50.594 0.669 7.75 2.64 7.95
10/24/2022 8:30:00 AM 10.34 50.612 0.67 7.74 2.65 7.91
10/24/2022 8:45:00 AM 10.34 50.612 0.67 7.74 2.58 7.87
10/24/2022 9:00:00 AM 10.36 50.648 0.67 7.74 2.59 7.95
10/24/2022 9:15:00 AM 10.38 50.684 0.67 7.75 2.58 8.04
10/24/2022 9:30:00 AM 10.41 50.738 0.671 7.75 2.62 8.2
10/24/2022 9:45:00 AM 10.45 50.81 0.671 7.77 2.55 8.31
10/24/2022 10:00:00 AM 10.48 50.864 0.671 7.77 3.06 8.44
10/24/2022 10:15:00 AM 10.51 50.918 0.672 7.78 3.54 8.53
10/24/2022 10:30:00 AM 10.59 51.062 0.672 7.8 2.66 8.7
10/24/2022 10:45:00 AM 10.67 51.206 0.672 7.82 2.62 8.92
10/24/2022 11:00:00 AM 10.75 51.35 0.672 7.83 2.53 9.2
10/24/2022 11:15:00 AM 10.83 51.494 0.672 7.85 2.53 9.45
10/24/2022 11:30:00 AM 10.91 51.638 0.672 7.87 2.5 9.67
10/24/2022 11:45:00 AM 11.01 51.818 0.673 7.89 2.57 9.93
10/24/2022 12:00:00 PM 11.11 51.998 0.673 7.91 2.63 10.17
10/24/2022 12:15:00 PM 11.18 52.124 0.673 7.93 2.58 10.39
10/24/2022 12:30:00 PM 11.31 52.358 0.673 7.94 2.53 10.61
10/24/2022 12:45:00 PM 11.46 52.628 0.673 7.96 2.62 10.84
10/24/2022 1:00:00 PM 11.61 52.898 0.673 7.98 2.55 11.05
10/24/2022 1:15:00 PM 11.71 53.078 0.673 8 2.53 11.24
10/24/2022 1:30:00 PM 11.8 53.24 0.673 8.02 2.61 11.47
10/24/2022 1:45:00 PM 11.9 53.42 0.673 8.04 2.61 11.66
10/24/2022 2:00:00 PM 11.99 53.582 0.672 8.05 2.55 11.88
10/24/2022 2:15:00 PM 12.08 53.744 0.672 8.08 2.72 12.08
10/24/2022 2:30:00 PM 12.15 53.87 0.672 8.09 2.69 12.26
10/24/2022 2:45:00 PM 12.21 53.978 0.672 8.11 2.61 12.42
10/24/2022 3:00:00 PM 12.28 54.104 0.672 8.12 2.53 12.56
10/24/2022 3:15:00 PM 12.34 54.212 0.672 8.13 2.67 12.67
10/24/2022 3:30:00 PM 12.41 54.338 0.672 8.14 2.99 12.78
10/24/2022 3:45:00 PM 12.48 54.464 0.672 8.15 2.93 12.83
10/24/2022 4:00:00 PM 12.57 54.626 0.672 8.16 2.72 12.94
10/24/2022 4:15:00 PM 12.66 54.788 0.672 8.18 3.17 13.09
10/24/2022 4:30:00 PM 12.69 54.842 0.672 8.19 3.13 13.18
10/24/2022 4:45:00 PM 12.72 54.896 0.672 8.2 2.67 13.21
10/24/2022 5:00:00 PM 12.72 54.896 0.672 8.19 2.8 13.19
10/24/2022 5:15:00 PM 12.7 54.86 0.673 8.18 3.15 13.08
10/24/2022 5:30:00 PM 12.67 54.806 0.673 8.17 2.67 12.98
10/24/2022 5:45:00 PM 12.65 54.77 0.674 8.16 2.73 12.85
10/24/2022 6:00:00 PM 12.63 54.734 0.674 8.15 2.62 12.73
10/24/2022 6:15:00 PM 12.6 54.68 0.675 8.14 2.75 12.64
10/24/2022 6:30:00 PM 12.58 54.644 0.675 8.13 2.79 12.52
10/24/2022 6:45:00 PM 12.55 54.59 0.676 8.11 2.83 12.4
10/24/2022 7:00:00 PM 12.54 54.572 0.676 8.1 2.97 12.28
10/24/2022 7:15:00 PM 12.52 54.536 0.677 8.09 2.78 12.15
10/24/2022 7:30:00 PM 12.51 54.518 0.677 8.08 2.74 12.05
10/24/2022 7:45:00 PM 12.5 54.5 0.678 8.07 2.66 11.93
10/24/2022 8:00:00 PM 12.49 54.482 0.678 8.06 2.81 11.79
10/24/2022 8:15:00 PM 12.48 54.464 0.678 8.04 2.63 11.69
10/24/2022 8:30:00 PM 12.46 54.428 0.679 8.03 2.72 11.6
10/24/2022 8:45:00 PM 12.45 54.41 0.679 8.02 2.64 11.49
10/24/2022 9:00:00 PM 12.44 54.392 0.679 8.02 2.82 11.42
10/24/2022 9:15:00 PM 12.43 54.374 0.68 8.01 2.74 11.34
10/24/2022 9:30:00 PM 12.43 54.374 0.68 7.99 2.9 11.27
10/24/2022 9:45:00 PM 12.42 54.356 0.68 7.99 2.92 11.21
10/24/2022 10:00:00 PM 12.43 54.374 0.681 7.99 2.77 11.13
10/24/2022 10:15:00 PM 12.43 54.374 0.681 7.98 2.8 11.07
10/24/2022 10:30:00 PM 12.44 54.392 0.681 7.97 2.82 10.98
10/24/2022 10:45:00 PM 12.45 54.41 0.681 7.97 2.75 10.9
10/24/2022 11:00:00 PM 12.47 54.446 0.682 7.96 2.81 10.8
10/24/2022 11:15:00 PM 12.48 54.464 0.682 7.95 2.68 10.74
10/24/2022 11:30:00 PM 12.5 54.5 0.682 7.95 2.66 10.65
10/24/2022 11:45:00 PM 12.51 54.518 0.682 7.94 2.62 10.53
10/25/2022 12:00:00 AM 12.53 54.554 0.683 7.93 2.82 10.42
10/25/2022 12:15:00 AM 12.54 54.572 0.683 7.92 2.83 10.32
10/25/2022 12:30:00 AM 12.56 54.608 0.683 7.9 2.78 10.2
10/25/2022 12:45:00 AM 12.57 54.626 0.684 7.9 2.69 10.1
10/25/2022 1:00:00 AM 12.58 54.644 0.684 7.9 2.67 9.97
10/25/2022 1:15:00 AM 12.59 54.662 0.684 7.89 2.54 9.85
10/25/2022 1:30:00 AM 12.6 54.68 0.685 7.88 2.96 9.75
10/25/2022 1:45:00 AM 12.61 54.698 0.685 7.87 2.64 9.63
10/25/2022 2:00:00 AM 12.62 54.716 0.685 7.86 2.62 9.52
10/25/2022 2:15:00 AM 12.62 54.716 0.685 7.85 2.66 9.42
10/25/2022 2:30:00 AM 12.63 54.734 0.686 7.85 2.65 9.3
10/25/2022 2:45:00 AM 12.64 54.752 0.686 7.84 2.66 9.18
10/25/2022 3:00:00 AM 12.65 54.77 0.687 7.83 3.3 9.01
10/25/2022 3:15:00 AM 12.66 54.788 0.687 7.83 2.7 8.91
10/25/2022 3:30:00 AM 12.66 54.788 0.687 7.82 2.76 8.81
10/25/2022 3:45:00 AM 12.66 54.788 0.687 7.81 2.78 8.68
10/25/2022 4:00:00 AM 12.67 54.806 0.687 7.81 2.86 8.58
10/25/2022 4:15:00 AM 12.67 54.806 0.688 7.79 2.84 8.47
10/25/2022 4:30:00 AM 12.66 54.788 0.688 7.8 3.01 8.37
10/25/2022 4:45:00 AM 12.66 54.788 0.688 7.79 2.74 8.27
10/25/2022 5:00:00 AM 12.65 54.77 0.689 7.78 2.64 8.15
10/25/2022 5:15:00 AM 12.64 54.752 0.689 7.78 2.74 8.06
10/25/2022 5:30:00 AM 12.62 54.716 0.689 7.77 2.78 7.96
10/25/2022 5:45:00 AM 12.61 54.698 0.689 7.76 2.95 7.84
10/25/2022 6:00:00 AM 12.59 54.662 0.69 7.75 2.78 7.73
10/25/2022 6:15:00 AM 12.57 54.626 0.69 7.75 3.11 7.63
10/25/2022 6:30:00 AM 12.55 54.59 0.691 7.74 2.92 7.5
10/25/2022 6:45:00 AM 12.53 54.554 0.691 7.74 2.65 7.41
10/25/2022 7:00:00 AM 12.51 54.518 0.691 7.73 2.72 7.31
10/25/2022 7:15:00 AM 12.48 54.464 0.692 7.73 2.86 7.2
10/25/2022 7:30:00 AM 12.46 54.428 0.692 7.71 2.67 7.11
10/25/2022 7:45:00 AM 12.44 54.392 0.693 7.72 2.62 7.03
10/25/2022 8:00:00 AM 12.42 54.356 0.693 7.71 2.61 6.95
10/25/2022 8:15:00 AM 12.4 54.32 0.693 7.71 2.7 6.88
10/25/2022 8:30:00 AM 12.39 54.302 0.694 7.71 2.73 6.87
10/25/2022 8:45:00 AM 12.39 54.302 0.694 7.71 2.75 6.89
10/25/2022 9:00:00 AM 12.4 54.32 0.694 7.71 2.5 6.95
10/25/2022 9:15:00 AM 12.42 54.356 0.695 7.72 2.81 7.06
10/25/2022 9:30:00 AM 12.45 54.41 0.695 7.73 2.71 7.2
10/25/2022 9:45:00 AM 12.48 54.464 0.694 7.74 3.18 7.34
10/25/2022 10:00:00 AM 12.52 54.536 0.695 7.74 2.78 7.53
10/25/2022 10:15:00 AM 12.57 54.626 0.695 7.77 2.58 7.73
10/25/2022 10:30:00 AM 12.62 54.716 0.695 7.78 2.48 7.93
10/25/2022 10:45:00 AM 12.68 54.824 0.696 7.79 2.5 8.12
10/25/2022 11:00:00 AM 12.75 54.95 0.696 7.8 2.52 8.33
10/25/2022 11:15:00 AM 12.82 55.076 0.695 7.83 2.47 8.59
10/25/2022 11:30:00 AM 12.88 55.184 0.695 7.84 2.56 8.78
10/25/2022 11:45:00 AM 12.95 55.31 0.696 7.86 2.43 8.98
10/25/2022 12:00:00 PM 13.03 55.454 0.695 7.87 2.49 9.23
10/25/2022 12:15:00 PM 13.11 55.598 0.695 7.89 2.5 9.46
10/25/2022 12:30:00 PM 13.18 55.724 0.695 7.9 2.55 9.6
10/25/2022 12:45:00 PM 13.25 55.85 0.695 7.92 2.51 9.79
10/25/2022 1:00:00 PM 13.35 56.03 0.695 7.93 2.5 10
10/25/2022 1:15:00 PM 13.56 56.408 0.695 7.95 2.55 10.33
10/25/2022 1:30:00 PM 13.85 56.93 0.695 7.99 2.49 10.7
10/25/2022 1:45:00 PM 14.15 57.47 0.695 8.02 2.4 11.06
10/25/2022 2:00:00 PM 14.42 57.956 0.694 8.05 2.49 11.38
10/25/2022 2:15:00 PM 14.62 58.316 0.694 8.08 2.34 11.66
10/25/2022 2:30:00 PM 14.73 58.514 0.693 8.1 2.45 11.87
10/25/2022 2:45:00 PM 14.79 58.622 0.693 8.12 2.33 12.06
10/25/2022 3:00:00 PM 14.82 58.676 0.692 8.14 2.47 12.25
10/25/2022 3:15:00 PM 14.84 58.712 0.692 8.15 2.45 12.39
10/25/2022 3:30:00 PM 14.89 58.802 0.692 8.16 2.42 12.57
10/25/2022 3:45:00 PM 14.95 58.91 0.691 8.18 2.9 12.69
10/25/2022 4:00:00 PM 14.98 58.964 0.691 8.19 2.38 12.77
10/25/2022 4:15:00 PM 15.01 59.018 0.691 8.19 2.32 12.8
10/25/2022 4:30:00 PM 15.04 59.072 0.691 8.2 2.43 12.79
10/25/2022 4:45:00 PM 15.06 59.108 0.691 8.2 2.38 12.85
10/25/2022 5:00:00 PM 15.09 59.162 0.691 8.21 2.49 12.84
10/25/2022 5:15:00 PM 15.11 59.198 0.691 8.21 2.36 12.8
10/25/2022 5:30:00 PM 15.11 59.198 0.69 8.2 2.46 12.72
10/25/2022 5:45:00 PM 15.1 59.18 0.691 8.19 2.33 12.61
10/25/2022 6:00:00 PM 15.08 59.144 0.691 8.18 2.43 12.47
10/25/2022 6:15:00 PM 15.06 59.108 0.691 8.16 2.26 12.3
10/25/2022 6:30:00 PM 15.03 59.054 0.691 8.15 2.36 12.11
10/25/2022 6:45:00 PM 15 59 0.691 8.13 2.33 11.95
10/25/2022 7:00:00 PM 14.98 58.964 0.691 8.12 2.46 11.77
10/25/2022 7:15:00 PM 14.96 58.928 0.691 8.1 2.33 11.59
10/25/2022 7:30:00 PM 14.95 58.91 0.691 8.09 2.42 11.44
10/25/2022 7:45:00 PM 14.94 58.892 0.691 8.08 2.39 11.3
10/25/2022 8:00:00 PM 14.93 58.874 0.691 8.06 2.48 11.16
10/25/2022 8:15:00 PM 14.91 58.838 0.692 8.05 2.39 11.01
10/25/2022 8:30:00 PM 14.9 58.82 0.692 8.04 2.43 10.86
10/25/2022 8:45:00 PM 14.89 58.802 0.692 8.02 3.3 10.73
10/25/2022 9:00:00 PM 14.87 58.766 0.692 8 2.68 10.62
10/25/2022 9:15:00 PM 14.86 58.748 0.692 8 2.43 10.49
10/25/2022 9:30:00 PM 14.83 58.694 0.692 7.98 2.49 10.35
10/25/2022 9:45:00 PM 14.81 58.658 0.692 7.98 2.99 10.25
10/25/2022 10:00:00 PM 14.79 58.622 0.692 7.97 2.4 10.12
10/25/2022 10:15:00 PM 14.75 58.55 0.692 7.95 2.39 10
10/25/2022 10:30:00 PM 14.72 58.496 0.692 7.94 2.35 9.89
10/25/2022 10:45:00 PM 14.69 58.442 0.692 7.93 2.4 9.76
10/25/2022 11:00:00 PM 14.66 58.388 0.692 7.92 2.38 9.64
10/25/2022 11:15:00 PM 14.64 58.352 0.692 7.91 2.61 9.51
10/25/2022 11:30:00 PM 14.62 58.316 0.692 7.89 2.44 9.39
10/25/2022 11:45:00 PM 14.59 58.262 0.692 7.89 2.4 9.28
10/26/2022 12:00:00 AM 14.55 58.19 0.692 7.88 2.39 9.15
10/26/2022 12:15:00 AM 14.51 58.118 0.692 7.87 2.42 9.04
10/26/2022 12:30:00 AM 14.47 58.046 0.692 7.86 2.4 8.92
10/26/2022 12:45:00 AM 14.43 57.974 0.692 7.85 2.43 8.8
10/26/2022 1:00:00 AM 14.38 57.884 0.692 7.84 2.63 8.67
10/26/2022 1:15:00 AM 14.34 57.812 0.692 7.84 2.54 8.56
10/26/2022 1:30:00 AM 14.3 57.74 0.692 7.83 2.5 8.45
10/26/2022 1:45:00 AM 14.25 57.65 0.692 7.82 2.42 8.35
10/26/2022 2:00:00 AM 14.2 57.56 0.692 7.81 2.55 8.22
10/26/2022 2:15:00 AM 14.16 57.488 0.692 7.8 2.46 8.11
10/26/2022 2:30:00 AM 14.11 57.398 0.693 7.79 2.54 8
10/26/2022 2:45:00 AM 14.05 57.29 0.693 7.79 3.28 7.85
10/26/2022 3:00:00 AM 14 57.2 0.693 7.78 2.72 7.78
10/26/2022 3:15:00 AM 13.94 57.092 0.693 7.78 2.58 7.68
10/26/2022 3:30:00 AM 13.88 56.984 0.693 7.77 2.69 7.58
10/26/2022 3:45:00 AM 13.83 56.894 0.693 7.76 2.69 7.45
10/26/2022 4:00:00 AM 13.77 56.786 0.693 7.76 2.9 7.36
10/26/2022 4:15:00 AM 13.71 56.678 0.693 7.75 2.78 7.24
10/26/2022 4:30:00 AM 13.64 56.552 0.694 7.73 3.41 7.16
10/26/2022 4:45:00 AM 13.58 56.444 0.694 7.74 2.66 7.09
10/26/2022 5:00:00 AM 13.52 56.336 0.694 7.73 2.76 6.96
10/26/2022 5:15:00 AM 13.45 56.21 0.694 7.73 2.6 6.88
10/26/2022 5:30:00 AM 13.39 56.102 0.694 7.72 2.67 6.79
10/26/2022 5:45:00 AM 13.32 55.976 0.694 7.72 2.63 6.7
10/26/2022 6:00:00 AM 13.25 55.85 0.695 7.71 2.6 6.63
10/26/2022 6:15:00 AM 13.19 55.742 0.695 7.7 2.67 6.49
10/26/2022 6:30:00 AM 13.12 55.616 0.695 7.7 2.53 6.43
10/26/2022 6:45:00 AM 13.06 55.508 0.696 7.68 2.76 6.35
10/26/2022 7:00:00 AM 12.98 55.364 0.696 7.69 2.71 6.29
10/26/2022 7:15:00 AM 12.91 55.238 0.696 7.68 2.73 6.2
10/26/2022 7:30:00 AM 12.84 55.112 0.696 7.67 2.82 6.12
10/26/2022 7:45:00 AM 12.78 55.004 0.697 7.67 2.72 6.04
10/26/2022 8:00:00 AM 12.73 54.914 0.697 7.67 2.72 5.96
10/26/2022 8:15:00 AM 12.68 54.824 0.697 7.67 2.63 5.96
10/26/2022 8:30:00 AM 12.63 54.734 0.697 7.66 2.75 5.88
10/26/2022 8:45:00 AM 12.6 54.68 0.698 7.65 2.62 5.93
10/26/2022 9:00:00 AM 12.58 54.644 0.699 7.66 2.63 5.94
10/26/2022 9:15:00 AM 12.55 54.59 0.698 7.67 2.55 6.1
10/26/2022 9:30:00 AM 12.54 54.572 0.698 7.67 2.51 6.17
10/26/2022 9:45:00 AM 12.52 54.536 0.698 7.68 2.56 6.27
10/26/2022 10:00:00 AM 12.51 54.518 0.698 7.69 2.57 6.34
10/26/2022 10:15:00 AM 12.51 54.518 0.698 7.7 2.52 6.44
10/26/2022 10:30:00 AM 12.52 54.536 0.698 7.7 2.55 6.5
10/26/2022 10:45:00 AM 12.58 54.644 0.698 7.71 2.52 6.71
10/26/2022 11:00:00 AM 12.66 54.788 0.698 7.73 2.59 7
10/26/2022 11:15:00 AM 12.79 55.022 0.698 7.74 2.53 7.33
10/26/2022 11:30:00 AM 12.91 55.238 0.698 7.78 2.51 7.7
10/26/2022 11:45:00 AM 13.01 55.418 0.697 7.8 2.54 8.01
10/26/2022 12:00:00 PM 13.07 55.526 0.697 7.82 2.51 8.26
10/26/2022 12:15:00 PM 13.18 55.724 0.697 7.83 2.64 8.56
10/26/2022 12:30:00 PM 13.31 55.958 0.697 7.86 2.64 8.85
10/26/2022 12:45:00 PM 13.51 56.318 0.697 7.89 2.62 9.26
10/26/2022 1:00:00 PM 13.72 56.696 0.696 7.91 2.49 9.64
10/26/2022 1:15:00 PM 13.83 56.894 0.696 7.94 2.71 9.83
10/26/2022 1:30:00 PM 13.84 56.912 0.695 7.95 2.69 9.96
10/26/2022 1:45:00 PM 13.81 56.858 0.695 7.95 2.73 9.97
10/26/2022 2:00:00 PM 13.76 56.768 0.695 7.96 2.63 9.98
10/26/2022 2:15:00 PM 13.72 56.696 0.695 7.95 2.69 9.99
10/26/2022 2:30:00 PM 13.7 56.66 0.695 7.97 2.69 10.07
10/26/2022 2:45:00 PM 13.72 56.696 0.695 7.98 2.53 10.23
10/26/2022 3:00:00 PM 13.77 56.786 0.694 8.01 2.59 10.54
10/26/2022 3:15:00 PM 13.82 56.876 0.694 8.03 2.6 10.72
10/26/2022 3:30:00 PM 13.85 56.93 0.694 8.03 2.61 10.83
10/26/2022 3:45:00 PM 13.85 56.93 0.694 8.03 2.64 10.81
10/26/2022 4:00:00 PM 13.83 56.894 0.694 8.03 2.89 10.7
10/26/2022 4:15:00 PM 13.82 56.876 0.693 8.01 2.67 10.61
10/26/2022 4:30:00 PM 13.82 56.876 0.693 8.03 2.61 10.65
10/26/2022 4:45:00 PM 13.83 56.894 0.693 8.04 2.62 10.71
10/26/2022 5:00:00 PM 13.84 56.912 0.693 8.05 2.69 10.82
10/26/2022 5:15:00 PM 13.85 56.93 0.693 8.04 2.72 10.84
10/26/2022 5:30:00 PM 13.84 56.912 0.693 8.04 2.69 10.79
10/26/2022 5:45:00 PM 13.83 56.894 0.693 8.02 2.72 10.67
10/26/2022 6:00:00 PM 13.81 56.858 0.693 8.03 2.7 10.55
10/26/2022 6:15:00 PM 13.79 56.822 0.693 8.02 3.51 10.41
10/26/2022 6:30:00 PM 13.76 56.768 0.693 8.01 2.99 10.31
10/26/2022 6:45:00 PM 13.73 56.714 0.693 7.99 2.98 10.2
10/26/2022 7:00:00 PM 13.71 56.678 0.693 7.98 2.85 10.02
10/26/2022 7:15:00 PM 13.68 56.624 0.693 7.98 3.14 9.95
10/26/2022 7:30:00 PM 13.66 56.588 0.693 7.96 3.51 9.86
10/26/2022 7:45:00 PM 13.63 56.534 0.693 7.96 3.07 9.76
10/26/2022 8:00:00 PM 13.6 56.48 0.693 7.95 2.88 9.66
10/26/2022 8:15:00 PM 13.57 56.426 0.693 7.93 2.96 9.51
10/26/2022 8:30:00 PM 13.53 56.354 0.693 7.91 2.92 9.44
10/26/2022 8:45:00 PM 13.5 56.3 0.693 7.91 2.86 9.33
10/26/2022 9:00:00 PM 13.48 56.264 0.693 7.91 3.44 9.21
10/26/2022 9:15:00 PM 13.46 56.228 0.693 7.9 3.05 9.13
10/26/2022 9:30:00 PM 13.45 56.21 0.693 7.87 2.75 9.02
10/26/2022 9:45:00 PM 13.44 56.192 0.693 7.87 2.7 8.93
10/26/2022 10:00:00 PM 13.43 56.174 0.693 7.87 2.74 8.86
10/26/2022 10:15:00 PM 13.41 56.138 0.693 7.87 2.77 8.77
10/26/2022 10:30:00 PM 13.39 56.102 0.693 7.86 3.14 8.69
10/26/2022 10:45:00 PM 13.38 56.084 0.692 7.85 3.35 8.63
10/26/2022 11:00:00 PM 13.37 56.066 0.692 7.84 3.08 8.55
10/26/2022 11:15:00 PM 13.36 56.048 0.692 7.83 3.24 8.44
10/26/2022 11:30:00 PM 13.34 56.012 0.692 7.83 2.81 8.4
10/26/2022 11:45:00 PM 13.31 55.958 0.692 7.82 2.66 8.32
10/27/2022 12:00:00 AM 13.27 55.886 0.692 7.82 2.63 8.24
10/27/2022 12:15:00 AM 13.24 55.832 0.692 7.8 2.62 8.16
10/27/2022 12:30:00 AM 13.22 55.796 0.692 7.8 2.84 8.08
10/27/2022 12:45:00 AM 13.19 55.742 0.692 7.8 2.61 8
10/27/2022 1:00:00 AM 13.16 55.688 0.692 7.79 2.9 7.93
10/27/2022 1:15:00 AM 13.13 55.634 0.692 7.78 2.72 7.84
10/27/2022 1:30:00 AM 13.1 55.58 0.692 7.78 3.48 7.74
10/27/2022 1:45:00 AM 13.07 55.526 0.692 7.78 2.89 7.71
10/27/2022 2:00:00 AM 13.04 55.472 0.692 7.78 2.74 7.67
10/27/2022 2:15:00 AM 13.01 55.418 0.692 7.78 2.73 7.6
10/27/2022 2:30:00 AM 12.98 55.364 0.692 7.77 2.66 7.55
10/27/2022 2:45:00 AM 12.95 55.31 0.692 7.77 2.65 7.46
10/27/2022 3:00:00 AM 12.91 55.238 0.692 7.77 2.88 7.41
10/27/2022 3:15:00 AM 12.86 55.148 0.692 7.76 3.15 7.36
10/27/2022 3:30:00 AM 12.82 55.076 0.692 7.76 2.98 7.3
10/27/2022 3:45:00 AM 12.78 55.004 0.692 7.75 2.83 7.22
10/27/2022 4:00:00 AM 12.74 54.932 0.692 7.76 2.65 7.19
10/27/2022 4:15:00 AM 12.7 54.86 0.692 7.75 3.02 7.14
10/27/2022 4:30:00 AM 12.66 54.788 0.692 7.74 2.78 7.06
10/27/2022 4:45:00 AM 12.61 54.698 0.692 7.75 2.63 7.02
10/27/2022 5:00:00 AM 12.56 54.608 0.692 7.75 2.7 6.99
10/27/2022 5:15:00 AM 12.5 54.5 0.692 7.74 2.89 6.94
10/27/2022 5:30:00 AM 12.46 54.428 0.692 7.74 2.86 6.91
10/27/2022 5:45:00 AM 12.42 54.356 0.692 7.74 2.62 6.87
10/27/2022 6:00:00 AM 12.38 54.284 0.692 7.74 2.74 6.82
10/27/2022 6:15:00 AM 12.33 54.194 0.692 7.73 2.66 6.78
10/27/2022 6:30:00 AM 12.27 54.086 0.692 7.73 2.88 6.71
10/27/2022 6:45:00 AM 12.22 53.996 0.692 7.73 2.79 6.67
10/27/2022 7:00:00 AM 12.16 53.888 0.692 7.73 2.82 6.63
10/27/2022 7:15:00 AM 12.11 53.798 0.693 7.73 3.42 6.62
10/27/2022 7:30:00 AM 12.06 53.708 0.693 7.73 3.41 6.55
10/27/2022 7:45:00 AM 12.01 53.618 0.693 7.72 3.12 6.54
10/27/2022 8:00:00 AM 11.96 53.528 0.693 7.72 2.96 6.52
10/27/2022 8:15:00 AM 11.92 53.456 0.693 7.72 3.01 6.49
10/27/2022 8:30:00 AM 11.88 53.384 0.693 7.72 3.03 6.5
10/27/2022 8:45:00 AM 11.85 53.33 0.693 7.72 2.82 6.52
10/27/2022 9:00:00 AM 11.82 53.276 0.693 7.73 2.74 6.57
10/27/2022 9:15:00 AM 11.8 53.24 0.693 7.73 2.77 6.7
10/27/2022 9:30:00 AM 11.79 53.222 0.693 7.73 2.66 6.85
10/27/2022 9:45:00 AM 11.78 53.204 0.693 7.75 2.66 7.02
10/27/2022 10:00:00 AM 11.78 53.204 0.693 7.76 2.51 7.23
10/27/2022 10:15:00 AM 11.78 53.204 0.693 7.78 3.42 7.45
10/27/2022 10:30:00 AM 11.77 53.186 0.693 7.78 3.41 7.68
10/27/2022 10:45:00 AM 11.75 53.15 0.693 7.8 2.75 7.88
10/27/2022 11:00:00 AM 11.79 53.222 0.693 7.81 2.57 8.03
10/27/2022 11:15:00 AM 11.89 53.402 0.693 7.84 2.51 8.34
10/27/2022 11:30:00 AM 12.01 53.618 0.693 7.86 2.64 8.77
10/27/2022 11:45:00 AM 12.16 53.888 0.692 7.9 2.58 9.15
10/27/2022 12:00:00 PM 12.3 54.14 0.692 7.93 2.38 9.51
10/27/2022 12:15:00 PM 12.41 54.338 0.692 7.95 2.46 9.81
10/27/2022 12:30:00 PM 12.52 54.536 0.691 7.96 2.41 10.06
10/27/2022 12:45:00 PM 12.61 54.698 0.691 8 2.46 10.38
10/27/2022 1:00:00 PM 12.78 55.004 0.69 8.02 2.4 10.65
10/27/2022 1:15:00 PM 13 55.4 0.69 8.06 2.53 11.06
10/27/2022 1:30:00 PM 13.21 55.778 0.689 8.09 2.43 11.36
10/27/2022 1:45:00 PM 13.43 56.174 0.689 8.11 2.33 11.71
10/27/2022 2:00:00 PM 13.62 56.516 0.688 8.14 2.37 11.99
10/27/2022 2:15:00 PM 13.75 56.75 0.687 8.17 2.35 12.31
10/27/2022 2:30:00 PM 13.82 56.876 0.687 8.19 2.39 12.52
10/27/2022 2:45:00 PM 13.84 56.912 0.686 8.19 2.35 12.66
10/27/2022 3:00:00 PM 13.83 56.894 0.686 8.22 2.36 12.76
10/27/2022 3:15:00 PM 13.79 56.822 0.686 8.22 2.32 12.82
10/27/2022 3:30:00 PM 13.74 56.732 0.685 8.21 2.36 12.86
10/27/2022 3:45:00 PM 13.7 56.66 0.685 8.23 2.36 12.89
10/27/2022 4:00:00 PM 13.65 56.57 0.685 8.24 2.47 12.99
10/27/2022 4:15:00 PM 13.61 56.498 0.684 8.24 2.43 13.03
10/27/2022 4:30:00 PM 13.56 56.408 0.684 8.25 2.3 13.11
10/27/2022 4:45:00 PM 13.49 56.282 0.684 8.26 2.29 13.08
10/27/2022 5:00:00 PM 13.42 56.156 0.684 8.26 2.37 13.06
10/27/2022 5:15:00 PM 13.33 55.994 0.684 8.24 2.4 12.97
10/27/2022 5:30:00 PM 13.24 55.832 0.684 8.24 2.35 12.89
10/27/2022 5:45:00 PM 13.15 55.67 0.684 8.23 2.39 12.77
10/27/2022 6:00:00 PM 13.05 55.49 0.684 8.19 2.58 12.57
10/27/2022 6:15:00 PM 12.95 55.31 0.684 8.21 2.45 12.44
10/27/2022 6:30:00 PM 12.86 55.148 0.684 8.19 2.36 12.26
10/27/2022 6:45:00 PM 12.76 54.968 0.685 8.17 2.54 12.09
10/27/2022 7:00:00 PM 12.67 54.806 0.685 8.14 2.4 11.84
10/27/2022 7:15:00 PM 12.56 54.608 0.685 8.13 2.46 11.73
10/27/2022 7:30:00 PM 12.45 54.41 0.685 8.11 2.37 11.56
10/27/2022 7:45:00 PM 12.33 54.194 0.685 8.1 2.41 11.35
10/27/2022 8:00:00 PM 12.21 53.978 0.685 8.07 2.75 11.15
10/27/2022 8:15:00 PM 12.09 53.762 0.686 8.04 2.55 11.02
10/27/2022 8:30:00 PM 11.97 53.546 0.686 8.05 2.54 10.9
10/27/2022 8:45:00 PM 11.86 53.348 0.686 8.03 2.48 10.76
10/27/2022 9:00:00 PM 11.75 53.15 0.686 8 2.52 10.59
10/27/2022 9:15:00 PM 11.65 52.97 0.686 8 2.54 10.49
10/27/2022 9:30:00 PM 11.55 52.79 0.686 7.97 2.6 10.35
10/27/2022 9:45:00 PM 11.46 52.628 0.686 7.97 2.62 10.24
10/27/2022 10:00:00 PM 11.37 52.466 0.686 7.95 3.58 10.1
10/27/2022 10:15:00 PM 11.29 52.322 0.686 7.94 2.6 10.05
10/27/2022 10:30:00 PM 11.21 52.178 0.686 7.94 2.66 9.95
10/27/2022 10:45:00 PM 11.13 52.034 0.686 7.92 2.78 9.86
10/27/2022 11:00:00 PM 11.06 51.908 0.686 7.91 2.55 9.76
10/27/2022 11:15:00 PM 10.98 51.764 0.686 7.89 2.76 9.69
10/27/2022 11:30:00 PM 10.9 51.62 0.686 7.87 3.11 9.6
10/27/2022 11:45:00 PM 10.83 51.494 0.686 7.87 2.84 9.51
10/28/2022 12:00:00 AM 10.76 51.368 0.686 7.86 2.6 9.43
10/28/2022 12:15:00 AM 10.68 51.224 0.686 7.86 2.69 9.34
10/28/2022 12:30:00 AM 10.61 51.098 0.686 7.85 2.52 9.22
10/28/2022 12:45:00 AM 10.53 50.954 0.686 7.83 2.5 9.14
10/28/2022 1:00:00 AM 10.45 50.81 0.686 7.83 2.55 9.07
10/28/2022 1:15:00 AM 10.38 50.684 0.686 7.81 2.56 8.99
10/28/2022 1:30:00 AM 10.31 50.558 0.686 7.81 2.67 8.88
10/28/2022 1:45:00 AM 10.25 50.45 0.686 7.8 3.07 8.8
10/28/2022 2:00:00 AM 10.17 50.306 0.686 7.79 3.1 8.71
10/28/2022 2:15:00 AM 10.11 50.198 0.686 7.79 3.18 8.64
10/28/2022 2:30:00 AM 10.03 50.054 0.686 7.78 3.39 8.56
10/28/2022 2:45:00 AM 9.96 49.928 0.686 7.77 2.89 8.5
10/28/2022 3:00:00 AM 9.91 49.838 0.686 7.77 3.2 8.44
10/28/2022 3:15:00 AM 9.85 49.73 0.686 7.76 2.98 8.36
10/28/2022 3:30:00 AM 9.79 49.622 0.686 7.76 2.89 8.29
10/28/2022 3:45:00 AM 9.73 49.514 0.686 7.76 2.9 8.23
10/28/2022 4:00:00 AM 9.68 49.424 0.686 7.75 2.7 8.16
10/28/2022 4:15:00 AM 9.62 49.316 0.686 7.75 2.69 8.11
10/28/2022 4:30:00 AM 9.58 49.244 0.686 7.75 2.63 8.04
10/28/2022 4:45:00 AM 9.52 49.136 0.686 7.75 2.58 8
10/28/2022 5:00:00 AM 9.47 49.046 0.686 7.74 2.67 7.94
10/28/2022 5:15:00 AM 9.43 48.974 0.686 7.74 2.89 7.88
10/28/2022 5:30:00 AM 9.38 48.884 0.686 7.74 3.54 7.81
10/28/2022 5:45:00 AM 9.33 48.794 0.686 7.73 3.85 7.75
10/28/2022 6:00:00 AM 9.27 48.686 0.686 7.74 3.62 7.72
10/28/2022 6:15:00 AM 9.22 48.596 0.686 7.73 3.56 7.7
10/28/2022 6:30:00 AM 9.16 48.488 0.686 7.73 3.48 7.66
10/28/2022 6:45:00 AM 9.12 48.416 0.686 7.72 3.09 7.59
10/28/2022 7:00:00 AM 9.06 48.308 0.686 7.72 2.98 7.54
10/28/2022 7:15:00 AM 9.01 48.218 0.686 7.71 2.79 7.51
10/28/2022 7:30:00 AM 8.94 48.092 0.686 7.72 2.8 7.47
10/28/2022 7:45:00 AM 8.87 47.966 0.686 7.72 2.69 7.42
10/28/2022 8:00:00 AM 8.8 47.84 0.687 7.71 2.67 7.43
10/28/2022 8:15:00 AM 8.74 47.732 0.687 7.71 2.66 7.41
10/28/2022 8:30:00 AM 8.68 47.624 0.687 7.71 2.63 7.43
10/28/2022 8:45:00 AM 8.63 47.534 0.687 7.71 2.78 7.47
10/28/2022 9:00:00 AM 8.59 47.462 0.687 7.71 2.6 7.57
10/28/2022 9:15:00 AM 8.56 47.408 0.687 7.73 2.7 7.72
10/28/2022 9:30:00 AM 8.54 47.372 0.687 7.74 2.63 7.87
10/28/2022 9:45:00 AM 8.52 47.336 0.687 7.75 2.64 8.07
10/28/2022 10:00:00 AM 8.52 47.336 0.687 7.78 2.69 8.28
10/28/2022 10:15:00 AM 8.52 47.336 0.687 7.79 2.64 8.51
10/28/2022 10:30:00 AM 8.53 47.354 0.687 7.81 2.59 8.73
10/28/2022 10:45:00 AM 8.55 47.39 0.687 7.84 2.59 9
10/28/2022 11:00:00 AM 8.6 47.48 0.687 7.84 2.66 9.27
10/28/2022 11:15:00 AM 8.67 47.606 0.686 7.88 2.67 9.53
10/28/2022 11:30:00 AM 8.75 47.75 0.686 7.9 2.6 9.84
10/28/2022 11:45:00 AM 8.83 47.894 0.686 7.92 2.62 10.14
10/28/2022 12:00:00 PM 8.93 48.074 0.685 7.95 2.59 10.46
10/28/2022 12:15:00 PM 9.05 48.29 0.685 7.99 2.62 10.76
10/28/2022 12:30:00 PM 9.18 48.524 0.685 8.01 2.58 11.01
10/28/2022 12:45:00 PM 9.33 48.794 0.684 8.04 2.52 11.34
10/28/2022 1:00:00 PM 9.52 49.136 0.684 8.05 2.59 11.57
10/28/2022 1:15:00 PM 9.74 49.532 0.683 8.08 2.54 11.84
10/28/2022 1:30:00 PM 9.98 49.964 0.683 8.11 2.62 12.13
10/28/2022 1:45:00 PM 10.25 50.45 0.682 8.14 2.55 12.45
10/28/2022 2:00:00 PM 10.49 50.882 0.681 8.16 2.58 12.7
10/28/2022 2:15:00 PM 10.68 51.224 0.681 8.19 2.57 12.96
10/28/2022 2:30:00 PM 10.8 51.44 0.68 8.2 2.48 13.13
10/28/2022 2:45:00 PM 10.87 51.566 0.68 8.22 2.54 13.29
10/28/2022 3:00:00 PM 10.89 51.602 0.679 8.24 2.61 13.45
10/28/2022 3:15:00 PM 10.87 51.566 0.679 8.25 2.53 13.56
10/28/2022 3:30:00 PM 10.85 51.53 0.679 8.26 2.46 13.69
10/28/2022 3:45:00 PM 10.85 51.53 0.678 8.28 2.48 13.83
10/28/2022 4:00:00 PM 10.86 51.548 0.678 8.29 2.48 13.96
10/28/2022 4:15:00 PM 10.87 51.566 0.678 8.3 2.55 14.05
10/28/2022 4:30:00 PM 10.88 51.584 0.677 8.29 2.51 14.12
10/28/2022 4:45:00 PM 10.88 51.584 0.677 8.31 2.51 14.17
10/28/2022 5:00:00 PM 10.89 51.602 0.677 8.3 2.53 14.16
10/28/2022 5:15:00 PM 10.89 51.602 0.677 8.3 2.49 14.12
10/28/2022 5:30:00 PM 10.88 51.584 0.681 8.27 2.75 13.97
10/28/2022 5:45:00 PM 10.87 51.566 0.678 8.28 2.49 13.96
10/28/2022 6:00:00 PM 10.84 51.512 0.678 8.26 2.56 13.84
10/28/2022 6:15:00 PM 10.8 51.44 0.678 8.26 2.44 13.67
10/28/2022 6:30:00 PM 10.75 51.35 0.678 8.24 2.79 13.48
10/28/2022 6:45:00 PM 10.7 51.26 0.678 8.22 2.68 13.29
10/28/2022 7:00:00 PM 10.64 51.152 0.679 8.2 2.67 13.09
10/28/2022 7:15:00 PM 10.58 51.044 0.679 8.17 2.57 12.92
10/28/2022 7:30:00 PM 10.53 50.954 0.679 8.16 2.48 12.74
10/28/2022 7:45:00 PM 10.47 50.846 0.68 8.14 2.5 12.58
10/28/2022 8:00:00 PM 10.4 50.72 0.68 8.12 2.42 12.43
10/28/2022 8:15:00 PM 10.33 50.594 0.68 8.1 2.48 12.26
10/28/2022 8:30:00 PM 10.26 50.468 0.681 8.08 2.47 12.11
10/28/2022 8:45:00 PM 10.19 50.342 0.681 8.07 2.55 11.94
10/28/2022 9:00:00 PM 10.14 50.252 0.681 8.05 2.88 11.81
10/28/2022 9:15:00 PM 10.07 50.126 0.682 8.04 2.78 11.68
10/28/2022 9:30:00 PM 10.02 50.036 0.682 8.03 2.74 11.54
10/28/2022 9:45:00 PM 9.96 49.928 0.682 8.02 2.5 11.44
10/28/2022 10:00:00 PM 9.91 49.838 0.682 7.99 2.64 11.3
10/28/2022 10:15:00 PM 9.87 49.766 0.683 7.99 2.65 11.19
10/28/2022 10:30:00 PM 9.82 49.676 0.683 7.98 2.51 11.08
10/28/2022 10:45:00 PM 9.76 49.568 0.683 7.97 2.66 10.97
10/28/2022 11:00:00 PM 9.7 49.46 0.683 7.95 2.67 10.85
10/28/2022 11:15:00 PM 9.65 49.37 0.684 7.94 2.75 10.76
10/28/2022 11:30:00 PM 9.59 49.262 0.684 7.94 2.73 10.64
10/28/2022 11:45:00 PM 9.53 49.154 0.684 7.92 2.55 10.54
10/29/2022 12:00:00 AM 9.47 49.046 0.684 7.91 2.63 10.44
10/29/2022 12:15:00 AM 9.41 48.938 0.685 7.9 2.94 10.33
10/29/2022 12:30:00 AM 9.35 48.83 0.685 7.89 2.65 10.23
10/29/2022 12:45:00 AM 9.29 48.722 0.685 7.86 2.88 10.14
10/29/2022 1:00:00 AM 9.23 48.614 0.685 7.87 2.58 10.06
10/29/2022 1:15:00 AM 9.17 48.506 0.686 7.86 2.67 9.95
10/29/2022 1:30:00 AM 9.11 48.398 0.686 7.85 2.55 9.89
10/29/2022 1:45:00 AM 9.05 48.29 0.686 7.84 2.95 9.8
10/29/2022 2:00:00 AM 9 48.2 0.686 7.82 2.62 9.73
10/29/2022 2:15:00 AM 8.94 48.092 0.686 7.83 2.51 9.67
10/29/2022 2:30:00 AM 8.88 47.984 0.686 7.82 2.57 9.59
10/29/2022 2:45:00 AM 8.82 47.876 0.687 7.82 2.62 9.5
10/29/2022 3:00:00 AM 8.77 47.786 0.687 7.82 2.71 9.45
10/29/2022 3:15:00 AM 8.72 47.696 0.687 7.8 2.77 9.38
10/29/2022 3:30:00 AM 8.66 47.588 0.687 7.8 2.57 9.32
10/29/2022 3:45:00 AM 8.62 47.516 0.688 7.8 2.59 9.26
10/29/2022 4:00:00 AM 8.57 47.426 0.688 7.8 2.45 9.14
10/29/2022 4:15:00 AM 8.52 47.336 0.688 7.79 2.52 9.12
10/29/2022 4:30:00 AM 8.48 47.264 0.688 7.79 2.73 9.04
10/29/2022 4:45:00 AM 8.43 47.174 0.688 7.79 2.83 8.99
10/29/2022 5:00:00 AM 8.36 47.048 0.688 7.78 2.97 8.94
10/29/2022 5:15:00 AM 8.3 46.94 0.689 7.78 3.67 8.89
10/29/2022 5:30:00 AM 8.25 46.85 0.689 7.78 3.24 8.83
10/29/2022 5:45:00 AM 8.2 46.76 0.689 7.78 2.79 8.78
10/29/2022 6:00:00 AM 8.15 46.67 0.689 7.78 2.75 8.74
10/29/2022 6:15:00 AM 8.09 46.562 0.689 7.77 3.09 8.67
10/29/2022 6:30:00 AM 8.03 46.454 0.69 7.77 2.83 8.62
10/29/2022 6:45:00 AM 7.98 46.364 0.69 7.77 2.88 8.56
10/29/2022 7:00:00 AM 7.92 46.256 0.69 7.76 2.75 8.53
10/29/2022 7:15:00 AM 7.86 46.148 0.69 7.75 2.91 8.47
10/29/2022 7:30:00 AM 7.79 46.022 0.69 7.75 2.8 8.45
10/29/2022 7:45:00 AM 7.73 45.914 0.691 7.75 2.82 8.39
10/29/2022 8:00:00 AM 7.66 45.788 0.691 7.75 2.74 8.36
10/29/2022 8:15:00 AM 7.6 45.68 0.691 7.75 2.7 8.36
10/29/2022 8:30:00 AM 7.55 45.59 0.691 7.75 2.69 8.36
10/29/2022 8:45:00 AM 7.49 45.482 0.691 7.76 2.69 8.42
10/29/2022 9:00:00 AM 7.46 45.428 0.692 7.76 2.66 8.49
10/29/2022 9:15:00 AM 7.44 45.392 0.692 7.77 2.78 8.61
10/29/2022 9:30:00 AM 7.41 45.338 0.692 7.79 2.72 8.75
10/29/2022 9:45:00 AM 7.39 45.302 0.692 7.79 2.67 8.88
10/29/2022 10:00:00 AM 7.38 45.284 0.692 7.81 2.67 9.08
10/29/2022 10:15:00 AM 7.35 45.23 0.692 7.82 2.75 9.17
10/29/2022 10:30:00 AM 7.35 45.23 0.692 7.83 2.67 9.31
10/29/2022 10:45:00 AM 7.38 45.284 0.692 7.85 2.7 9.49
10/29/2022 11:00:00 AM 7.44 45.392 0.692 7.87 2.66 9.64
10/29/2022 11:15:00 AM 7.55 45.59 0.692 7.89 2.73 9.92
10/29/2022 11:30:00 AM 7.71 45.878 0.692 7.9 2.69 10.16
10/29/2022 11:45:00 AM 7.88 46.184 0.692 7.94 2.73 10.45
10/29/2022 12:00:00 PM 8.08 46.544 0.691 7.95 4.14 10.72
10/29/2022 12:15:00 PM 8.27 46.886 0.691 7.99 3.25 10.95
10/29/2022 12:30:00 PM 8.46 47.228 0.691 8 2.87 11.2
10/29/2022 12:45:00 PM 8.64 47.552 0.69 8.02 2.74 11.43
10/29/2022 1:00:00 PM 8.87 47.966 0.69 8.05 2.73 11.63
10/29/2022 1:15:00 PM 9.11 48.398 0.689 8.08 2.76 11.93
10/29/2022 1:30:00 PM 9.36 48.848 0.689 8.09 2.78 12.19
10/29/2022 1:45:00 PM 9.6 49.28 0.688 8.12 2.67 12.42
10/29/2022 2:00:00 PM 9.81 49.658 0.688 8.14 2.71 12.68
10/29/2022 2:15:00 PM 9.98 49.964 0.688 8.17 2.59 12.89
10/29/2022 2:30:00 PM 10.11 50.198 0.687 8.18 2.65 13.08
10/29/2022 2:45:00 PM 10.19 50.342 0.687 8.2 2.76 13.25
10/29/2022 3:00:00 PM 10.22 50.396 0.687 8.2 2.65 13.35
10/29/2022 3:15:00 PM 10.23 50.414 0.686 8.22 2.62 13.45
10/29/2022 3:30:00 PM 10.23 50.414 0.686 8.23 3.06 13.51
10/29/2022 3:45:00 PM 10.24 50.432 0.686 8.24 2.72 13.61
10/29/2022 4:00:00 PM 10.25 50.45 0.686 8.25 2.6 13.67
10/29/2022 4:15:00 PM 10.26 50.468 0.686 8.26 2.56 13.75
10/29/2022 4:30:00 PM 10.24 50.432 0.686 8.26 2.63 13.79
10/29/2022 4:45:00 PM 10.22 50.396 0.686 8.26 2.56 13.81
10/29/2022 5:00:00 PM 10.18 50.324 0.686 8.26 2.62 13.79
10/29/2022 5:15:00 PM 10.13 50.234 0.686 8.25 2.7 13.77
10/29/2022 5:30:00 PM 10.07 50.126 0.687 8.24 2.56 13.65
10/29/2022 5:45:00 PM 10.02 50.036 0.687 8.23 2.58 13.53
10/29/2022 6:00:00 PM 9.95 49.91 0.687 8.22 2.67 13.44
10/29/2022 6:15:00 PM 9.87 49.766 0.688 8.21 2.7 13.31
10/29/2022 6:30:00 PM 9.79 49.622 0.688 8.19 2.61 13.18
10/29/2022 6:45:00 PM 9.71 49.478 0.688 8.17 2.68 13.02
10/29/2022 7:00:00 PM 9.62 49.316 0.689 8.15 2.63 12.87
10/29/2022 7:15:00 PM 9.52 49.136 0.689 8.14 2.65 12.71
10/29/2022 7:30:00 PM 9.42 48.956 0.689 8.13 2.75 12.57
10/29/2022 7:45:00 PM 9.32 48.776 0.69 8.11 2.72 12.42
10/29/2022 8:00:00 PM 9.21 48.578 0.69 8.1 2.8 12.28
10/29/2022 8:15:00 PM 9.11 48.398 0.69 8.08 2.71 12.13
10/29/2022 8:30:00 PM 9.01 48.218 0.691 8.07 2.92 11.99
10/29/2022 8:45:00 PM 8.91 48.038 0.691 8.05 2.76 11.89
10/29/2022 9:00:00 PM 8.82 47.876 0.691 8.03 2.68 11.74
10/29/2022 9:15:00 PM 8.74 47.732 0.692 8.01 2.68 11.63
10/29/2022 9:30:00 PM 8.66 47.588 0.692 8.01 2.65 11.53
10/29/2022 9:45:00 PM 8.59 47.462 0.692 7.99 2.86 11.43
10/29/2022 10:00:00 PM 8.53 47.354 0.692 7.99 2.82 11.35
10/29/2022 10:15:00 PM 8.47 47.246 0.693 7.98 2.7 11.27
10/29/2022 10:30:00 PM 8.42 47.156 0.693 7.97 2.7 11.19
10/29/2022 10:45:00 PM 8.36 47.048 0.693 7.96 2.82 11.14
10/29/2022 11:00:00 PM 8.3 46.94 0.693 7.95 2.59 11.06
10/29/2022 11:15:00 PM 8.25 46.85 0.693 7.94 2.58 10.97
10/29/2022 11:30:00 PM 8.19 46.742 0.693 7.93 2.68 10.89
10/29/2022 11:45:00 PM 8.13 46.634 0.693 7.92 2.63 10.82
10/30/2022 12:00:00 AM 8.08 46.544 0.694 7.91 2.67 10.75
10/30/2022 12:15:00 AM 8.02 46.436 0.694 7.91 2.57 10.65
10/30/2022 12:30:00 AM 7.95 46.31 0.694 7.89 2.68 10.57
10/30/2022 12:45:00 AM 7.89 46.202 0.694 7.89 2.63 10.49
10/30/2022 1:00:00 AM 7.82 46.076 0.694 7.88 2.72 10.42
10/30/2022 1:15:00 AM 7.76 45.968 0.694 7.87 2.74 10.33
10/30/2022 1:30:00 AM 7.7 45.86 0.695 7.86 2.73 10.26
10/30/2022 1:45:00 AM 7.64 45.752 0.695 7.86 2.69 10.19
10/30/2022 2:00:00 AM 7.58 45.644 0.695 7.86 2.73 10.12
10/30/2022 2:15:00 AM 7.52 45.536 0.695 7.85 2.72 10.06
10/30/2022 2:30:00 AM 7.47 45.446 0.695 7.85 2.65 10.01
10/30/2022 2:45:00 AM 7.41 45.338 0.695 7.84 2.66 9.94
10/30/2022 3:00:00 AM 7.36 45.248 0.695 7.84 2.71 9.9
10/30/2022 3:15:00 AM 7.31 45.158 0.695 7.84 2.58 9.84
10/30/2022 3:30:00 AM 7.26 45.068 0.696 7.83 2.73 9.78
10/30/2022 3:45:00 AM 7.2 44.96 0.696 7.83 2.86 9.74
10/30/2022 4:00:00 AM 7.16 44.888 0.696 7.83 2.69 9.7
10/30/2022 4:15:00 AM 7.11 44.798 0.696 7.83 2.74 9.66
10/30/2022 4:30:00 AM 7.07 44.726 0.696 7.81 2.81 9.62
10/30/2022 4:45:00 AM 7.02 44.636 0.696 7.82 2.73 9.57
10/30/2022 5:00:00 AM 6.98 44.564 0.696 7.82 2.96 9.52
10/30/2022 5:15:00 AM 6.93 44.474 0.696 7.82 3.1 9.49
10/30/2022 5:30:00 AM 6.88 44.384 0.696 7.81 2.96 9.48
10/30/2022 5:45:00 AM 6.84 44.312 0.696 7.82 2.79 9.45
10/30/2022 6:00:00 AM 6.79 44.222 0.696 7.81 2.96 9.41
10/30/2022 6:15:00 AM 6.74 44.132 0.696 7.8 2.93 9.38
10/30/2022 6:30:00 AM 6.69 44.042 0.696 7.81 2.79 9.35
10/30/2022 6:45:00 AM 6.65 43.97 0.696 7.81 3.15 9.32
10/30/2022 7:00:00 AM 6.59 43.862 0.696 7.8 2.88 9.29
10/30/2022 7:15:00 AM 6.53 43.754 0.696 7.8 2.67 9.25
10/30/2022 7:30:00 AM 6.47 43.646 0.696 7.79 2.72 9.23
10/30/2022 7:45:00 AM 6.42 43.556 0.696 7.8 2.73 9.22
10/30/2022 8:00:00 AM 6.37 43.466 0.696 7.8 3.07 9.2
10/30/2022 8:15:00 AM 6.31 43.358 0.696 7.8 2.7 9.2
10/30/2022 8:30:00 AM 6.27 43.286 0.696 7.81 2.67 9.22
10/30/2022 8:45:00 AM 6.22 43.196 0.696 7.81 3.05 9.28
10/30/2022 9:00:00 AM 6.18 43.124 0.696 7.82 2.67 9.36
10/30/2022 9:15:00 AM 6.15 43.07 0.697 7.81 4.4 9.43
10/30/2022 9:30:00 AM 6.12 43.016 0.696 7.84 3.03 9.57
10/30/2022 9:45:00 AM 6.1 42.98 0.696 7.85 2.73 9.71
10/30/2022 10:00:00 AM 6.1 42.98 0.696 7.85 11.8 9.76
10/30/2022 10:15:00 AM 6.1 42.98 0.696 7.88 3.16 10.03
10/30/2022 10:30:00 AM 6.12 43.016 0.696 7.9 2.79 10.24
10/30/2022 10:45:00 AM 6.17 43.106 0.696 7.92 2.76 10.43
10/30/2022 11:00:00 AM 6.24 43.232 0.695 7.93 2.8 10.67
10/30/2022 11:15:00 AM 6.36 43.448 0.695 7.97 2.74 10.89
10/30/2022 11:30:00 AM 6.5 43.7 0.695 7.99 2.78 11.16
10/30/2022 11:45:00 AM 6.68 44.024 0.694 8.01 2.72 11.42
10/30/2022 12:00:00 PM 6.86 44.348 0.694 8.05 2.78 11.67
10/30/2022 12:15:00 PM 7.06 44.708 0.693 8.07 2.71 11.92
10/30/2022 12:30:00 PM 7.25 45.05 0.693 8.09 2.7 12.17
10/30/2022 12:45:00 PM 7.44 45.392 0.692 8.12 2.79 12.38
10/30/2022 1:00:00 PM 7.67 45.806 0.692 8.13 2.74 12.6
10/30/2022 1:15:00 PM 7.92 46.256 0.691 8.16 2.77 12.86
10/30/2022 1:30:00 PM 8.18 46.724 0.691 8.17 2.68 13.1
10/30/2022 1:45:00 PM 8.43 47.174 0.69 8.2 2.65 13.35
10/30/2022 2:00:00 PM 8.63 47.534 0.69 8.22 4.05 13.57
10/30/2022 2:15:00 PM 8.79 47.822 0.689 8.24 2.72 13.77
10/30/2022 2:30:00 PM 8.92 48.056 0.689 8.26 2.71 13.99
10/30/2022 2:45:00 PM 9 48.2 0.688 8.27 2.65 14.14
10/30/2022 3:00:00 PM 9.04 48.272 0.688 8.28 3.03 14.22
10/30/2022 3:15:00 PM 9.06 48.308 0.688 8.29 2.85 14.33
10/30/2022 3:30:00 PM 9.08 48.344 0.687 8.31 2.72 14.48
10/30/2022 3:45:00 PM 9.12 48.416 0.687 8.32 2.54 14.59
10/30/2022 4:00:00 PM 9.14 48.452 0.687 8.32 2.45 14.66
10/30/2022 4:15:00 PM 9.16 48.488 0.688 8.31 2.49 14.7
10/30/2022 4:30:00 PM 9.18 48.524 0.687 8.34 2.39 14.79
10/30/2022 4:45:00 PM 9.17 48.506 0.687 8.34 2.47 14.79
10/30/2022 5:00:00 PM 9.13 48.434 0.687 8.34 2.36 14.77
10/30/2022 5:15:00 PM 9.09 48.362 0.687 8.32 2.41 14.72
10/30/2022 5:30:00 PM 9.04 48.272 0.687 8.33 2.42 14.64
10/30/2022 5:45:00 PM 8.99 48.182 0.688 8.28 2.41 14.54
10/30/2022 6:00:00 PM 8.94 48.092 0.688 8.31 2.35 14.48
10/30/2022 6:15:00 PM 8.89 48.002 0.688 8.3 2.39 14.36
10/30/2022 6:30:00 PM 8.82 47.876 0.689 8.28 2.39 14.17
10/30/2022 6:45:00 PM 8.75 47.75 0.689 8.26 2.37 14.01
10/30/2022 7:00:00 PM 8.68 47.624 0.689 8.24 2.5 13.85
10/30/2022 7:15:00 PM 8.61 47.498 0.69 8.22 2.48 13.67
10/30/2022 7:30:00 PM 8.54 47.372 0.69 8.21 2.43 13.51
10/30/2022 7:45:00 PM 8.47 47.246 0.691 8.19 2.4 13.36
10/30/2022 8:00:00 PM 8.41 47.138 0.691 8.17 2.43 13.2
10/30/2022 8:15:00 PM 8.34 47.012 0.692 8.15 2.47 13.05
10/30/2022 8:30:00 PM 8.3 46.94 0.692 8.14 2.46 12.86
10/30/2022 8:45:00 PM 8.27 46.886 0.692 8.12 2.37 12.74
10/30/2022 9:00:00 PM 8.24 46.832 0.693 8.11 2.52 12.58
10/30/2022 9:15:00 PM 8.22 46.796 0.693 8.09 2.55 12.48
10/30/2022 9:30:00 PM 8.2 46.76 0.693 8.08 2.82 12.35
10/30/2022 9:45:00 PM 8.2 46.76 0.693 8.06 2.53 12.24
10/30/2022 10:00:00 PM 8.19 46.742 0.694 8.06 2.38 12.15
10/30/2022 10:15:00 PM 8.18 46.724 0.694 8.05 2.51 12.06
10/30/2022 10:30:00 PM 8.16 46.688 0.694 8.04 2.38 11.95
10/30/2022 10:45:00 PM 8.15 46.67 0.694 8.03 2.4 11.84
10/30/2022 11:00:00 PM 8.14 46.652 0.694 8.02 2.44 11.73
10/30/2022 11:15:00 PM 8.13 46.634 0.695 8.01 2.42 11.64
10/30/2022 11:30:00 PM 8.11 46.598 0.695 8 2.43 11.54
10/30/2022 11:45:00 PM 8.09 46.562 0.695 7.99 2.52 11.43
10/31/2022 12:00:00 AM 8.06 46.508 0.695 7.98 2.52 11.36
10/31/2022 12:15:00 AM 8.04 46.472 0.696 7.95 2.78 11.25
10/31/2022 12:30:00 AM 8.01 46.418 0.696 7.97 2.38 11.16
10/31/2022 12:45:00 AM 7.98 46.364 0.696 7.94 2.53 11.07
10/31/2022 1:00:00 AM 7.96 46.328 0.696 7.95 2.88 10.97
10/31/2022 1:15:00 AM 7.93 46.274 0.696 7.94 2.48 10.89
10/31/2022 1:30:00 AM 7.9 46.22 0.697 7.92 2.83 10.81
10/31/2022 1:45:00 AM 7.87 46.166 0.697 7.93 2.65 10.73
10/31/2022 2:00:00 AM 7.83 46.094 0.697 7.91 3.36 10.65
10/31/2022 2:15:00 AM 7.8 46.04 0.697 7.91 2.79 10.57
10/31/2022 2:30:00 AM 7.76 45.968 0.697 7.91 2.73 10.48
10/31/2022 2:45:00 AM 7.73 45.914 0.697 7.9 2.46 10.41
10/31/2022 3:00:00 AM 7.7 45.86 0.698 7.89 2.89 10.34
10/31/2022 3:15:00 AM 7.67 45.806 0.698 7.89 2.43 10.28
10/31/2022 3:30:00 AM 7.64 45.752 0.698 7.89 2.53 10.2
10/31/2022 3:45:00 AM 7.61 45.698 0.698 7.89 2.62 10.15
10/31/2022 4:00:00 AM 7.58 45.644 0.698 7.88 2.59 10.1
10/31/2022 4:15:00 AM 7.56 45.608 0.698 7.88 2.53 10.03
10/31/2022 4:30:00 AM 7.53 45.554 0.698 7.87 2.45 9.97
10/31/2022 4:45:00 AM 7.5 45.5 0.698 7.85 3.03 9.91
10/31/2022 5:00:00 AM 7.47 45.446 0.698 7.86 2.91 9.83
10/31/2022 5:15:00 AM 7.45 45.41 0.699 7.86 2.56 9.78
10/31/2022 5:30:00 AM 7.44 45.392 0.699 7.85 3.16 9.73
10/31/2022 5:45:00 AM 7.43 45.374 0.699 7.85 2.53 9.67
10/31/2022 6:00:00 AM 7.42 45.356 0.699 7.85 2.68 9.62
10/31/2022 6:15:00 AM 7.41 45.338 0.699 7.85 2.47 9.56
10/31/2022 6:30:00 AM 7.39 45.302 0.699 7.84 2.56 9.5
10/31/2022 6:45:00 AM 7.36 45.248 0.699 7.84 2.72 9.44
10/31/2022 7:00:00 AM 7.34 45.212 0.699 7.83 2.61 9.38
10/31/2022 7:15:00 AM 7.3 45.14 0.7 7.83 2.51 9.33
10/31/2022 7:30:00 AM 7.27 45.086 0.7 7.83 2.56 9.27
10/31/2022 7:45:00 AM 7.23 45.014 0.7 7.82 2.55 9.25
10/31/2022 8:00:00 AM 7.2 44.96 0.7 7.82 2.46 9.21
10/31/2022 8:15:00 AM 7.17 44.906 0.7 7.81 2.39 9.17
10/31/2022 8:30:00 AM 7.14 44.852 0.7 7.81 2.55 9.18
10/31/2022 8:45:00 AM 7.12 44.816 0.701 7.82 2.64 9.24
10/31/2022 9:00:00 AM 7.1 44.78 0.701 7.82 2.45 9.29
10/31/2022 9:15:00 AM 7.09 44.762 0.701 7.84 2.44 9.41
10/31/2022 9:30:00 AM 7.09 44.762 0.701 7.85 2.46 9.52
10/31/2022 9:45:00 AM 7.11 44.798 0.701 7.86 2.47 9.67
10/31/2022 10:00:00 AM 7.16 44.888 0.701 7.86 2.72 9.94
10/31/2022 10:15:00 AM 7.22 44.996 0.701 7.9 2.69 10.15
10/31/2022 10:30:00 AM 7.29 45.122 0.701 7.92 2.63 10.35
10/31/2022 10:45:00 AM 7.37 45.266 0.701 7.94 2.49 10.57
10/31/2022 11:00:00 AM 7.46 45.428 0.7 7.97 2.58 10.85
10/31/2022 11:15:00 AM 7.53 45.554 0.7 7.99 2.45 11.06
10/31/2022 11:30:00 AM 7.61 45.698 0.7 8.02 2.43 11.38
10/31/2022 11:45:00 AM 7.7 45.86 0.7 8.04 2.42 11.62
10/31/2022 12:00:00 PM 7.8 46.04 0.699 8.06 2.81 11.77
10/31/2022 12:15:00 PM 7.89 46.202 0.699 8.07 2.71 12.11
10/31/2022 12:30:00 PM 7.98 46.364 0.699 8.1 3.09 12.31
10/31/2022 12:45:00 PM 8.09 46.562 0.698 8.13 2.39 12.46
10/31/2022 1:00:00 PM 8.2 46.76 0.698 8.15 2.39 12.72
10/31/2022 1:15:00 PM 8.31 46.958 0.697 8.17 2.36 13
10/31/2022 1:30:00 PM 8.41 47.138 0.697 8.19 2.52 13.18
10/31/2022 1:45:00 PM 8.5 47.3 0.697 8.2 2.56 13.37
10/31/2022 2:00:00 PM 8.59 47.462 0.696 8.22 2.45 13.51
10/31/2022 2:15:00 PM 8.67 47.606 0.696 8.23 2.58 13.67
10/31/2022 2:30:00 PM 8.74 47.732 0.696 8.25 2.42 13.81
10/31/2022 2:45:00 PM 8.8 47.84 0.696 8.25 2.41 13.83
10/31/2022 3:00:00 PM 8.86 47.948 0.695 8.26 2.52 13.93
10/31/2022 3:15:00 PM 8.93 48.074 0.695 8.27 2.45 14.04
10/31/2022 3:30:00 PM 9 48.2 0.695 8.28 2.46 14.2
10/31/2022 3:45:00 PM 9.06 48.308 0.695 8.3 2.41 14.27
10/31/2022 4:00:00 PM 9.12 48.416 0.694 8.3 2.42 14.36
10/31/2022 4:15:00 PM 9.18 48.524 0.694 8.31 2.39 14.46
10/31/2022 4:30:00 PM 9.24 48.632 0.694 8.33 2.49 14.57
10/31/2022 4:45:00 PM 9.27 48.686 0.694 8.32 2.44 14.54
10/31/2022 5:00:00 PM 9.29 48.722 0.694 8.32 2.43 14.5
10/31/2022 5:15:00 PM 9.3 48.74 0.694 8.31 2.53 14.38
10/31/2022 5:30:00 PM 9.3 48.74 0.694 8.3 2.47 14.28
10/31/2022 5:45:00 PM 9.3 48.74 0.695 8.28 2.59 14.19
10/31/2022 6:00:00 PM 9.3 48.74 0.695 8.28 2.58 14.09
10/31/2022 6:15:00 PM 9.31 48.758 0.695 8.27 2.63 13.96
10/31/2022 6:30:00 PM 9.3 48.74 0.695 8.25 2.72 13.81
10/31/2022 6:45:00 PM 9.29 48.722 0.696 8.23 2.62 13.63
10/31/2022 7:00:00 PM 9.26 48.668 0.696 8.21 2.55 13.48
10/31/2022 7:15:00 PM 9.24 48.632 0.696 8.19 2.95 13.32
10/31/2022 7:30:00 PM 9.23 48.614 0.697 8.18 2.6 13.17
10/31/2022 7:45:00 PM 9.23 48.614 0.697 8.16 2.62 13.01
10/31/2022 8:00:00 PM 9.23 48.614 0.697 8.14 2.58 12.88
10/31/2022 8:15:00 PM 9.22 48.596 0.697 8.13 2.76 12.73
10/31/2022 8:30:00 PM 9.21 48.578 0.698 8.12 2.51 12.6
10/31/2022 8:45:00 PM 9.21 48.578 0.698 8.1 2.6 12.45
10/31/2022 9:00:00 PM 9.21 48.578 0.698 8.09 2.85 12.31
10/31/2022 9:15:00 PM 9.21 48.578 0.698 8.07 2.79 12.18
10/31/2022 9:30:00 PM 9.21 48.578 0.698 8.06 2.72 12.07
10/31/2022 9:45:00 PM 9.22 48.596 0.698 8.05 2.71 11.96
10/31/2022 10:00:00 PM 9.22 48.596 0.698 8.04 2.66 11.85
10/31/2022 10:15:00 PM 9.22 48.596 0.699 8.03 2.56 11.75
10/31/2022 10:30:00 PM 9.22 48.596 0.699 8.01 2.54 11.64
10/31/2022 10:45:00 PM 9.22 48.596 0.699 8.01 2.78 11.55
10/31/2022 11:00:00 PM 9.22 48.596 0.699 7.99 2.66 11.44
10/31/2022 11:15:00 PM 9.22 48.596 0.699 7.99 2.58 11.34
10/31/2022 11:30:00 PM 9.21 48.578 0.699 7.98 2.52 11.23
10/31/2022 11:45:00 PM 9.21 48.578 0.699 7.96 2.65 11.13
11/1/2022 12:00:00 AM 9.2 48.56 0.699 7.96 2.79 11.04
11/1/2022 12:15:00 AM 9.19 48.542 0.699 7.95 2.69 10.98
11/1/2022 12:30:00 AM 9.17 48.506 0.699 7.94 2.83 10.87
11/1/2022 12:45:00 AM 9.16 48.488 0.699 7.94 2.68 10.79
11/1/2022 1:00:00 AM 9.15 48.47 0.699 7.93 2.65 10.71
11/1/2022 1:15:00 AM 9.15 48.47 0.699 7.91 2.47 10.63
11/1/2022 1:30:00 AM 9.16 48.488 0.699 7.92 2.82 10.57
11/1/2022 1:45:00 AM 9.17 48.506 0.699 7.91 2.71 10.49
11/1/2022 2:00:00 AM 9.19 48.542 0.699 7.9 2.52 10.42
11/1/2022 2:15:00 AM 9.2 48.56 0.699 7.9 2.57 10.36
11/1/2022 2:30:00 AM 9.22 48.596 0.699 7.89 2.79 10.25
11/1/2022 2:45:00 AM 9.23 48.614 0.699 7.89 2.57 10.19
11/1/2022 3:00:00 AM 9.25 48.65 0.699 7.89 3.57 10.11
11/1/2022 3:15:00 AM 9.27 48.686 0.699 7.88 2.67 10.03
11/1/2022 3:30:00 AM 9.29 48.722 0.699 7.88 2.75 9.96
11/1/2022 3:45:00 AM 9.31 48.758 0.699 7.88 2.6 9.91
11/1/2022 4:00:00 AM 9.33 48.794 0.699 7.86 2.56 9.82
11/1/2022 4:15:00 AM 9.34 48.812 0.699 7.87 2.76 9.75
11/1/2022 4:30:00 AM 9.37 48.866 0.699 7.86 2.49 9.67
11/1/2022 4:45:00 AM 9.38 48.884 0.699 7.86 2.48 9.61
11/1/2022 5:00:00 AM 9.4 48.92 0.699 7.85 2.71 9.55
11/1/2022 5:15:00 AM 9.42 48.956 0.699 7.85 2.55 9.46
11/1/2022 5:30:00 AM 9.43 48.974 0.699 7.85 2.65 9.39
11/1/2022 5:45:00 AM 9.44 48.992 0.699 7.84 2.43 9.34
11/1/2022 6:00:00 AM 9.45 49.01 0.699 7.84 2.78 9.26
11/1/2022 6:15:00 AM 9.46 49.028 0.704 7.81 2.58 9
11/1/2022 6:30:00 AM 9.47 49.046 0.699 7.83 2.57 9.1
11/1/2022 6:45:00 AM 9.48 49.064 0.699 7.83 2.45 9.04
11/1/2022 7:00:00 AM 9.48 49.064 0.699 7.82 2.43 8.99
11/1/2022 7:15:00 AM 9.48 49.064 0.699 7.8 2.48 8.86
11/1/2022 7:30:00 AM 9.48 49.064 0.699 7.81 2.43 8.84
11/1/2022 7:45:00 AM 9.48 49.064 0.699 7.8 2.4 8.79
11/1/2022 8:00:00 AM 9.49 49.082 0.699 7.81 2.5 8.71
11/1/2022 8:15:00 AM 9.5 49.1 0.699 7.81 2.33 8.68
11/1/2022 8:30:00 AM 9.5 49.1 0.699 7.8 2.44 8.63
11/1/2022 8:45:00 AM 9.51 49.118 0.7 7.8 2.4 8.66
11/1/2022 9:00:00 AM 9.51 49.118 0.7 7.8 2.46 8.59
11/1/2022 9:15:00 AM 9.52 49.136 0.7 7.8 2.4 8.56
11/1/2022 9:30:00 AM 9.53 49.154 0.7 7.81 2.44 8.56
11/1/2022 9:45:00 AM 9.54 49.172 0.7 7.81 2.42 8.64
11/1/2022 10:00:00 AM 9.56 49.208 0.699 7.8 2.38 8.73
11/1/2022 10:15:00 AM 9.59 49.262 0.699 7.82 2.41 8.86
11/1/2022 10:30:00 AM 9.63 49.334 0.699 7.84 2.3 9.05
11/1/2022 10:45:00 AM 9.68 49.424 0.699 7.86 2.41 9.23
11/1/2022 11:00:00 AM 9.74 49.532 0.699 7.87 2.35 9.5
11/1/2022 11:15:00 AM 9.82 49.676 0.699 7.89 2.43 9.77
11/1/2022 11:30:00 AM 9.89 49.802 0.699 7.9 2.39 10.03
11/1/2022 11:45:00 AM 9.96 49.928 0.698 7.93 2.41 10.2
11/1/2022 12:00:00 PM 10.02 50.036 0.698 7.95 2.41 10.48
11/1/2022 12:15:00 PM 10.12 50.216 0.698 7.97 2.4 10.77
11/1/2022 12:30:00 PM 10.27 50.486 0.697 8 2.34 11.04
11/1/2022 12:45:00 PM 10.45 50.81 0.697 8.03 2.39 11.38
11/1/2022 1:00:00 PM 10.67 51.206 0.696 8.05 2.36 11.69
11/1/2022 1:15:00 PM 10.81 51.458 0.696 8.08 2.34 11.91
11/1/2022 1:30:00 PM 10.98 51.764 0.696 8.1 2.37 12.2
11/1/2022 1:45:00 PM 11.21 52.178 0.695 8.12 2.32 12.47
11/1/2022 2:00:00 PM 11.38 52.484 0.695 8.14 2.33 12.62
11/1/2022 2:15:00 PM 11.51 52.718 0.694 8.15 2.37 12.76
11/1/2022 2:30:00 PM 11.58 52.844 0.693 8.18 2.36 12.9
11/1/2022 2:45:00 PM 11.62 52.916 0.691 8.17 2.43 12.95
11/1/2022 3:00:00 PM 11.62 52.916 0.69 8.18 2.5 12.9
11/1/2022 3:15:00 PM 11.6 52.88 0.689 8.19 2.49 12.97
11/1/2022 3:30:00 PM 11.58 52.844 0.688 8.19 2.45 12.94
11/1/2022 3:45:00 PM 11.63 52.934 0.688 8.2 2.47 13.07
11/1/2022 4:00:00 PM 11.68 53.024 0.688 8.22 2.37 13.21
11/1/2022 4:15:00 PM 11.69 53.042 0.688 8.22 2.39 13.23
11/1/2022 4:30:00 PM 11.69 53.042 0.687 8.22 2.41 12.95
11/1/2022 4:45:00 PM 11.69 53.042 0.687 8.23 2.42 13.3
11/1/2022 5:00:00 PM 11.71 53.078 0.687 8.24 2.5 13.38
11/1/2022 5:15:00 PM 11.72 53.096 0.687 8.24 2.47 13.43
11/1/2022 5:30:00 PM 11.73 53.114 0.687 8.24 2.43 13.32
11/1/2022 5:45:00 PM 11.74 53.132 0.687 8.22 2.38 13.28
11/1/2022 6:00:00 PM 11.73 53.114 0.687 8.22 2.52 13.24
11/1/2022 6:15:00 PM 11.72 53.096 0.688 8.21 2.64 13.14
11/1/2022 6:30:00 PM 11.7 53.06 0.688 8.2 2.66 13.02
11/1/2022 6:45:00 PM 11.66 52.988 0.688 8.16 6.08 12.88
11/1/2022 7:00:00 PM 11.62 52.916 0.688 8.17 3.03 12.75
11/1/2022 7:15:00 PM 11.6 52.88 0.688 8.16 3.29 12.59
11/1/2022 7:30:00 PM 11.58 52.844 0.689 8.14 2.53 12.45
11/1/2022 7:45:00 PM 11.56 52.808 0.689 8.12 2.42 12.33
11/1/2022 8:00:00 PM 11.54 52.772 0.689 8.11 2.54 12.2
11/1/2022 8:15:00 PM 11.52 52.736 0.689 8.09 2.35 12.06
11/1/2022 8:30:00 PM 11.5 52.7 0.689 8.08 2.57 11.92
11/1/2022 8:45:00 PM 11.48 52.664 0.69 8.07 2.37 11.76
11/1/2022 9:00:00 PM 11.45 52.61 0.69 8.04 2.37 11.64
11/1/2022 9:15:00 PM 11.42 52.556 0.69 8.03 2.47 11.52
11/1/2022 9:30:00 PM 11.39 52.502 0.69 8.03 2.44 11.41
11/1/2022 9:45:00 PM 11.34 52.412 0.69 8.02 2.45 11.29
11/1/2022 10:00:00 PM 11.3 52.34 0.69 8.01 2.4 11.17
11/1/2022 10:15:00 PM 11.26 52.268 0.69 7.99 2.4 11.05
11/1/2022 10:30:00 PM 11.22 52.196 0.69 7.99 2.56 10.95
11/1/2022 10:45:00 PM 11.19 52.142 0.69 7.97 2.67 10.85
11/1/2022 11:00:00 PM 11.17 52.106 0.69 7.97 2.45 10.73
11/1/2022 11:15:00 PM 11.14 52.052 0.69 7.96 2.51 10.6
11/1/2022 11:30:00 PM 11.12 52.016 0.69 7.95 2.55 10.56
11/1/2022 11:45:00 PM 11.09 51.962 0.69 7.94 2.78 10.44
11/2/2022 12:00:00 AM 11.07 51.926 0.69 7.93 2.7 10.34
11/2/2022 12:15:00 AM 11.05 51.89 0.69 7.93 2.79 10.25
11/2/2022 12:30:00 AM 11.03 51.854 0.69 7.92 2.53 10.16
11/2/2022 12:45:00 AM 11.01 51.818 0.69 7.91 2.47 10.06
11/2/2022 1:00:00 AM 10.98 51.764 0.69 7.9 2.44 9.97
11/2/2022 1:15:00 AM 10.94 51.692 0.69 7.9 2.53 9.8
11/2/2022 1:30:00 AM 10.91 51.638 0.69 7.89 2.61 9.78
11/2/2022 1:45:00 AM 10.88 51.584 0.69 7.88 2.5 9.68
11/2/2022 2:00:00 AM 10.85 51.53 0.69 7.88 2.55 9.62
11/2/2022 2:15:00 AM 10.82 51.476 0.69 7.87 2.45 9.51
11/2/2022 2:30:00 AM 10.79 51.422 0.69 7.86 2.48 9.45
11/2/2022 2:45:00 AM 10.78 51.404 0.69 7.86 2.46 9.38
11/2/2022 3:00:00 AM 10.77 51.386 0.691 7.86 2.38 9.29
11/2/2022 3:15:00 AM 10.77 51.386 0.691 7.85 2.38 9.2
11/2/2022 3:30:00 AM 10.75 51.35 0.69 7.84 2.69 9.14
11/2/2022 3:45:00 AM 10.74 51.332 0.691 7.83 2.55 9.04
11/2/2022 4:00:00 AM 10.73 51.314 0.691 7.83 2.63 8.93
11/2/2022 4:15:00 AM 10.71 51.278 0.69 7.82 2.58 8.84
11/2/2022 4:30:00 AM 10.7 51.26 0.691 7.82 2.63 8.79
11/2/2022 4:45:00 AM 10.7 51.26 0.691 7.82 2.54 8.7
11/2/2022 5:00:00 AM 10.68 51.224 0.691 7.82 2.59 8.63
11/2/2022 5:15:00 AM 10.65 51.17 0.691 7.81 2.81 8.49
11/2/2022 5:30:00 AM 10.6 51.08 0.691 7.8 2.7 8.47
11/2/2022 5:45:00 AM 10.56 51.008 0.691 7.8 3.46 8.38
11/2/2022 6:00:00 AM 10.51 50.918 0.691 7.79 2.6 8.28
11/2/2022 6:15:00 AM 10.46 50.828 0.691 7.79 2.72 8.2
11/2/2022 6:30:00 AM 10.42 50.756 0.692 7.78 2.63 8.16
11/2/2022 6:45:00 AM 10.36 50.648 0.692 7.78 3.08 8.11
11/2/2022 7:00:00 AM 10.31 50.558 0.692 7.77 2.55 8.01
11/2/2022 7:15:00 AM 10.25 50.45 0.692 7.77 2.55 7.94
11/2/2022 7:30:00 AM 10.21 50.378 0.693 7.77 2.54 7.89
11/2/2022 7:45:00 AM 10.16 50.288 0.693 7.76 2.57 7.81
11/2/2022 8:00:00 AM 10.13 50.234 0.693 7.76 2.48 7.73
11/2/2022 8:15:00 AM 10.11 50.198 0.693 7.76 2.55 7.74
11/2/2022 8:30:00 AM 10.1 50.18 0.694 7.74 2.51 7.74
11/2/2022 8:45:00 AM 10.09 50.162 0.694 7.76 2.56 7.76
11/2/2022 9:00:00 AM 10.08 50.144 0.694 7.76 2.48 7.8
11/2/2022 9:15:00 AM 10.09 50.162 0.694 7.76 2.64 7.97
11/2/2022 9:30:00 AM 10.1 50.18 0.695 7.78 2.57 8.11
11/2/2022 9:45:00 AM 10.12 50.216 0.695 7.79 2.66 8.29
11/2/2022 10:00:00 AM 10.15 50.27 0.695 7.81 2.35 8.46
11/2/2022 10:15:00 AM 10.19 50.342 0.695 7.83 2.4 8.73
11/2/2022 10:30:00 AM 10.24 50.432 0.695 7.85 2.37 8.95
11/2/2022 10:45:00 AM 10.3 50.54 0.695 7.87 2.39 9.31
11/2/2022 11:00:00 AM 10.36 50.648 0.694 7.89 2.41 9.62
11/2/2022 11:15:00 AM 10.42 50.756 0.694 7.92 2.33 9.94
11/2/2022 11:30:00 AM 10.51 50.918 0.694 7.95 2.38 10.18
11/2/2022 11:45:00 AM 10.63 51.134 0.694 7.96 2.41 10.54
11/2/2022 12:00:00 PM 10.78 51.404 0.693 8 2.35 10.87
11/2/2022 12:15:00 PM 10.95 51.71 0.693 8.02 2.34 11.16
11/2/2022 12:30:00 PM 11.14 52.052 0.692 8.05 2.34 11.53
11/2/2022 12:45:00 PM 11.34 52.412 0.692 8.08 2.35 11.78
11/2/2022 1:00:00 PM 11.54 52.772 0.691 8.11 2.27 12.08
11/2/2022 1:15:00 PM 11.77 53.186 0.691 8.13 2.31 12.42
11/2/2022 1:30:00 PM 12 53.6 0.69 8.15 2.55 12.67
11/2/2022 1:45:00 PM 12.23 54.014 0.69 8.19 2.6 13.03
11/2/2022 2:00:00 PM 12.44 54.392 0.689 8.22 2.28 13.35
11/2/2022 2:15:00 PM 12.6 54.68 0.688 8.25 2.28 13.61
11/2/2022 2:30:00 PM 12.72 54.896 0.687 8.26 2.35 13.83
11/2/2022 2:45:00 PM 12.8 55.04 0.687 8.29 2.28 13.98
11/2/2022 3:00:00 PM 12.84 55.112 0.686 8.3 2.28 14.11
11/2/2022 3:15:00 PM 12.86 55.148 0.686 8.3 2.26 14.19
11/2/2022 3:30:00 PM 12.86 55.148 0.686 8.32 2.3 14.34
11/2/2022 3:45:00 PM 12.87 55.166 0.685 8.34 2.23 14.43
11/2/2022 4:00:00 PM 12.87 55.166 0.685 8.34 2.26 14.49
11/2/2022 4:15:00 PM 12.87 55.166 0.685 8.35 2.36 14.58
11/2/2022 4:30:00 PM 12.85 55.13 0.685 8.35 2.15 14.57
11/2/2022 4:45:00 PM 12.83 55.094 0.685 8.35 2.18 14.58
11/2/2022 5:00:00 PM 12.79 55.022 0.685 8.34 2.15 14.51
11/2/2022 5:15:00 PM 12.74 54.932 0.685 8.33 2.18 14.37
11/2/2022 5:30:00 PM 12.68 54.824 0.685 8.32 2.16 14.33
11/2/2022 5:45:00 PM 12.62 54.716 0.685 8.31 2.43 14.19
11/2/2022 6:00:00 PM 12.55 54.59 0.685 8.29 2.26 14.04
11/2/2022 6:15:00 PM 12.48 54.464 0.685 8.28 2.13 13.9
11/2/2022 6:30:00 PM 12.4 54.32 0.685 8.26 2.2 13.71
11/2/2022 6:45:00 PM 12.32 54.176 0.686 8.24 2.8 13.44
11/2/2022 7:00:00 PM 12.23 54.014 0.686 8.22 2.23 13.28
11/2/2022 7:15:00 PM 12.14 53.852 0.686 8.2 2.41 13.09
11/2/2022 7:30:00 PM 12.04 53.672 0.686 8.19 2.19 12.92
11/2/2022 7:45:00 PM 11.94 53.492 0.686 8.17 2.17 12.73
11/2/2022 8:00:00 PM 11.84 53.312 0.687 8.15 2.37 12.54
11/2/2022 8:15:00 PM 11.74 53.132 0.687 8.12 2.34 12.33
11/2/2022 8:30:00 PM 11.65 52.97 0.687 8.11 2.27 12.21
11/2/2022 8:45:00 PM 11.56 52.808 0.687 8.09 2.19 12.05
11/2/2022 9:00:00 PM 11.48 52.664 0.687 8.07 2.34 11.86
11/2/2022 9:15:00 PM 11.41 52.538 0.688 8.06 2.35 11.73
11/2/2022 9:30:00 PM 11.34 52.412 0.688 8.04 2.27 11.58
11/2/2022 9:45:00 PM 11.28 52.304 0.688 8.03 2.24 11.45
11/2/2022 10:00:00 PM 11.22 52.196 0.688 8.02 2.79 11.28
11/2/2022 10:15:00 PM 11.16 52.088 0.688 8.01 2.29 11.19
11/2/2022 10:30:00 PM 11.11 51.998 0.688 7.99 2.43 11.08
11/2/2022 10:45:00 PM 11.06 51.908 0.688 7.98 2.58 10.93
11/2/2022 11:00:00 PM 11 51.8 0.688 7.97 2.3 10.83
11/2/2022 11:15:00 PM 10.95 51.71 0.689 7.94 2.26 10.73
11/2/2022 11:30:00 PM 10.89 51.602 0.689 7.94 6.71 10.61
11/2/2022 11:45:00 PM 10.83 51.494 0.689 7.93 2.89 10.43
11/3/2022 12:00:00 AM 10.78 51.404 0.689 7.92 2.59 10.33
11/3/2022 12:15:00 AM 10.72 51.296 0.689 7.9 2.61 10.22
11/3/2022 12:30:00 AM 10.66 51.188 0.689 7.9 2.7 10.09
11/3/2022 12:45:00 AM 10.6 51.08 0.689 7.89 2.65 9.94
11/3/2022 1:00:00 AM 10.54 50.972 0.689 7.88 2.69 9.84
11/3/2022 1:15:00 AM 10.48 50.864 0.69 7.87 2.62 9.72
11/3/2022 1:30:00 AM 10.42 50.756 0.69 7.87 2.63 9.59
11/3/2022 1:45:00 AM 10.37 50.666 0.69 7.85 2.69 9.51
11/3/2022 2:00:00 AM 10.31 50.558 0.69 7.83 2.67 9.37
11/3/2022 2:15:00 AM 10.26 50.468 0.69 7.84 2.62 9.35
11/3/2022 2:30:00 AM 10.21 50.378 0.69 7.82 2.57 9.25
11/3/2022 2:45:00 AM 10.16 50.288 0.689 7.82 2.75 9.16
11/3/2022 3:00:00 AM 10.12 50.216 0.69 7.82 2.9 9.06
11/3/2022 3:15:00 AM 10.07 50.126 0.69 7.81 2.95 8.99
11/3/2022 3:30:00 AM 10.02 50.036 0.69 7.81 2.92 8.9
11/3/2022 3:45:00 AM 9.98 49.964 0.691 7.79 4.11 8.78
11/3/2022 4:00:00 AM 9.93 49.874 0.69 7.8 2.78 8.77
11/3/2022 4:15:00 AM 9.89 49.802 0.69 7.79 3.36 8.66
11/3/2022 4:30:00 AM 9.85 49.73 0.69 7.79 2.77 8.61
11/3/2022 4:45:00 AM 9.83 49.694 0.69 7.78 3.35 8.53
11/3/2022 5:00:00 AM 9.8 49.64 0.69 7.78 2.75 8.45
11/3/2022 5:15:00 AM 9.76 49.568 0.69 7.77 2.73 8.38
11/3/2022 5:30:00 AM 9.73 49.514 0.69 7.77 2.85 8.31
11/3/2022 5:45:00 AM 9.69 49.442 0.69 7.76 2.97 8.24
11/3/2022 6:00:00 AM 9.66 49.388 0.69 7.77 2.98 8.19
11/3/2022 6:15:00 AM 9.63 49.334 0.69 7.76 2.92 8.1
11/3/2022 6:30:00 AM 9.6 49.28 0.691 7.76 2.82 8.05
11/3/2022 6:45:00 AM 9.56 49.208 0.69 7.76 2.88 7.99
11/3/2022 7:00:00 AM 9.52 49.136 0.691 7.75 2.9 7.94
11/3/2022 7:15:00 AM 9.48 49.064 0.691 7.75 2.76 7.87
11/3/2022 7:30:00 AM 9.45 49.01 0.691 7.74 2.91 7.83
11/3/2022 7:45:00 AM 9.42 48.956 0.691 7.74 3.01 7.77
11/3/2022 8:00:00 AM 9.4 48.92 0.691 7.73 2.88 7.7
11/3/2022 8:15:00 AM 9.38 48.884 0.691 7.74 2.75 7.65
11/3/2022 8:30:00 AM 9.35 48.83 0.691 7.74 3.07 7.66
11/3/2022 8:45:00 AM 9.34 48.812 0.692 7.73 91.94 7.49
11/3/2022 9:00:00 AM 9.31 48.758 0.691 7.74 4.72 7.78
11/3/2022 9:15:00 AM 9.3 48.74 0.692 7.75 3.88 7.94
11/3/2022 9:30:00 AM 9.3 48.74 0.691 7.75 3.84 8.09
11/3/2022 9:45:00 AM 9.3 48.74 0.691 7.77 4.06 8.26
11/3/2022 10:00:00 AM 9.31 48.758 0.692 7.77 3.47 8.38
11/3/2022 10:15:00 AM 9.32 48.776 0.691 7.81 3.4 8.61
11/3/2022 10:30:00 AM 9.35 48.83 0.691 7.82 3.43 8.86
11/3/2022 10:45:00 AM 9.4 48.92 0.691 7.85 3.37 9.17
11/3/2022 11:00:00 AM 9.46 49.028 0.691 7.87 3.4 9.47
11/3/2022 11:15:00 AM 9.54 49.172 0.691 7.9 3.43 9.78
11/3/2022 11:30:00 AM 9.66 49.388 0.691 7.92 3.34 10.06
11/3/2022 11:45:00 AM 9.81 49.658 0.69 7.95 3.39 10.39
11/3/2022 12:00:00 PM 9.96 49.928 0.69 7.97 3.33 10.71
11/3/2022 12:15:00 PM 10.13 50.234 0.689 8.01 3.34 11
11/3/2022 12:30:00 PM 10.31 50.558 0.689 8.03 3.2 11.31
11/3/2022 12:45:00 PM 10.51 50.918 0.688 8.05 3.31 11.59
11/3/2022 1:00:00 PM 10.72 51.296 0.688 8.08 3.17 11.89
11/3/2022 1:15:00 PM 10.95 51.71 0.687 8.1 3.25 12.16
11/3/2022 1:30:00 PM 11.19 52.142 0.687 8.12 3.21 12.46
11/3/2022 1:45:00 PM 11.43 52.574 0.686 8.16 3.24 12.78
11/3/2022 2:00:00 PM 11.64 52.952 0.685 8.17 3.26 13.02
11/3/2022 2:15:00 PM 11.81 53.258 0.685 8.21 3.19 13.26
11/3/2022 2:30:00 PM 11.93 53.474 0.684 8.23 3.17 13.47
11/3/2022 2:45:00 PM 12.03 53.654 0.684 8.25 3.16 13.68
11/3/2022 3:00:00 PM 12.08 53.744 0.683 8.26 3.14 13.81
11/3/2022 3:15:00 PM 12.11 53.798 0.683 8.28 3.2 13.91
11/3/2022 3:30:00 PM 12.13 53.834 0.682 8.28 3.23 13.97
11/3/2022 3:45:00 PM 12.16 53.888 0.682 8.3 3.18 14.15
11/3/2022 4:00:00 PM 12.17 53.906 0.682 8.3 3.08 14.18
11/3/2022 4:15:00 PM 12.18 53.924 0.682 8.32 3.12 14.25
11/3/2022 4:30:00 PM 12.18 53.924 0.682 8.32 3.3 14.3
11/3/2022 4:45:00 PM 12.16 53.888 0.682 8.32 3.19 14.29
11/3/2022 5:00:00 PM 12.13 53.834 0.682 8.32 3.19 14.23
11/3/2022 5:15:00 PM 12.08 53.744 0.682 8.31 3.12 14.13
11/3/2022 5:30:00 PM 12.04 53.672 0.682 8.3 3.37 13.96
11/3/2022 5:45:00 PM 11.98 53.564 0.683 8.27 3.21 13.78
11/3/2022 6:00:00 PM 11.93 53.474 0.683 8.27 3.12 13.66
11/3/2022 6:15:00 PM 11.86 53.348 0.683 8.25 3.14 13.56
11/3/2022 6:30:00 PM 11.8 53.24 0.683 8.23 3.52 13.37
11/3/2022 6:45:00 PM 11.73 53.114 0.684 8.21 3.53 13.19
11/3/2022 7:00:00 PM 11.66 52.988 0.684 8.2 3.15 12.99
11/3/2022 7:15:00 PM 11.58 52.844 0.684 8.17 3.91 12.82
11/3/2022 7:30:00 PM 11.49 52.682 0.685 8.16 3.25 12.6
11/3/2022 7:45:00 PM 11.4 52.52 0.685 8.13 3.3 12.42
11/3/2022 8:00:00 PM 11.32 52.376 0.685 8.12 3.14 12.21
11/3/2022 8:15:00 PM 11.24 52.232 0.686 8.09 3.16 12.01
11/3/2022 8:30:00 PM 11.16 52.088 0.686 8.08 3.28 11.82
11/3/2022 8:45:00 PM 11.1 51.98 0.687 8.06 3.11 11.64
11/3/2022 9:00:00 PM 11.04 51.872 0.687 8.04 3.39 11.51
11/3/2022 9:15:00 PM 10.99 51.782 0.687 8.03 3.29 11.33
11/3/2022 9:30:00 PM 10.94 51.692 0.688 8 3.16 11.18
11/3/2022 9:45:00 PM 10.9 51.62 0.688 8 3.13 11.08
11/3/2022 10:00:00 PM 10.85 51.53 0.688 7.99 3.15 10.97
11/3/2022 10:15:00 PM 10.81 51.458 0.688 7.97 3.12 10.87
11/3/2022 10:30:00 PM 10.77 51.386 0.688 7.96 3.17 10.74
11/3/2022 10:45:00 PM 10.73 51.314 0.689 7.95 3.2 10.59
11/3/2022 11:00:00 PM 10.69 51.242 0.689 7.94 3.2 10.45
11/3/2022 11:15:00 PM 10.64 51.152 0.689 7.92 3.44 10.3
11/3/2022 11:30:00 PM 10.58 51.044 0.69 7.9 3.1 10.21
11/3/2022 11:45:00 PM 10.53 50.954 0.69 7.89 3.14 10.08
11/4/2022 12:00:00 AM 10.48 50.864 0.69 7.89 3.2 9.93
11/4/2022 12:15:00 AM 10.42 50.756 0.69 7.86 3.15 9.84
11/4/2022 12:30:00 AM 10.36 50.648 0.691 7.88 3.18 9.74
11/4/2022 12:45:00 AM 10.3 50.54 0.691 7.86 3.28 9.64
11/4/2022 1:00:00 AM 10.25 50.45 0.691 7.84 3.23 9.53
11/4/2022 1:15:00 AM 10.19 50.342 0.691 7.85 3.2 9.44
11/4/2022 1:30:00 AM 10.14 50.252 0.691 7.84 3.12 9.35
11/4/2022 1:45:00 AM 10.08 50.144 0.692 7.84 3.27 9.24
11/4/2022 2:00:00 AM 10.03 50.054 0.692 7.82 3.17 9.17
11/4/2022 2:15:00 AM 9.98 49.964 0.692 7.82 3.13 9.07
11/4/2022 2:30:00 AM 9.93 49.874 0.692 7.81 3.19 8.99
11/4/2022 2:45:00 AM 9.89 49.802 0.692 7.81 3.22 8.93
11/4/2022 3:00:00 AM 9.84 49.712 0.692 7.8 3.16 8.85
11/4/2022 3:15:00 AM 9.8 49.64 0.692 7.8 3.21 8.76
11/4/2022 3:30:00 AM 9.75 49.55 0.693 7.79 3.3 8.73
11/4/2022 3:45:00 AM 9.71 49.478 0.693 7.78 3.2 8.67
11/4/2022 4:00:00 AM 9.67 49.406 0.693 7.79 3.43 8.63
11/4/2022 4:15:00 AM 9.64 49.352 0.693 7.79 3.19 8.56
11/4/2022 4:30:00 AM 9.6 49.28 0.693 7.78 3.24 8.5
11/4/2022 4:45:00 AM 9.56 49.208 0.693 7.77 3.21 8.45
11/4/2022 5:00:00 AM 9.53 49.154 0.693 7.76 3.21 8.42
11/4/2022 5:15:00 AM 9.49 49.082 0.693 7.76 3.3 8.32
11/4/2022 5:30:00 AM 9.45 49.01 0.693 7.76 3.26 8.3
11/4/2022 5:45:00 AM 9.42 48.956 0.693 7.76 3.42 8.27
11/4/2022 6:00:00 AM 9.38 48.884 0.694 7.76 2.87 8.19
11/4/2022 6:15:00 AM 9.34 48.812 0.694 7.76 2.85 8.15
11/4/2022 6:30:00 AM 9.3 48.74 0.694 7.75 2.89 8.09
11/4/2022 6:45:00 AM 9.26 48.668 0.694 7.74 2.99 8.04
11/4/2022 7:00:00 AM 9.23 48.614 0.694 7.75 2.9 7.99
11/4/2022 7:15:00 AM 9.19 48.542 0.694 7.75 2.94 7.94
11/4/2022 7:30:00 AM 9.15 48.47 0.694 7.74 2.88 7.9
11/4/2022 7:45:00 AM 9.11 48.398 0.694 7.74 3.05 7.8
11/4/2022 8:00:00 AM 9.07 48.326 0.694 7.73 2.99 7.79
11/4/2022 8:15:00 AM 9.04 48.272 0.697 7.73 3.05 7.78
11/4/2022 8:30:00 AM 8.99 48.182 0.695 7.72 2.93 7.8
11/4/2022 8:45:00 AM 8.96 48.128 0.695 7.71 2.87 7.83
11/4/2022 9:00:00 AM 8.93 48.074 0.695 7.72 3.02 7.91
11/4/2022 9:15:00 AM 8.91 48.038 0.695 7.74 2.94 7.95
11/4/2022 9:30:00 AM 8.89 48.002 0.695 7.75 2.91 8.06
11/4/2022 9:45:00 AM 8.87 47.966 0.695 7.76 2.92 8.15
11/4/2022 10:00:00 AM 8.86 47.948 0.695 7.77 3.1 8.21
11/4/2022 10:15:00 AM 8.86 47.948 0.695 7.77 2.98 8.39
11/4/2022 10:30:00 AM 8.86 47.948 0.695 7.78 2.89 8.54
11/4/2022 10:45:00 AM 8.9 48.02 0.695 7.81 2.95 8.76
11/4/2022 11:00:00 AM 8.96 48.128 0.695 7.82 2.88 9.04
11/4/2022 11:15:00 AM 9.08 48.344 0.695 7.85 2.96 9.3
11/4/2022 11:30:00 AM 9.23 48.614 0.694 7.87 2.94 9.61
11/4/2022 11:45:00 AM 9.43 48.974 0.694 7.91 2.88 10.01
11/4/2022 12:00:00 PM 9.62 49.316 0.694 7.93 2.9 10.31
11/4/2022 12:15:00 PM 9.81 49.658 0.693 7.96 2.76 10.62
11/4/2022 12:30:00 PM 10.01 50.018 0.693 7.99 2.77 10.95
11/4/2022 12:45:00 PM 10.24 50.432 0.693 8.01 2.85 11.25
11/4/2022 1:00:00 PM 10.49 50.882 0.692 8.04 2.79 11.57
11/4/2022 1:15:00 PM 10.73 51.314 0.692 8.08 2.74 11.88
11/4/2022 1:30:00 PM 10.98 51.764 0.691 8.11 2.79 12.2
11/4/2022 1:45:00 PM 11.22 52.196 0.69 8.13 3.69 12.53
11/4/2022 2:00:00 PM 11.43 52.574 0.69 8.17 2.69 12.84
11/4/2022 2:15:00 PM 11.6 52.88 0.689 8.2 2.73 13.11
11/4/2022 2:30:00 PM 11.73 53.114 0.689 8.22 2.81 13.31
11/4/2022 2:45:00 PM 11.81 53.258 0.688 8.23 2.73 13.5
11/4/2022 3:00:00 PM 11.86 53.348 0.688 8.25 2.68 13.67
11/4/2022 3:15:00 PM 11.88 53.384 0.687 8.27 2.75 13.73
11/4/2022 3:30:00 PM 11.9 53.42 0.687 8.28 2.7 13.85
11/4/2022 3:45:00 PM 11.91 53.438 0.687 8.29 2.8 13.98
11/4/2022 4:00:00 PM 11.91 53.438 0.686 8.3 2.61 14
11/4/2022 4:15:00 PM 11.91 53.438 0.686 8.3 2.78 14.12
11/4/2022 4:30:00 PM 11.92 53.456 0.686 8.31 2.71 14.15
11/4/2022 4:45:00 PM 11.92 53.456 0.686 8.32 2.77 14.11
11/4/2022 5:00:00 PM 11.91 53.438 0.686 8.32 3.16 14.06
11/4/2022 5:15:00 PM 11.87 53.366 0.686 8.31 2.72 14
11/4/2022 5:30:00 PM 11.84 53.312 0.687 8.3 2.79 13.75
11/4/2022 5:45:00 PM 11.8 53.24 0.687 8.29 2.68 13.7
11/4/2022 6:00:00 PM 11.76 53.168 0.687 8.28 2.75 13.56
11/4/2022 6:15:00 PM 11.72 53.096 0.687 8.25 2.74 13.41
11/4/2022 6:30:00 PM 11.68 53.024 0.688 8.24 2.74 13.24
11/4/2022 6:45:00 PM 11.63 52.934 0.688 8.22 2.77 13.05
11/4/2022 7:00:00 PM 11.57 52.826 0.688 8.2 2.8 12.88
11/4/2022 7:15:00 PM 11.51 52.718 0.689 8.18 2.8 12.69
11/4/2022 7:30:00 PM 11.45 52.61 0.689 8.16 2.76 12.52
11/4/2022 7:45:00 PM 11.38 52.484 0.689 8.14 2.72 12.34
11/4/2022 8:00:00 PM 11.33 52.394 0.689 8.12 2.94 12.15
11/4/2022 8:15:00 PM 11.27 52.286 0.69 8.1 2.8 11.94
11/4/2022 8:30:00 PM 11.23 52.214 0.69 8.09 2.85 11.78
11/4/2022 8:45:00 PM 11.19 52.142 0.69 8.07 2.75 11.6
11/4/2022 9:00:00 PM 11.15 52.07 0.69 8.05 2.79 11.46
11/4/2022 9:15:00 PM 11.12 52.016 0.691 8.04 2.81 11.3
11/4/2022 9:30:00 PM 11.09 51.962 0.691 8.02 2.82 11.18
11/4/2022 9:45:00 PM 11.06 51.908 0.691 8 2.87 11.04
11/4/2022 10:00:00 PM 11.04 51.872 0.691 8 2.89 10.91
11/4/2022 10:15:00 PM 11.02 51.836 0.691 7.98 3.23 10.8
11/4/2022 10:30:00 PM 11 51.8 0.692 7.97 2.9 10.69
11/4/2022 10:45:00 PM 10.99 51.782 0.692 7.96 2.84 10.54
11/4/2022 11:00:00 PM 10.99 51.782 0.692 7.95 3.03 10.43
11/4/2022 11:15:00 PM 10.98 51.764 0.692 7.94 3.03 10.27
11/4/2022 11:30:00 PM 10.97 51.746 0.693 7.92 2.86 10.17
11/4/2022 11:45:00 PM 10.96 51.728 0.693 7.92 2.9 10.02
11/5/2022 12:00:00 AM 10.95 51.71 0.693 7.91 2.83 9.88
11/5/2022 12:15:00 AM 10.94 51.692 0.694 7.89 2.82 9.78
11/5/2022 12:30:00 AM 10.94 51.692 0.694 7.89 2.9 9.65
11/5/2022 12:45:00 AM 10.94 51.692 0.694 7.89 2.83 9.57
11/5/2022 1:00:00 AM 10.94 51.692 0.694 7.88 2.75 9.48
11/5/2022 1:15:00 AM 10.94 51.692 0.694 7.87 2.87 9.37
11/5/2022 1:30:00 AM 10.93 51.674 0.695 7.85 2.87 9.28
11/5/2022 1:45:00 AM 10.93 51.674 0.695 7.86 2.8 9.18
11/5/2022 2:00:00 AM 10.93 51.674 0.695 7.85 3.04 9.1
11/5/2022 2:15:00 AM 10.93 51.674 0.695 7.84 2.84 9.01
11/5/2022 2:30:00 AM 10.93 51.674 0.695 7.84 2.95 8.91
11/5/2022 2:45:00 AM 10.94 51.692 0.695 7.84 3.27 8.89
11/5/2022 3:00:00 AM 10.94 51.692 0.695 7.83 3.06 8.82
11/5/2022 3:15:00 AM 10.94 51.692 0.695 7.83 2.82 8.77
11/5/2022 3:30:00 AM 10.94 51.692 0.696 7.82 2.88 8.67
11/5/2022 3:45:00 AM 10.94 51.692 0.696 7.81 3.28 8.62
11/5/2022 4:00:00 AM 10.94 51.692 0.696 7.81 2.86 8.54
11/5/2022 4:15:00 AM 10.95 51.71 0.696 7.81 2.73 8.52
11/5/2022 4:30:00 AM 10.94 51.692 0.696 7.81 2.82 8.45
11/5/2022 4:45:00 AM 10.94 51.692 0.696 7.81 2.76 8.43
11/5/2022 5:00:00 AM 10.93 51.674 0.696 7.8 2.75 8.37
11/5/2022 5:15:00 AM 10.92 51.656 0.696 7.8 2.91 8.3
11/5/2022 5:30:00 AM 10.91 51.638 0.696 7.79 2.72 8.22
11/5/2022 5:45:00 AM 10.91 51.638 0.696 7.79 2.73 8.14
11/5/2022 6:00:00 AM 10.9 51.62 0.697 7.78 2.83 8.07
11/5/2022 6:15:00 AM 10.89 51.602 0.696 7.79 2.78 8
11/5/2022 6:30:00 AM 10.89 51.602 0.696 7.77 2.72 8.01
11/5/2022 6:45:00 AM 10.89 51.602 0.697 7.76 2.94 7.92
11/5/2022 7:00:00 AM 10.88 51.584 0.697 7.78 2.76 7.88
11/5/2022 7:15:00 AM 10.88 51.584 0.697 7.75 2.91 7.82
11/5/2022 7:30:00 AM 10.89 51.602 0.699 7.74 2.79 7.69
11/5/2022 7:45:00 AM 10.89 51.602 0.697 7.76 2.85 7.75
11/5/2022 8:00:00 AM 10.9 51.62 0.697 7.75 2.71 7.67
11/5/2022 8:15:00 AM 10.92 51.656 0.697 7.76 2.78 7.63
11/5/2022 8:30:00 AM 10.93 51.674 0.697 7.76 2.73 7.61
11/5/2022 8:45:00 AM 10.95 51.71 0.697 7.76 2.76 7.68
11/5/2022 9:00:00 AM 10.98 51.764 0.697 7.77 2.69 7.77
11/5/2022 9:15:00 AM 11.03 51.854 0.697 7.78 2.81 7.96
11/5/2022 9:30:00 AM 11.1 51.98 0.697 7.8 2.83 8.13
11/5/2022 9:45:00 AM 11.19 52.142 0.697 7.81 2.76 8.35
11/5/2022 10:00:00 AM 11.28 52.304 0.697 7.83 2.8 8.6
11/5/2022 10:15:00 AM 11.38 52.484 0.697 7.85 2.74 8.82
11/5/2022 10:30:00 AM 11.5 52.7 0.697 7.87 2.92 9.08
11/5/2022 10:45:00 AM 11.62 52.916 0.697 7.9 2.72 9.39
11/5/2022 11:00:00 AM 11.76 53.168 0.696 7.92 2.76 9.71
11/5/2022 11:15:00 AM 11.91 53.438 0.696 7.94 2.86 10.11
11/5/2022 11:30:00 AM 12.05 53.69 0.696 7.98 2.71 10.39
11/5/2022 11:45:00 AM 12.17 53.906 0.695 8 2.69 10.64
11/5/2022 12:00:00 PM 12.27 54.086 0.695 8.02 2.71 10.85
11/5/2022 12:15:00 PM 12.37 54.266 0.695 8.04 2.93 11.02
11/5/2022 12:30:00 PM 12.46 54.428 0.695 8.07 2.76 11.26
11/5/2022 12:45:00 PM 12.58 54.644 0.694 8.08 2.93 11.49
11/5/2022 1:00:00 PM 12.68 54.824 0.694 8.11 2.75 11.79
11/5/2022 1:15:00 PM 12.79 55.022 0.693 8.12 2.69 11.95
11/5/2022 1:30:00 PM 12.87 55.166 0.693 8.13 2.65 12.02
11/5/2022 1:45:00 PM 12.96 55.328 0.693 8.17 2.87 12.24
11/5/2022 2:00:00 PM 13.04 55.472 0.692 8.19 2.62 12.43
11/5/2022 2:15:00 PM 13.14 55.652 0.692 8.2 2.65 12.63
11/5/2022 2:30:00 PM 13.25 55.85 0.691 8.23 2.61 12.87
11/5/2022 2:45:00 PM 13.36 56.048 0.691 8.26 2.69 13.11
11/5/2022 3:00:00 PM 13.47 56.246 0.69 8.29 2.63 13.31
11/5/2022 3:15:00 PM 13.57 56.426 0.689 8.28 2.74 13.49
11/5/2022 3:30:00 PM 13.65 56.57 0.689 8.33 2.64 13.64
11/5/2022 3:45:00 PM 13.72 56.696 0.688 8.33 2.73 13.79
11/5/2022 4:00:00 PM 13.79 56.822 0.688 8.33 2.65 13.89
11/5/2022 4:15:00 PM 13.85 56.93 0.687 8.36 2.64 13.98
11/5/2022 4:30:00 PM 13.9 57.02 0.687 8.37 2.55 13.95
11/5/2022 4:45:00 PM 13.94 57.092 0.687 8.37 2.61 13.92
11/5/2022 5:00:00 PM 13.98 57.164 0.687 8.36 2.59 13.83
11/5/2022 5:15:00 PM 14.01 57.218 0.687 8.36 2.63 13.72
11/5/2022 5:30:00 PM 14.03 57.254 0.687 8.35 2.67 13.6
11/5/2022 5:45:00 PM 14.04 57.272 0.687 8.33 2.72 13.4
11/5/2022 6:00:00 PM 14.04 57.272 0.688 8.32 2.6 13.2
11/5/2022 6:15:00 PM 14.04 57.272 0.688 8.3 2.65 13.01
11/5/2022 6:30:00 PM 14.04 57.272 0.688 8.29 2.64 12.83
11/5/2022 6:45:00 PM 14.03 57.254 0.689 8.26 2.71 12.63
11/5/2022 7:00:00 PM 14.03 57.254 0.689 8.23 2.65 12.28
11/5/2022 7:15:00 PM 14.02 57.236 0.69 8.22 2.66 12.14
11/5/2022 7:30:00 PM 14.02 57.236 0.69 8.2 2.77 11.93
11/5/2022 7:45:00 PM 14.01 57.218 0.69 8.17 2.66 11.78
11/5/2022 8:00:00 PM 14.01 57.218 0.691 8.16 2.6 11.56
11/5/2022 8:15:00 PM 14.02 57.236 0.691 8.14 2.68 11.36
11/5/2022 8:30:00 PM 14.02 57.236 0.691 8.12 2.63 11.21
11/5/2022 8:45:00 PM 14.02 57.236 0.691 8.11 2.7 10.98
11/5/2022 9:00:00 PM 14.03 57.254 0.692 8.09 2.94 10.9
11/5/2022 9:15:00 PM 14.03 57.254 0.692 8.07 2.74 10.7
11/5/2022 9:30:00 PM 14.04 57.272 0.692 8.05 2.62 10.54
11/5/2022 9:45:00 PM 14.04 57.272 0.692 8.05 2.91 10.36
11/5/2022 10:00:00 PM 14.05 57.29 0.693 8.04 2.62 10.19
11/5/2022 10:15:00 PM 14.04 57.272 0.693 8.02 2.57 9.99
11/5/2022 10:30:00 PM 14.03 57.254 0.693 8.01 2.55 9.9
11/5/2022 10:45:00 PM 14.02 57.236 0.693 8 2.7 9.73
11/5/2022 11:00:00 PM 14.02 57.236 0.694 7.98 2.61 9.65
11/5/2022 11:15:00 PM 14.02 57.236 0.694 7.98 2.53 9.49
11/5/2022 11:30:00 PM 14.02 57.236 0.694 7.97 2.56 9.37
11/5/2022 11:45:00 PM 14.02 57.236 0.694 7.96 2.74 9.24
11/6/2022 12:00:00 AM 14.02 57.236 0.694 7.95 2.52 9.13
11/6/2022 12:15:00 AM 14.03 57.254 0.694 7.93 2.54 9.01
11/6/2022 12:30:00 AM 14.05 57.29 0.695 7.93 2.49 8.9
11/6/2022 12:45:00 AM 14.07 57.326 0.695 7.92 2.65 8.79
11/6/2022 1:00:00 AM 14.09 57.362 0.695 7.92 2.78 8.69
11/6/2022 1:15:00 AM 14.12 57.416 0.695 7.91 2.65 8.6
11/6/2022 1:30:00 AM 14.15 57.47 0.695 7.91 2.94 8.4
11/6/2022 1:45:00 AM 14.17 57.506 0.695 7.89 2.66 8.41
11/6/2022 2:00:00 AM 14.21 57.578 0.695 7.89 2.5 8.33
11/6/2022 2:15:00 AM 14.24 57.632 0.696 7.89 2.51 8.25
11/6/2022 2:30:00 AM 14.26 57.668 0.696 7.89 2.5 8.14
11/6/2022 2:45:00 AM 14.29 57.722 0.696 7.88 2.46 8.06
11/6/2022 3:00:00 AM 14.31 57.758 0.696 7.87 2.69 7.95
11/6/2022 3:15:00 AM 14.32 57.776 0.696 7.85 2.52 7.9
11/6/2022 3:30:00 AM 14.33 57.794 0.696 7.85 2.6 7.81
11/6/2022 3:45:00 AM 14.33 57.794 0.696 7.86 2.54 7.73
11/6/2022 4:00:00 AM 14.39 57.902 0.697 7.82 2.63 7.39
11/6/2022 4:15:00 AM 14.41 57.938 0.697 7.8 2.47 7.33
11/6/2022 4:30:00 AM 14.42 57.956 0.697 7.82 2.6 7.28
11/6/2022 4:45:00 AM 14.43 57.974 0.697 7.79 2.49 7.24
11/6/2022 5:00:00 AM 14.43 57.974 0.697 7.81 2.43 7.15
11/6/2022 5:15:00 AM 14.44 57.992 0.697 7.8 2.58 7.12
11/6/2022 5:30:00 AM 14.45 58.01 0.698 7.8 2.68 7.06
11/6/2022 5:45:00 AM 14.46 58.028 0.698 7.8 2.6 6.98
11/6/2022 6:00:00 AM 14.46 58.028 0.698 7.78 2.56 6.9
11/6/2022 6:15:00 AM 14.46 58.028 0.698 7.79 2.48 6.88
11/6/2022 6:30:00 AM 14.46 58.028 0.698 7.79 2.62 6.82
11/6/2022 6:45:00 AM 14.46 58.028 0.698 7.78 2.62 6.78
11/6/2022 7:00:00 AM 14.46 58.028 0.698 7.78 2.6 6.75
11/6/2022 7:15:00 AM 14.47 58.046 0.699 7.77 2.59 6.72
11/6/2022 7:30:00 AM 14.48 58.064 0.699 7.78 2.52 6.68
11/6/2022 7:45:00 AM 14.49 58.082 0.699 7.78 2.55 6.67
11/6/2022 8:00:00 AM 14.51 58.118 0.699 7.78 2.57 6.69
11/6/2022 8:15:00 AM 14.53 58.154 0.699 7.77 2.55 6.72
11/6/2022 8:30:00 AM 14.54 58.172 0.699 7.79 2.6 6.84
11/6/2022 8:45:00 AM 14.57 58.226 0.699 7.8 2.56 7.05
11/6/2022 9:00:00 AM 14.62 58.316 0.699 7.81 2.58 7.29
11/6/2022 9:15:00 AM 14.67 58.406 0.699 7.84 2.63 7.58
11/6/2022 9:30:00 AM 14.73 58.514 0.699 7.86 2.58 7.79
11/6/2022 9:45:00 AM 14.79 58.622 0.699 7.88 2.58 8.17
11/6/2022 10:00:00 AM 14.87 58.766 0.699 7.91 2.64 8.59
11/6/2022 10:15:00 AM 14.94 58.892 0.698 7.94 2.51 8.94
11/6/2022 10:30:00 AM 15 59 0.698 7.98 2.7 9.16
11/6/2022 10:45:00 AM 15.05 59.09 0.698 7.99 2.6 9.41
11/6/2022 11:00:00 AM 15.09 59.162 0.698 7.98 2.64 9.58
11/6/2022 11:15:00 AM 15.16 59.288 0.697 8.02 2.57 9.91
11/6/2022 11:30:00 AM 15.27 59.486 0.697 8.07 2.55 10.22
11/6/2022 11:45:00 AM 15.37 59.666 0.697 8.08 2.59 10.42
11/6/2022 12:00:00 PM 15.44 59.792 0.697 8.08 2.51 10.59
11/6/2022 12:15:00 PM 15.49 59.882 0.696 8.1 2.59 10.84
11/6/2022 12:30:00 PM 15.58 60.044 0.696 8.15 2.62 11.07
11/6/2022 12:45:00 PM 15.69 60.242 0.695 8.15 2.58 11.37
11/6/2022 1:00:00 PM 15.77 60.386 0.695 8.17 2.56 11.5
11/6/2022 1:15:00 PM 15.85 60.53 0.695 8.19 2.54 11.55
11/6/2022 1:30:00 PM 15.93 60.674 0.695 8.2 2.5 11.79
11/6/2022 1:45:00 PM 16.02 60.836 0.694 8.23 2.53 12.04
11/6/2022 2:00:00 PM 16.09 60.962 0.693 8.25 2.54 12.24
11/6/2022 2:15:00 PM 16.12 61.016 0.693 8.26 2.54 12.27
11/6/2022 2:30:00 PM 16.13 61.034 0.693 8.27 2.53 12.44
11/6/2022 2:45:00 PM 16.14 61.052 0.693 8.27 2.59 12.37
11/6/2022 3:00:00 PM 16.15 61.07 0.693 8.28 2.56 12.45
11/6/2022 3:15:00 PM 16.16 61.088 0.693 8.29 2.55 12.46
11/6/2022 3:30:00 PM 16.17 61.106 0.692 8.27 2.59 12.5
11/6/2022 3:45:00 PM 16.17 61.106 0.692 8.28 2.68 12.35
11/6/2022 4:00:00 PM 16.17 61.106 0.692 8.26 2.49 12.16
11/6/2022 4:15:00 PM 16.16 61.088 0.691 8.25 2.59 11.93
11/6/2022 4:30:00 PM 16.16 61.088 0.69 8.23 2.7 11.7
11/6/2022 4:45:00 PM 16.15 61.07 0.688 8.21 2.72 11.46
11/6/2022 5:00:00 PM 16.13 61.034 0.686 8.19 2.72 11.25
11/6/2022 5:15:00 PM 16.11 60.998 0.686 8.17 2.86 11.08
11/6/2022 5:30:00 PM 16.08 60.944 0.686 8.15 2.88 10.84
11/6/2022 5:45:00 PM 16.04 60.872 0.686 8.12 2.72 10.67
11/6/2022 6:00:00 PM 16.01 60.818 0.687 8.11 2.71 10.51
11/6/2022 6:15:00 PM 15.97 60.746 0.687 8.09 2.85 10.35
11/6/2022 6:30:00 PM 15.93 60.674 0.688 8.07 2.74 10.11
11/6/2022 6:45:00 PM 15.9 60.62 0.688 8.05 2.61 9.98
11/6/2022 7:00:00 PM 15.88 60.584 0.688 8.04 2.74 9.8
11/6/2022 7:15:00 PM 15.86 60.548 0.689 8.03 2.7 9.61
11/6/2022 7:30:00 PM 15.84 60.512 0.689 8.01 2.63 9.59
11/6/2022 7:45:00 PM 15.83 60.494 0.688 8 2.6 9.48
11/6/2022 8:00:00 PM 15.83 60.494 0.685 7.99 2.84 9.36
11/6/2022 8:15:00 PM 15.82 60.476 0.683 7.98 2.89 9.23
11/6/2022 8:30:00 PM 15.82 60.476 0.678 7.97 3.16 9.09
11/6/2022 8:45:00 PM 15.81 60.458 0.676 7.96 2.96 8.91
11/6/2022 9:00:00 PM 15.8 60.44 0.675 7.94 2.87 8.84
11/6/2022 9:15:00 PM 15.79 60.422 0.675 7.92 2.76 8.69
11/6/2022 9:30:00 PM 15.78 60.404 0.675 7.92 2.8 8.58
11/6/2022 9:45:00 PM 15.77 60.386 0.675 7.9 2.85 8.46
11/6/2022 10:00:00 PM 15.75 60.35 0.676 7.89 2.87 8.31
11/6/2022 10:15:00 PM 15.74 60.332 0.676 7.88 2.9 8.2
11/6/2022 10:30:00 PM 15.72 60.296 0.676 7.87 2.85 8.06
11/6/2022 10:45:00 PM 15.7 60.26 0.677 7.86 2.87 7.94
11/6/2022 11:00:00 PM 15.68 60.224 0.677 7.85 2.89 7.84
11/6/2022 11:15:00 PM 15.66 60.188 0.678 7.84 2.82 7.69
11/6/2022 11:30:00 PM 15.65 60.17 0.678 7.82 2.97 7.62
11/6/2022 11:45:00 PM 15.64 60.152 0.678 7.82 3.14 7.52
11/7/2022 12:00:00 AM 15.62 60.116 0.678 7.81 3.07 7.43
11/7/2022 12:15:00 AM 15.6 60.08 0.679 7.8 2.99 7.35
11/7/2022 12:30:00 AM 15.57 60.026 0.679 7.79 3.34 7.24
11/7/2022 12:45:00 AM 15.54 59.972 0.679 7.79 3.02 7.16
11/7/2022 1:00:00 AM 15.51 59.918 0.679 7.78 3.16 7.05
11/7/2022 1:15:00 AM 15.47 59.846 0.679 7.78 3.05 6.93
11/7/2022 1:30:00 AM 15.44 59.792 0.679 7.77 2.95 6.82
11/7/2022 1:45:00 AM 15.41 59.738 0.679 7.76 3.86 6.74
11/7/2022 2:00:00 AM 15.39 59.702 0.679 7.76 2.93 6.64
11/7/2022 2:15:00 AM 15.37 59.666 0.679 7.75 3.04 6.59
11/7/2022 2:30:00 AM 15.33 59.594 0.679 7.74 3.06 6.41
11/7/2022 2:45:00 AM 15.29 59.522 0.679 7.74 3.21 6.39
11/7/2022 3:00:00 AM 15.24 59.432 0.679 7.73 3.1 6.3
11/7/2022 3:15:00 AM 15.19 59.342 0.679 7.72 2.95 6.24
11/7/2022 3:30:00 AM 15.14 59.252 0.679 7.72 2.96 6.13
11/7/2022 3:45:00 AM 15.09 59.162 0.679 7.72 2.94 6.06
11/7/2022 4:00:00 AM 15.03 59.054 0.679 7.71 2.97 6.01
11/7/2022 4:15:00 AM 14.96 58.928 0.679 7.71 2.97 5.91
11/7/2022 4:30:00 AM 14.9 58.82 0.679 7.7 2.98 5.86
11/7/2022 4:45:00 AM 14.84 58.712 0.679 7.69 3 5.8
11/7/2022 5:00:00 AM 14.77 58.586 0.68 7.7 2.98 5.79
11/7/2022 5:15:00 AM 14.71 58.478 0.68 7.69 3.05 5.67
11/7/2022 5:30:00 AM 14.64 58.352 0.68 7.68 3 5.62
11/7/2022 5:45:00 AM 14.58 58.244 0.68 7.68 3.12 5.57
11/7/2022 6:00:00 AM 14.51 58.118 0.681 7.67 3.98 5.45
11/7/2022 6:15:00 AM 14.45 58.01 0.681 7.67 3.22 5.44
11/7/2022 6:30:00 AM 14.38 57.884 0.681 7.67 3.04 5.36
11/7/2022 6:45:00 AM 14.32 57.776 0.682 7.67 3.16 5.34
11/7/2022 7:00:00 AM 14.25 57.65 0.682 7.67 3.83 5.24
11/7/2022 7:15:00 AM 14.19 57.542 0.682 7.67 2.92 5.28
11/7/2022 7:30:00 AM 14.13 57.434 0.682 7.67 3.02 5.27
11/7/2022 7:45:00 AM 14.08 57.344 0.683 7.67 2.94 5.3
11/7/2022 8:00:00 AM 14.04 57.272 0.683 7.67 2.96 5.37
11/7/2022 8:15:00 AM 14.01 57.218 0.683 7.67 2.94 5.43
11/7/2022 8:30:00 AM 13.98 57.164 0.683 7.68 3.02 5.54
11/7/2022 8:45:00 AM 13.95 57.11 0.683 7.68 3.03 5.65
11/7/2022 9:00:00 AM 13.92 57.056 0.683 7.69 2.94 5.77
11/7/2022 9:15:00 AM 13.9 57.02 0.683 7.7 3 5.91
11/7/2022 9:30:00 AM 13.88 56.984 0.684 7.71 2.91 6.06
11/7/2022 9:45:00 AM 13.9 57.02 0.684 7.73 2.92 6.26
11/7/2022 10:00:00 AM 13.94 57.092 0.684 7.74 3.03 6.54
11/7/2022 10:15:00 AM 14.05 57.29 0.685 7.78 2.97 6.99
11/7/2022 10:30:00 AM 14.18 57.524 0.685 7.81 2.93 7.43
11/7/2022 10:45:00 AM 14.33 57.794 0.685 7.85 2.88 7.99
11/7/2022 11:00:00 AM 14.46 58.028 0.685 7.89 2.93 8.4
11/7/2022 11:15:00 AM 14.58 58.244 0.685 7.92 2.91 8.79
11/7/2022 11:30:00 AM 14.69 58.442 0.685 7.96 2.81 9.19
11/7/2022 11:45:00 AM 14.79 58.622 0.685 7.99 2.85 9.53
11/7/2022 12:00:00 PM 14.91 58.838 0.685 8.03 2.76 9.92
11/7/2022 12:15:00 PM 15.04 59.072 0.685 8.06 2.79 10.36
11/7/2022 12:30:00 PM 15.18 59.324 0.685 8.1 2.79 10.8
11/7/2022 12:45:00 PM 15.31 59.558 0.684 8.14 2.84 11.14
11/7/2022 1:00:00 PM 15.4 59.72 0.684 8.18 2.75 11.49
11/7/2022 1:15:00 PM 15.46 59.828 0.684 8.2 2.8 11.77
11/7/2022 1:30:00 PM 15.49 59.882 0.683 8.23 2.73 12.12
11/7/2022 1:45:00 PM 15.49 59.882 0.683 8.25 2.74 12.23
11/7/2022 2:00:00 PM 15.46 59.828 0.683 8.27 2.69 12.37
11/7/2022 2:15:00 PM 15.45 59.81 0.682 8.27 2.73 12.57
11/7/2022 2:30:00 PM 15.44 59.792 0.682 8.31 2.76 12.79
11/7/2022 2:45:00 PM 15.42 59.756 0.682 8.33 2.77 12.86
11/7/2022 3:00:00 PM 15.38 59.684 0.682 8.35 2.89 13.04
11/7/2022 3:15:00 PM 15.32 59.576 0.682 8.35 2.94 13.13
11/7/2022 3:30:00 PM 15.23 59.414 0.682 8.36 2.81 13.11
11/7/2022 3:45:00 PM 15.1 59.18 0.682 8.35 2.86 13.09
11/7/2022 4:00:00 PM 14.96 58.928 0.682 8.35 2.78 12.93
11/7/2022 4:15:00 PM 14.81 58.658 0.683 8.33 2.84 12.7
11/7/2022 4:30:00 PM 14.67 58.406 0.683 8.31 2.71 12.53
11/7/2022 4:45:00 PM 14.53 58.154 0.683 8.28 2.85 12.29
11/7/2022 5:00:00 PM 14.4 57.92 0.684 8.27 2.85 12.12
11/7/2022 5:15:00 PM 14.26 57.668 0.684 8.25 2.82 11.86
11/7/2022 5:30:00 PM 14.13 57.434 0.685 8.22 2.82 11.7
11/7/2022 5:45:00 PM 14 57.2 0.685 8.2 2.96 11.4
11/7/2022 6:00:00 PM 13.89 57.002 0.686 8.18 3.01 11.17
11/7/2022 6:15:00 PM 13.77 56.786 0.686 8.15 2.83 10.91
11/7/2022 6:30:00 PM 13.66 56.588 0.687 8.13 2.95 10.67
11/7/2022 6:45:00 PM 13.56 56.408 0.687 8.09 2.83 10.43
11/7/2022 7:00:00 PM 13.47 56.246 0.688 8.08 2.85 10.28
11/7/2022 7:15:00 PM 13.4 56.12 0.688 8.05 2.83 10.08
11/7/2022 7:30:00 PM 13.32 55.976 0.688 8.04 2.92 9.88
11/7/2022 7:45:00 PM 13.25 55.85 0.688 8.02 2.91 9.77
11/7/2022 8:00:00 PM 13.18 55.724 0.689 8.01 2.89 9.63
11/7/2022 8:15:00 PM 13.11 55.598 0.689 7.99 2.9 9.47
11/7/2022 8:30:00 PM 13.04 55.472 0.689 7.98 2.95 9.34
11/7/2022 8:45:00 PM 12.96 55.328 0.689 7.97 2.9 9.21
11/7/2022 9:00:00 PM 12.87 55.166 0.689 7.94 2.9 9.08
11/7/2022 9:15:00 PM 12.8 55.04 0.69 7.93 3.45 8.96
11/7/2022 9:30:00 PM 12.71 54.878 0.69 7.92 2.99 8.82
11/7/2022 9:45:00 PM 12.62 54.716 0.69 7.9 2.96 8.73
11/7/2022 10:00:00 PM 12.54 54.572 0.69 7.9 3.03 8.58
11/7/2022 10:15:00 PM 12.47 54.446 0.69 7.88 3.18 8.4
11/7/2022 10:30:00 PM 12.39 54.302 0.69 7.86 2.96 8.28
11/7/2022 10:45:00 PM 12.31 54.158 0.69 7.85 3.15 8.13
11/7/2022 11:00:00 PM 12.24 54.032 0.69 7.84 2.96 8.01
11/7/2022 11:15:00 PM 12.17 53.906 0.691 7.82 2.93 7.94
11/7/2022 11:30:00 PM 12.1 53.78 0.691 7.82 2.91 7.83
11/7/2022 11:45:00 PM 12.03 53.654 0.691 7.82 3.02 7.69
11/8/2022 12:00:00 AM 11.97 53.546 0.691 7.82 2.91 7.58
11/8/2022 12:15:00 AM 11.91 53.438 0.691 7.81 2.91 7.53
11/8/2022 12:30:00 AM 11.85 53.33 0.691 7.8 3.08 7.42
11/8/2022 12:45:00 AM 11.81 53.258 0.691 7.79 3.1 7.35
11/8/2022 1:00:00 AM 11.77 53.186 0.691 7.79 2.89 7.33
11/8/2022 1:15:00 AM 11.75 53.15 0.69 7.79 2.87 7.22
11/8/2022 1:30:00 AM 11.72 53.096 0.69 7.78 2.84 7.18
11/8/2022 1:45:00 AM 11.7 53.06 0.69 7.77 2.95 7.08
11/8/2022 2:00:00 AM 11.66 52.988 0.69 7.77 2.94 6.99
11/8/2022 2:15:00 AM 11.62 52.916 0.69 7.77 2.92 6.91
11/8/2022 2:30:00 AM 11.59 52.862 0.69 7.76 2.88 6.86
11/8/2022 2:45:00 AM 11.55 52.79 0.69 7.75 2.88 6.79
11/8/2022 3:00:00 AM 11.52 52.736 0.689 7.75 2.8 6.7
11/8/2022 3:15:00 AM 11.46 52.628 0.689 7.74 3.11 6.67
11/8/2022 3:30:00 AM 11.4 52.52 0.689 7.74 2.92 6.62
11/8/2022 3:45:00 AM 11.33 52.394 0.689 7.73 2.86 6.57
11/8/2022 4:00:00 AM 11.27 52.286 0.689 7.72 2.95 6.51
11/8/2022 4:15:00 AM 11.2 52.16 0.689 7.72 2.87 6.44
11/8/2022 4:30:00 AM 11.14 52.052 0.688 7.72 2.86 6.35
11/8/2022 4:45:00 AM 11.09 51.962 0.688 7.71 2.82 6.31
11/8/2022 5:00:00 AM 11.05 51.89 0.688 7.7 2.97 6.25
11/8/2022 5:15:00 AM 11.02 51.836 0.688 7.69 2.94 6.17
11/8/2022 5:30:00 AM 11 51.8 0.688 7.7 2.92 6.11
11/8/2022 5:45:00 AM 10.97 51.746 0.688 7.69 3.07 6.02
11/8/2022 6:00:00 AM 10.93 51.674 0.688 7.69 2.9 6.01
11/8/2022 6:15:00 AM 10.88 51.584 0.687 7.68 2.85 5.95
11/8/2022 6:30:00 AM 10.83 51.494 0.687 7.67 2.91 5.84
11/8/2022 6:45:00 AM 10.76 51.368 0.687 7.67 3.05 5.84
11/8/2022 7:00:00 AM 10.7 51.26 0.687 7.66 2.78 5.81
11/8/2022 7:15:00 AM 10.63 51.134 0.687 7.66 2.88 5.77
11/8/2022 7:30:00 AM 10.57 51.026 0.687 7.67 2.82 5.8
11/8/2022 7:45:00 AM 10.52 50.936 0.687 7.66 2.77 5.87
11/8/2022 8:00:00 AM 10.48 50.864 0.687 7.66 2.84 5.92
11/8/2022 8:15:00 AM 10.43 50.774 0.686 7.67 2.86 5.99
11/8/2022 8:30:00 AM 10.39 50.702 0.686 7.68 2.83 6.05
11/8/2022 8:45:00 AM 10.36 50.648 0.686 7.69 3.02 6.23
11/8/2022 9:00:00 AM 10.32 50.576 0.686 7.69 2.85 6.34
11/8/2022 9:15:00 AM 10.28 50.504 0.686 7.7 2.88 6.5
11/8/2022 9:30:00 AM 10.25 50.45 0.686 7.7 2.89 6.68
11/8/2022 9:45:00 AM 10.25 50.45 0.685 7.71 2.88 6.96
11/8/2022 10:00:00 AM 10.27 50.486 0.685 7.75 2.94 7.29
11/8/2022 10:15:00 AM 10.36 50.648 0.685 7.78 2.89 7.64
11/8/2022 10:30:00 AM 10.48 50.864 0.684 7.81 2.79 8.1
11/8/2022 10:45:00 AM 10.62 51.116 0.684 7.84 2.83 8.53
11/8/2022 11:00:00 AM 10.75 51.35 0.683 7.88 2.79 8.92
11/8/2022 11:15:00 AM 10.88 51.584 0.683 7.91 2.83 9.41
11/8/2022 11:30:00 AM 11.01 51.818 0.682 7.95 2.9 9.78
11/8/2022 11:45:00 AM 11.14 52.052 0.682 7.98 2.83 10.15
11/8/2022 12:00:00 PM 11.28 52.304 0.681 8.01 2.84 10.57
11/8/2022 12:15:00 PM 11.44 52.592 0.681 8.05 2.86 10.97
11/8/2022 12:30:00 PM 11.61 52.898 0.68 8.09 2.86 11.39
11/8/2022 12:45:00 PM 11.78 53.204 0.68 8.14 2.87 11.75
11/8/2022 1:00:00 PM 11.9 53.42 0.679 8.16 2.91 12.15
11/8/2022 1:15:00 PM 11.96 53.528 0.679 8.19 2.87 12.45
11/8/2022 1:30:00 PM 12.01 53.618 0.678 8.22 2.87 12.69
11/8/2022 1:45:00 PM 12.01 53.618 0.678 8.23 2.82 12.95
11/8/2022 2:00:00 PM 11.99 53.582 0.678 8.26 2.9 13.15
11/8/2022 2:15:00 PM 11.96 53.528 0.677 8.28 2.84 13.24
11/8/2022 2:30:00 PM 11.93 53.474 0.677 8.29 3.24 13.41
11/8/2022 2:45:00 PM 11.91 53.438 0.677 8.31 2.92 13.56
11/8/2022 3:00:00 PM 11.88 53.384 0.677 8.33 2.91 13.68
11/8/2022 3:15:00 PM 11.83 53.294 0.677 8.34 2.98 13.79
11/8/2022 3:30:00 PM 11.78 53.204 0.678 8.33 2.92 13.83
11/8/2022 3:45:00 PM 11.71 53.078 0.678 8.35 2.88 13.88
11/8/2022 4:00:00 PM 11.62 52.916 0.678 8.34 2.92 13.8
11/8/2022 4:15:00 PM 11.52 52.736 0.679 8.33 3.29 13.65
11/8/2022 4:30:00 PM 11.42 52.556 0.68 8.31 2.9 13.53
11/8/2022 4:45:00 PM 11.32 52.376 0.681 8.29 2.92 13.4
11/8/2022 5:00:00 PM 11.23 52.214 0.681 8.29 3.36 13.26
11/8/2022 5:15:00 PM 11.14 52.052 0.682 8.27 2.93 13.08
11/8/2022 5:30:00 PM 11.04 51.872 0.683 8.25 3.04 12.88
11/8/2022 5:45:00 PM 10.93 51.674 0.684 8.22 3.37 12.66
11/8/2022 6:00:00 PM 10.82 51.476 0.685 8.2 3.05 12.45
11/8/2022 6:15:00 PM 10.71 51.278 0.686 8.17 2.95 12.22
11/8/2022 6:30:00 PM 10.61 51.098 0.687 8.15 2.98 11.98
11/8/2022 6:45:00 PM 10.5 50.9 0.688 8.12 3.05 11.77
11/8/2022 7:00:00 PM 10.41 50.738 0.689 8.08 2.93 11.57
11/8/2022 7:15:00 PM 10.32 50.576 0.69 8.07 2.84 11.36
11/8/2022 7:30:00 PM 10.24 50.432 0.69 8.04 2.94 11.17
11/8/2022 7:45:00 PM 10.17 50.306 0.691 8.03 2.9 11.02
11/8/2022 8:00:00 PM 10.09 50.162 0.692 8.02 2.98 10.86
11/8/2022 8:15:00 PM 10.02 50.036 0.692 8 2.89 10.72
11/8/2022 8:30:00 PM 9.96 49.928 0.693 7.99 2.88 10.55
11/8/2022 8:45:00 PM 9.9 49.82 0.694 7.96 2.93 10.43
11/8/2022 9:00:00 PM 9.83 49.694 0.694 7.96 2.91 10.29
11/8/2022 9:15:00 PM 9.77 49.586 0.694 7.95 3.01 10.14
11/8/2022 9:30:00 PM 9.71 49.478 0.695 7.92 2.98 10.06
11/8/2022 9:45:00 PM 9.65 49.37 0.695 7.92 2.95 9.97
11/8/2022 10:00:00 PM 9.59 49.262 0.696 7.91 2.9 9.84
11/8/2022 10:15:00 PM 9.53 49.154 0.696 7.9 2.9 9.73
11/8/2022 10:30:00 PM 9.46 49.028 0.696 7.89 2.83 9.64
11/8/2022 10:45:00 PM 9.4 48.92 0.697 7.87 3.04 9.54
11/8/2022 11:00:00 PM 9.34 48.812 0.697 7.87 2.99 9.44
11/8/2022 11:15:00 PM 9.27 48.686 0.697 7.86 3.01 9.35
11/8/2022 11:30:00 PM 9.2 48.56 0.697 7.85 2.76 9.23
11/8/2022 11:45:00 PM 9.14 48.452 0.697 7.84 2.78 9.16
11/9/2022 12:00:00 AM 9.08 48.344 0.697 7.84 2.93 9.07
11/9/2022 12:15:00 AM 9.01 48.218 0.698 7.83 2.82 8.98
11/9/2022 12:30:00 AM 8.95 48.11 0.698 7.83 2.8 8.91
11/9/2022 12:45:00 AM 8.89 48.002 0.698 7.82 2.78 8.86
11/9/2022 1:00:00 AM 8.84 47.912 0.698 7.81 2.79 8.77
11/9/2022 1:15:00 AM 8.79 47.822 0.698 7.82 2.89 8.72
11/9/2022 1:30:00 AM 8.73 47.714 0.698 7.81 2.81 8.66
11/9/2022 1:45:00 AM 8.68 47.624 0.698 7.81 2.79 8.59
11/9/2022 2:00:00 AM 8.63 47.534 0.698 7.81 2.81 8.55
11/9/2022 2:15:00 AM 8.58 47.444 0.698 7.79 2.85 8.51
11/9/2022 2:30:00 AM 8.53 47.354 0.698 7.8 2.82 8.45
11/9/2022 2:45:00 AM 8.49 47.282 0.697 7.8 3.06 8.38
11/9/2022 3:00:00 AM 8.43 47.174 0.697 7.8 2.84 8.34
11/9/2022 3:15:00 AM 8.39 47.102 0.697 7.78 2.86 8.33
11/9/2022 3:30:00 AM 8.33 46.994 0.697 7.79 2.86 8.27
11/9/2022 3:45:00 AM 8.28 46.904 0.697 7.78 3.02 8.22
11/9/2022 4:00:00 AM 8.22 46.796 0.697 7.77 2.94 8.18
11/9/2022 4:15:00 AM 8.16 46.688 0.697 7.78 3.19 8.15
11/9/2022 4:30:00 AM 8.1 46.58 0.697 7.78 3.11 8.11
11/9/2022 4:45:00 AM 8.04 46.472 0.697 7.78 2.9 8.06
11/9/2022 5:00:00 AM 7.98 46.364 0.697 7.76 2.9 8.01
11/9/2022 5:15:00 AM 7.92 46.256 0.697 7.77 2.93 7.96
11/9/2022 5:30:00 AM 7.86 46.148 0.697 7.76 3.01 7.91
11/9/2022 5:45:00 AM 7.8 46.04 0.697 7.76 2.95 7.86
11/9/2022 6:00:00 AM 7.73 45.914 0.697 7.75 3 7.82
11/9/2022 6:15:00 AM 7.67 45.806 0.697 7.76 2.97 7.79
11/9/2022 6:30:00 AM 7.6 45.68 0.697 7.75 3.01 7.75
11/9/2022 6:45:00 AM 7.54 45.572 0.698 7.75 2.95 7.71
11/9/2022 7:00:00 AM 7.48 45.464 0.698 7.74 3.19 7.68
11/9/2022 7:15:00 AM 7.42 45.356 0.698 7.74 3.06 7.67
11/9/2022 7:30:00 AM 7.36 45.248 0.698 7.74 3.27 7.64
11/9/2022 7:45:00 AM 7.3 45.14 0.698 7.73 2.98 7.67
11/9/2022 8:00:00 AM 7.23 45.014 0.698 7.76 3.61 7.86
11/9/2022 8:15:00 AM 7.19 44.942 0.698 7.76 3.05 7.92
11/9/2022 8:30:00 AM 7.16 44.888 0.698 7.76 3.78 8
11/9/2022 8:45:00 AM 7.12 44.816 0.698 7.77 3.12 8.08
11/9/2022 9:00:00 AM 7.08 44.744 0.698 7.79 3.06 8.21
11/9/2022 9:15:00 AM 7.05 44.69 0.698 7.79 3.02 8.39
11/9/2022 9:30:00 AM 7.03 44.654 0.697 7.79 3.36 8.53
11/9/2022 9:45:00 AM 7.03 44.654 0.697 7.82 3.38 8.6
11/9/2022 10:00:00 AM 7.07 44.726 0.698 7.83 3.37 8.97
11/9/2022 10:15:00 AM 7.17 44.906 0.697 7.86 3.13 9.12
11/9/2022 10:30:00 AM 7.31 45.158 0.697 7.89 3.2 9.46
11/9/2022 10:45:00 AM 7.47 45.446 0.696 7.92 3.17 9.73
11/9/2022 11:00:00 AM 7.63 45.734 0.696 7.93 3.02 10.04
11/9/2022 11:15:00 AM 7.79 46.022 0.695 7.98 3.14 10.45
11/9/2022 11:30:00 AM 7.96 46.328 0.695 8 3.14 10.8
11/9/2022 11:45:00 AM 8.12 46.616 0.695 8.03 3.04 11.1
11/9/2022 12:00:00 PM 8.29 46.922 0.694 8.06 2.92 11.42
11/9/2022 12:15:00 PM 8.47 47.246 0.693 8.09 2.92 11.73
11/9/2022 12:30:00 PM 8.69 47.642 0.693 8.13 2.91 12.02
11/9/2022 12:45:00 PM 8.89 48.002 0.692 8.15 2.84 12.32
11/9/2022 1:00:00 PM 9.03 48.254 0.692 8.17 2.71 12.61
11/9/2022 1:15:00 PM 9.14 48.452 0.691 8.2 2.83 12.94
11/9/2022 1:30:00 PM 9.23 48.614 0.691 8.22 2.85 13.14
11/9/2022 1:45:00 PM 9.29 48.722 0.69 8.24 2.83 13.33
11/9/2022 2:00:00 PM 9.3 48.74 0.69 8.26 2.73 13.52
11/9/2022 2:15:00 PM 9.26 48.668 0.689 8.27 2.77 13.66
11/9/2022 2:30:00 PM 9.23 48.614 0.689 8.29 2.8 13.78
11/9/2022 2:45:00 PM 9.24 48.632 0.689 8.29 2.79 13.89
11/9/2022 3:00:00 PM 9.25 48.65 0.689 8.32 2.85 14.08
11/9/2022 3:15:00 PM 9.25 48.65 0.69 8.31 2.99 14.09
11/9/2022 3:30:00 PM 9.21 48.578 0.688 8.33 3.24 14.25
11/9/2022 3:45:00 PM 9.16 48.488 0.689 8.34 2.92 14.25
11/9/2022 4:00:00 PM 9.1 48.38 0.689 8.33 2.89 14.23
11/9/2022 4:15:00 PM 9.03 48.254 0.689 8.33 2.92 14.16
11/9/2022 4:30:00 PM 8.95 48.11 0.689 8.32 2.92 14.06
11/9/2022 4:45:00 PM 8.88 47.984 0.69 8.31 2.91 13.97
11/9/2022 5:00:00 PM 8.81 47.858 0.69 8.3 2.91 13.84
11/9/2022 5:15:00 PM 8.74 47.732 0.69 8.28 3.3 13.73
11/9/2022 5:30:00 PM 8.66 47.588 0.691 8.27 3.26 13.57
11/9/2022 5:45:00 PM 8.59 47.462 0.691 8.25 3.19 13.39
11/9/2022 6:00:00 PM 8.51 47.318 0.692 8.23 3.07 13.27
11/9/2022 6:15:00 PM 8.44 47.192 0.692 8.21 3.35 13.1
11/9/2022 6:30:00 PM 8.37 47.066 0.692 8.19 3.26 12.94
11/9/2022 6:45:00 PM 8.3 46.94 0.693 8.17 3.11 12.75
11/9/2022 7:00:00 PM 8.23 46.814 0.693 8.15 3.04 12.59
11/9/2022 7:15:00 PM 8.17 46.706 0.693 8.12 3.52 12.43
11/9/2022 7:30:00 PM 8.11 46.598 0.693 8.1 3.49 12.28
11/9/2022 7:45:00 PM 8.06 46.508 0.694 8.09 3.52 12.13
11/9/2022 8:00:00 PM 8.01 46.418 0.694 8.07 3.23 11.98
11/9/2022 8:15:00 PM 7.96 46.328 0.694 8.04 3.41 11.83
11/9/2022 8:30:00 PM 7.91 46.238 0.694 8.05 3.21 11.74
11/9/2022 8:45:00 PM 7.87 46.166 0.694 8.03 3.31 11.63
11/9/2022 9:00:00 PM 7.82 46.076 0.694 8.02 3.11 11.53
11/9/2022 9:15:00 PM 7.77 45.986 0.694 8.01 3.14 11.42
11/9/2022 9:30:00 PM 7.72 45.896 0.694 8 3.23 11.33
11/9/2022 9:45:00 PM 7.67 45.806 0.694 7.99 3.14 11.23
11/9/2022 10:00:00 PM 7.63 45.734 0.694 7.98 3.34 11.15
11/9/2022 10:15:00 PM 7.58 45.644 0.694 7.97 3.45 11.04
11/9/2022 10:30:00 PM 7.53 45.554 0.694 7.95 3.31 10.9
11/9/2022 10:45:00 PM 7.47 45.446 0.694 7.95 3.16 10.81
11/9/2022 11:00:00 PM 7.42 45.356 0.694 7.94 3.22 10.7
11/9/2022 11:15:00 PM 7.38 45.284 0.694 7.93 3.1 10.68
11/9/2022 11:30:00 PM 7.33 45.194 0.694 7.91 3.1 10.56
11/9/2022 11:45:00 PM 7.28 45.104 0.694 7.92 3.14 10.45
11/10/2022 12:00:00 AM 7.24 45.032 0.694 7.91 3.68 10.39
11/10/2022 12:15:00 AM 7.19 44.942 0.694 7.89 3.13 10.28
11/10/2022 12:30:00 AM 7.15 44.87 0.694 7.89 3.26 10.24
11/10/2022 12:45:00 AM 7.11 44.798 0.694 7.89 3.16 10.19
11/10/2022 1:00:00 AM 7.07 44.726 0.694 7.88 3.2 10.13
11/10/2022 1:15:00 AM 7.03 44.654 0.693 7.87 3.3 10.05
11/10/2022 1:30:00 AM 7 44.6 0.693 7.87 3.17 9.98
11/10/2022 1:45:00 AM 6.96 44.528 0.693 7.87 3.15 9.9
11/10/2022 2:00:00 AM 6.93 44.474 0.693 7.87 3.23 9.83
11/10/2022 2:15:00 AM 6.9 44.42 0.693 7.86 3.22 9.79
11/10/2022 2:30:00 AM 6.87 44.366 0.692 7.86 3.62 9.73
11/10/2022 2:45:00 AM 6.85 44.33 0.692 7.85 3.17 9.74
11/10/2022 3:00:00 AM 6.82 44.276 0.692 7.85 3.23 9.7
11/10/2022 3:15:00 AM 6.8 44.24 0.691 7.86 3.59 9.65
11/10/2022 3:30:00 AM 6.78 44.204 0.691 7.85 3.2 9.58
11/10/2022 3:45:00 AM 6.75 44.15 0.691 7.85 3.16 9.56
11/10/2022 4:00:00 AM 6.73 44.114 0.69 7.83 3.09 9.51
11/10/2022 4:15:00 AM 6.7 44.06 0.69 7.84 3.38 9.46
11/10/2022 4:30:00 AM 6.68 44.024 0.69 7.84 4.87 9.4
11/10/2022 4:45:00 AM 6.65 43.97 0.689 7.84 3.2 9.37
11/10/2022 5:00:00 AM 6.62 43.916 0.689 7.82 3.37 9.31
11/10/2022 5:15:00 AM 6.59 43.862 0.689 7.83 3.4 9.27
11/10/2022 5:30:00 AM 6.55 43.79 0.688 7.83 3.53 9.25
11/10/2022 5:45:00 AM 6.52 43.736 0.688 7.82 3.1 9.15
11/10/2022 6:00:00 AM 6.48 43.664 0.688 7.82 2.96 9.12
11/10/2022 6:15:00 AM 6.45 43.61 0.688 7.82 3.18 9.09
11/10/2022 6:30:00 AM 6.41 43.538 0.687 7.82 3.04 9.06
11/10/2022 6:45:00 AM 6.37 43.466 0.687 7.81 2.97 8.99
11/10/2022 7:00:00 AM 6.33 43.394 0.687 7.81 3.28 9.01
11/10/2022 7:15:00 AM 6.29 43.322 0.687 7.81 3.15 8.96
11/10/2022 7:30:00 AM 6.25 43.25 0.687 7.81 3.03 8.95
11/10/2022 7:45:00 AM 6.21 43.178 0.687 7.81 3.01 8.97
11/10/2022 8:00:00 AM 6.18 43.124 0.687 7.81 3.13 9.01
11/10/2022 8:15:00 AM 6.15 43.07 0.686 7.82 3.06 9.07
11/10/2022 8:30:00 AM 6.13 43.034 0.686 7.82 3.08 9.13
11/10/2022 8:45:00 AM 6.11 42.998 0.686 7.83 3.1 9.21
11/10/2022 9:00:00 AM 6.11 42.998 0.686 7.83 3.09 9.3
11/10/2022 9:15:00 AM 6.11